<?xml version="1.0" encoding="UTF-8" standalone="no" ?>
<gpx xmlns="http://www.topografix.com/GPX/1/1" xmlns:xsi="http://www.w3.org/2001/XMLSchema-instance" xsi:schemaLocation="http://www.topografix.com/GPX/1/1 http://www.topografix.com/GPX/1/1/gpx.xsd" version="1.1" creator="VisuGPX - https://www.visugpx.com">
  <metadata>
    <name>SC à Vérac mai 2018</name>
    <desc><![CDATA[Très beau parcours qui emprunte peu de routes.
A voir des châteaux, des lavoirs, des vignes ...]]></desc>
  </metadata>
  <trk>
    <name><![CDATA[2018-05-22 15:20:26]]></name>
    <trkseg>
      <trkpt lat="44.9923" lon="-0.3397">
        <ele>65.99</ele>
        <time>2018-05-22T06:51:26Z</time>
      </trkpt>
      <trkpt lat="44.9923" lon="-0.3397">
        <ele>65.99</ele>
        <time>2018-05-22T06:51:27Z</time>
      </trkpt>
      <trkpt lat="44.9923" lon="-0.33969">
        <ele>66.47</ele>
        <time>2018-05-22T06:51:46Z</time>
      </trkpt>
      <trkpt lat="44.99229" lon="-0.3397">
        <ele>66.47</ele>
        <time>2018-05-22T06:52:12Z</time>
      </trkpt>
      <trkpt lat="44.99229" lon="-0.33972">
        <ele>66.47</ele>
        <time>2018-05-22T06:52:46Z</time>
      </trkpt>
      <trkpt lat="44.99228" lon="-0.33968">
        <ele>66.47</ele>
        <time>2018-05-22T06:53:26Z</time>
      </trkpt>
      <trkpt lat="44.99225" lon="-0.3397">
        <ele>66.47</ele>
        <time>2018-05-22T06:53:58Z</time>
      </trkpt>
      <trkpt lat="44.99223" lon="-0.33968">
        <ele>66.47</ele>
        <time>2018-05-22T06:54:32Z</time>
      </trkpt>
      <trkpt lat="44.99222" lon="-0.33967">
        <ele>66.47</ele>
        <time>2018-05-22T06:54:43Z</time>
      </trkpt>
      <trkpt lat="44.99221" lon="-0.33968">
        <ele>66.47</ele>
        <time>2018-05-22T06:55:01Z</time>
      </trkpt>
      <trkpt lat="44.9922" lon="-0.33966">
        <ele>66.47</ele>
        <time>2018-05-22T06:55:14Z</time>
      </trkpt>
      <trkpt lat="44.99223" lon="-0.33963">
        <ele>66.47</ele>
        <time>2018-05-22T06:55:28Z</time>
      </trkpt>
      <trkpt lat="44.99224" lon="-0.33961">
        <ele>66.47</ele>
        <time>2018-05-22T06:55:45Z</time>
      </trkpt>
      <trkpt lat="44.99223" lon="-0.3396">
        <ele>66.47</ele>
        <time>2018-05-22T06:55:58Z</time>
      </trkpt>
      <trkpt lat="44.99223" lon="-0.33959">
        <ele>66.47</ele>
        <time>2018-05-22T06:56:22Z</time>
      </trkpt>
      <trkpt lat="44.99228" lon="-0.33962">
        <ele>66.47</ele>
        <time>2018-05-22T06:56:45Z</time>
      </trkpt>
      <trkpt lat="44.99227" lon="-0.33962">
        <ele>66.47</ele>
        <time>2018-05-22T06:57:03Z</time>
      </trkpt>
      <trkpt lat="44.99225" lon="-0.33962">
        <ele>66.47</ele>
        <time>2018-05-22T06:57:17Z</time>
      </trkpt>
      <trkpt lat="44.99224" lon="-0.33959">
        <ele>66.47</ele>
        <time>2018-05-22T06:57:42Z</time>
      </trkpt>
      <trkpt lat="44.99226" lon="-0.33958">
        <ele>66.47</ele>
        <time>2018-05-22T06:58:03Z</time>
      </trkpt>
      <trkpt lat="44.99226" lon="-0.33957">
        <ele>66.47</ele>
        <time>2018-05-22T06:58:25Z</time>
      </trkpt>
      <trkpt lat="44.99229" lon="-0.33955">
        <ele>65.99</ele>
        <time>2018-05-22T06:58:44Z</time>
      </trkpt>
      <trkpt lat="44.9923" lon="-0.33956">
        <ele>65.99</ele>
        <time>2018-05-22T06:59:04Z</time>
      </trkpt>
      <trkpt lat="44.9923" lon="-0.33956">
        <ele>65.99</ele>
        <time>2018-05-22T06:59:25Z</time>
      </trkpt>
      <trkpt lat="44.99228" lon="-0.33963">
        <ele>65.99</ele>
        <time>2018-05-22T06:59:39Z</time>
      </trkpt>
      <trkpt lat="44.99225" lon="-0.3397">
        <ele>65.99</ele>
        <time>2018-05-22T06:59:59Z</time>
      </trkpt>
      <trkpt lat="44.99223" lon="-0.33972">
        <ele>65.99</ele>
        <time>2018-05-22T07:00:12Z</time>
      </trkpt>
      <trkpt lat="44.99224" lon="-0.33978">
        <ele>65.99</ele>
        <time>2018-05-22T07:00:25Z</time>
      </trkpt>
      <trkpt lat="44.99227" lon="-0.33984">
        <ele>65.99</ele>
        <time>2018-05-22T07:00:39Z</time>
      </trkpt>
      <trkpt lat="44.99227" lon="-0.33992">
        <ele>65.99</ele>
        <time>2018-05-22T07:00:53Z</time>
      </trkpt>
      <trkpt lat="44.99227" lon="-0.33995">
        <ele>65.99</ele>
        <time>2018-05-22T07:00:56Z</time>
      </trkpt>
      <trkpt lat="44.99226" lon="-0.34008">
        <ele>65.99</ele>
        <time>2018-05-22T07:01:09Z</time>
      </trkpt>
      <trkpt lat="44.99219" lon="-0.3403">
        <ele>65.99</ele>
        <time>2018-05-22T07:01:26Z</time>
      </trkpt>
      <trkpt lat="44.99208" lon="-0.34044">
        <ele>64.07</ele>
        <time>2018-05-22T07:01:42Z</time>
      </trkpt>
      <trkpt lat="44.99202" lon="-0.3405">
        <ele>64.07</ele>
        <time>2018-05-22T07:01:49Z</time>
      </trkpt>
      <trkpt lat="44.9919" lon="-0.34068">
        <ele>62.62</ele>
        <time>2018-05-22T07:02:05Z</time>
      </trkpt>
      <trkpt lat="44.99179" lon="-0.34074">
        <ele>62.62</ele>
        <time>2018-05-22T07:02:19Z</time>
      </trkpt>
      <trkpt lat="44.99172" lon="-0.34091">
        <ele>63.1</ele>
        <time>2018-05-22T07:02:34Z</time>
      </trkpt>
      <trkpt lat="44.99174" lon="-0.34114">
        <ele>62.62</ele>
        <time>2018-05-22T07:02:50Z</time>
      </trkpt>
      <trkpt lat="44.99178" lon="-0.34131">
        <ele>62.62</ele>
        <time>2018-05-22T07:03:01Z</time>
      </trkpt>
      <trkpt lat="44.99192" lon="-0.34159">
        <ele>62.14</ele>
        <time>2018-05-22T07:03:17Z</time>
      </trkpt>
      <trkpt lat="44.99202" lon="-0.34189">
        <ele>62.14</ele>
        <time>2018-05-22T07:03:34Z</time>
      </trkpt>
      <trkpt lat="44.99213" lon="-0.34221">
        <ele>61.66</ele>
        <time>2018-05-22T07:03:54Z</time>
      </trkpt>
      <trkpt lat="44.9922" lon="-0.34243">
        <ele>61.18</ele>
        <time>2018-05-22T07:04:09Z</time>
      </trkpt>
      <trkpt lat="44.99225" lon="-0.34265">
        <ele>61.18</ele>
        <time>2018-05-22T07:04:23Z</time>
      </trkpt>
      <trkpt lat="44.9923" lon="-0.34283">
        <ele>60.7</ele>
        <time>2018-05-22T07:04:40Z</time>
      </trkpt>
      <trkpt lat="44.9923" lon="-0.34291">
        <ele>60.7</ele>
        <time>2018-05-22T07:04:55Z</time>
      </trkpt>
      <trkpt lat="44.99224" lon="-0.34299">
        <ele>60.7</ele>
        <time>2018-05-22T07:05:07Z</time>
      </trkpt>
      <trkpt lat="44.99219" lon="-0.34305">
        <ele>60.22</ele>
        <time>2018-05-22T07:05:15Z</time>
      </trkpt>
      <trkpt lat="44.99213" lon="-0.34319">
        <ele>59.74</ele>
        <time>2018-05-22T07:05:25Z</time>
      </trkpt>
      <trkpt lat="44.99216" lon="-0.3435">
        <ele>59.26</ele>
        <time>2018-05-22T07:05:44Z</time>
      </trkpt>
      <trkpt lat="44.99226" lon="-0.34374">
        <ele>58.78</ele>
        <time>2018-05-22T07:06:00Z</time>
      </trkpt>
      <trkpt lat="44.99232" lon="-0.34401">
        <ele>58.3</ele>
        <time>2018-05-22T07:06:17Z</time>
      </trkpt>
      <trkpt lat="44.99239" lon="-0.34431">
        <ele>57.82</ele>
        <time>2018-05-22T07:06:37Z</time>
      </trkpt>
      <trkpt lat="44.99246" lon="-0.34455">
        <ele>57.82</ele>
        <time>2018-05-22T07:06:52Z</time>
      </trkpt>
      <trkpt lat="44.99246" lon="-0.34456">
        <ele>57.82</ele>
        <time>2018-05-22T07:06:53Z</time>
      </trkpt>
      <trkpt lat="44.99247" lon="-0.3446">
        <ele>57.82</ele>
        <time>2018-05-22T07:06:56Z</time>
      </trkpt>
      <trkpt lat="44.99253" lon="-0.34485">
        <ele>57.82</ele>
        <time>2018-05-22T07:07:11Z</time>
      </trkpt>
      <trkpt lat="44.9926" lon="-0.34516">
        <ele>57.34</ele>
        <time>2018-05-22T07:07:30Z</time>
      </trkpt>
      <trkpt lat="44.99264" lon="-0.34546">
        <ele>57.34</ele>
        <time>2018-05-22T07:07:46Z</time>
      </trkpt>
      <trkpt lat="44.99269" lon="-0.34574">
        <ele>56.86</ele>
        <time>2018-05-22T07:08:02Z</time>
      </trkpt>
      <trkpt lat="44.99275" lon="-0.34602">
        <ele>56.37</ele>
        <time>2018-05-22T07:08:19Z</time>
      </trkpt>
      <trkpt lat="44.99278" lon="-0.34635">
        <ele>55.41</ele>
        <time>2018-05-22T07:08:38Z</time>
      </trkpt>
      <trkpt lat="44.99269" lon="-0.34658">
        <ele>54.45</ele>
        <time>2018-05-22T07:08:54Z</time>
      </trkpt>
      <trkpt lat="44.99254" lon="-0.34676">
        <ele>54.45</ele>
        <time>2018-05-22T07:09:11Z</time>
      </trkpt>
      <trkpt lat="44.99244" lon="-0.34697">
        <ele>53.97</ele>
        <time>2018-05-22T07:09:29Z</time>
      </trkpt>
      <trkpt lat="44.99238" lon="-0.34718">
        <ele>53.97</ele>
        <time>2018-05-22T07:09:45Z</time>
      </trkpt>
      <trkpt lat="44.99236" lon="-0.34719">
        <ele>53.97</ele>
        <time>2018-05-22T07:09:47Z</time>
      </trkpt>
      <trkpt lat="44.99218" lon="-0.34733">
        <ele>53.97</ele>
        <time>2018-05-22T07:10:04Z</time>
      </trkpt>
      <trkpt lat="44.99197" lon="-0.34743">
        <ele>55.89</ele>
        <time>2018-05-22T07:10:22Z</time>
      </trkpt>
      <trkpt lat="44.99181" lon="-0.34746">
        <ele>55.89</ele>
        <time>2018-05-22T07:10:38Z</time>
      </trkpt>
      <trkpt lat="44.99166" lon="-0.34752">
        <ele>55.89</ele>
        <time>2018-05-22T07:10:53Z</time>
      </trkpt>
      <trkpt lat="44.99149" lon="-0.34761">
        <ele>56.37</ele>
        <time>2018-05-22T07:11:08Z</time>
      </trkpt>
      <trkpt lat="44.99137" lon="-0.3476">
        <ele>55.41</ele>
        <time>2018-05-22T07:11:23Z</time>
      </trkpt>
      <trkpt lat="44.9913" lon="-0.34763">
        <ele>53.97</ele>
        <time>2018-05-22T07:11:40Z</time>
      </trkpt>
      <trkpt lat="44.99115" lon="-0.34787">
        <ele>53.49</ele>
        <time>2018-05-22T07:12:00Z</time>
      </trkpt>
      <trkpt lat="44.99116" lon="-0.34798">
        <ele>53.97</ele>
        <time>2018-05-22T07:12:16Z</time>
      </trkpt>
      <trkpt lat="44.9912" lon="-0.34824">
        <ele>54.45</ele>
        <time>2018-05-22T07:12:35Z</time>
      </trkpt>
      <trkpt lat="44.99126" lon="-0.34843">
        <ele>54.93</ele>
        <time>2018-05-22T07:12:51Z</time>
      </trkpt>
      <trkpt lat="44.99133" lon="-0.34871">
        <ele>55.41</ele>
        <time>2018-05-22T07:13:08Z</time>
      </trkpt>
      <trkpt lat="44.99141" lon="-0.34898">
        <ele>55.89</ele>
        <time>2018-05-22T07:13:25Z</time>
      </trkpt>
      <trkpt lat="44.9915" lon="-0.3492">
        <ele>56.37</ele>
        <time>2018-05-22T07:13:39Z</time>
      </trkpt>
      <trkpt lat="44.99153" lon="-0.34929">
        <ele>57.82</ele>
        <time>2018-05-22T07:13:46Z</time>
      </trkpt>
      <trkpt lat="44.99155" lon="-0.3494">
        <ele>56.86</ele>
        <time>2018-05-22T07:13:58Z</time>
      </trkpt>
      <trkpt lat="44.99157" lon="-0.34962">
        <ele>55.41</ele>
        <time>2018-05-22T07:14:14Z</time>
      </trkpt>
      <trkpt lat="44.99158" lon="-0.34987">
        <ele>53.49</ele>
        <time>2018-05-22T07:14:32Z</time>
      </trkpt>
      <trkpt lat="44.9916" lon="-0.35013">
        <ele>53.49</ele>
        <time>2018-05-22T07:14:50Z</time>
      </trkpt>
      <trkpt lat="44.99164" lon="-0.35051">
        <ele>53.49</ele>
        <time>2018-05-22T07:15:11Z</time>
      </trkpt>
      <trkpt lat="44.99164" lon="-0.35077">
        <ele>50.13</ele>
        <time>2018-05-22T07:15:28Z</time>
      </trkpt>
      <trkpt lat="44.99162" lon="-0.35093">
        <ele>49.16</ele>
        <time>2018-05-22T07:15:43Z</time>
      </trkpt>
      <trkpt lat="44.99156" lon="-0.35118">
        <ele>48.68</ele>
        <time>2018-05-22T07:15:58Z</time>
      </trkpt>
      <trkpt lat="44.99148" lon="-0.35136">
        <ele>48.2</ele>
        <time>2018-05-22T07:16:13Z</time>
      </trkpt>
      <trkpt lat="44.99145" lon="-0.35141">
        <ele>47.24</ele>
        <time>2018-05-22T07:16:20Z</time>
      </trkpt>
      <trkpt lat="44.99142" lon="-0.35146">
        <ele>47.72</ele>
        <time>2018-05-22T07:16:25Z</time>
      </trkpt>
      <trkpt lat="44.99134" lon="-0.35163">
        <ele>47.24</ele>
        <time>2018-05-22T07:16:40Z</time>
      </trkpt>
      <trkpt lat="44.9913" lon="-0.35193">
        <ele>46.76</ele>
        <time>2018-05-22T07:16:56Z</time>
      </trkpt>
      <trkpt lat="44.9913" lon="-0.352">
        <ele>46.76</ele>
        <time>2018-05-22T07:16:58Z</time>
      </trkpt>
      <trkpt lat="44.99135" lon="-0.35237">
        <ele>46.76</ele>
        <time>2018-05-22T07:17:14Z</time>
      </trkpt>
      <trkpt lat="44.99132" lon="-0.35254">
        <ele>45.32</ele>
        <time>2018-05-22T07:17:27Z</time>
      </trkpt>
      <trkpt lat="44.99129" lon="-0.35267">
        <ele>44.36</ele>
        <time>2018-05-22T07:17:35Z</time>
      </trkpt>
      <trkpt lat="44.99115" lon="-0.35279">
        <ele>41.47</ele>
        <time>2018-05-22T07:17:53Z</time>
      </trkpt>
      <trkpt lat="44.99094" lon="-0.35275">
        <ele>40.51</ele>
        <time>2018-05-22T07:18:08Z</time>
      </trkpt>
      <trkpt lat="44.9907" lon="-0.35271">
        <ele>39.07</ele>
        <time>2018-05-22T07:18:26Z</time>
      </trkpt>
      <trkpt lat="44.99047" lon="-0.35271">
        <ele>38.59</ele>
        <time>2018-05-22T07:18:44Z</time>
      </trkpt>
      <trkpt lat="44.99023" lon="-0.35276">
        <ele>37.15</ele>
        <time>2018-05-22T07:19:03Z</time>
      </trkpt>
      <trkpt lat="44.99003" lon="-0.35285">
        <ele>36.67</ele>
        <time>2018-05-22T07:19:20Z</time>
      </trkpt>
      <trkpt lat="44.98984" lon="-0.35294">
        <ele>35.71</ele>
        <time>2018-05-22T07:19:36Z</time>
      </trkpt>
      <trkpt lat="44.98966" lon="-0.35303">
        <ele>34.74</ele>
        <time>2018-05-22T07:19:53Z</time>
      </trkpt>
      <trkpt lat="44.98944" lon="-0.35313">
        <ele>34.26</ele>
        <time>2018-05-22T07:20:12Z</time>
      </trkpt>
      <trkpt lat="44.98924" lon="-0.35322">
        <ele>33.3</ele>
        <time>2018-05-22T07:20:29Z</time>
      </trkpt>
      <trkpt lat="44.98908" lon="-0.3533">
        <ele>32.82</ele>
        <time>2018-05-22T07:20:44Z</time>
      </trkpt>
      <trkpt lat="44.98889" lon="-0.35337">
        <ele>32.82</ele>
        <time>2018-05-22T07:21:00Z</time>
      </trkpt>
      <trkpt lat="44.9887" lon="-0.35345">
        <ele>32.34</ele>
        <time>2018-05-22T07:21:18Z</time>
      </trkpt>
      <trkpt lat="44.9885" lon="-0.35354">
        <ele>31.86</ele>
        <time>2018-05-22T07:21:35Z</time>
      </trkpt>
      <trkpt lat="44.98831" lon="-0.35364">
        <ele>31.38</ele>
        <time>2018-05-22T07:21:52Z</time>
      </trkpt>
      <trkpt lat="44.98816" lon="-0.35381">
        <ele>30.9</ele>
        <time>2018-05-22T07:22:09Z</time>
      </trkpt>
      <trkpt lat="44.98804" lon="-0.35403">
        <ele>30.42</ele>
        <time>2018-05-22T07:22:26Z</time>
      </trkpt>
      <trkpt lat="44.98789" lon="-0.35426">
        <ele>29.94</ele>
        <time>2018-05-22T07:22:45Z</time>
      </trkpt>
      <trkpt lat="44.98775" lon="-0.35447">
        <ele>29.46</ele>
        <time>2018-05-22T07:23:04Z</time>
      </trkpt>
      <trkpt lat="44.98762" lon="-0.35466">
        <ele>29.46</ele>
        <time>2018-05-22T07:23:21Z</time>
      </trkpt>
      <trkpt lat="44.98747" lon="-0.35478">
        <ele>28.5</ele>
        <time>2018-05-22T07:23:37Z</time>
      </trkpt>
      <trkpt lat="44.98735" lon="-0.35491">
        <ele>27.53</ele>
        <time>2018-05-22T07:23:52Z</time>
      </trkpt>
      <trkpt lat="44.9872" lon="-0.35504">
        <ele>27.05</ele>
        <time>2018-05-22T07:24:08Z</time>
      </trkpt>
      <trkpt lat="44.98702" lon="-0.35518">
        <ele>26.57</ele>
        <time>2018-05-22T07:24:27Z</time>
      </trkpt>
      <trkpt lat="44.98685" lon="-0.35534">
        <ele>25.61</ele>
        <time>2018-05-22T07:24:44Z</time>
      </trkpt>
      <trkpt lat="44.98673" lon="-0.35544">
        <ele>24.65</ele>
        <time>2018-05-22T07:25:00Z</time>
      </trkpt>
      <trkpt lat="44.9866" lon="-0.35557">
        <ele>24.17</ele>
        <time>2018-05-22T07:25:15Z</time>
      </trkpt>
      <trkpt lat="44.98645" lon="-0.35568">
        <ele>24.17</ele>
        <time>2018-05-22T07:25:32Z</time>
      </trkpt>
      <trkpt lat="44.98636" lon="-0.35572">
        <ele>24.17</ele>
        <time>2018-05-22T07:25:48Z</time>
      </trkpt>
      <trkpt lat="44.98622" lon="-0.35578">
        <ele>24.17</ele>
        <time>2018-05-22T07:26:04Z</time>
      </trkpt>
      <trkpt lat="44.98609" lon="-0.35586">
        <ele>24.17</ele>
        <time>2018-05-22T07:26:22Z</time>
      </trkpt>
      <trkpt lat="44.98604" lon="-0.35592">
        <ele>24.17</ele>
        <time>2018-05-22T07:26:38Z</time>
      </trkpt>
      <trkpt lat="44.98601" lon="-0.35595">
        <ele>24.17</ele>
        <time>2018-05-22T07:26:58Z</time>
      </trkpt>
      <trkpt lat="44.98577" lon="-0.35588">
        <ele>24.65</ele>
        <time>2018-05-22T07:27:18Z</time>
      </trkpt>
      <trkpt lat="44.9856" lon="-0.35578">
        <ele>24.65</ele>
        <time>2018-05-22T07:27:42Z</time>
      </trkpt>
      <trkpt lat="44.98555" lon="-0.3558">
        <ele>24.65</ele>
        <time>2018-05-22T07:28:01Z</time>
      </trkpt>
      <trkpt lat="44.98545" lon="-0.35572">
        <ele>26.09</ele>
        <time>2018-05-22T07:28:20Z</time>
      </trkpt>
      <trkpt lat="44.98535" lon="-0.35571">
        <ele>27.05</ele>
        <time>2018-05-22T07:28:37Z</time>
      </trkpt>
      <trkpt lat="44.98529" lon="-0.35576">
        <ele>28.02</ele>
        <time>2018-05-22T07:28:50Z</time>
      </trkpt>
      <trkpt lat="44.98513" lon="-0.3558">
        <ele>28.5</ele>
        <time>2018-05-22T07:29:06Z</time>
      </trkpt>
      <trkpt lat="44.98501" lon="-0.35583">
        <ele>29.94</ele>
        <time>2018-05-22T07:29:21Z</time>
      </trkpt>
      <trkpt lat="44.98485" lon="-0.35589">
        <ele>31.38</ele>
        <time>2018-05-22T07:29:36Z</time>
      </trkpt>
      <trkpt lat="44.98474" lon="-0.35594">
        <ele>31.38</ele>
        <time>2018-05-22T07:29:48Z</time>
      </trkpt>
      <trkpt lat="44.98459" lon="-0.35602">
        <ele>31.86</ele>
        <time>2018-05-22T07:30:04Z</time>
      </trkpt>
      <trkpt lat="44.9844" lon="-0.35607">
        <ele>31.86</ele>
        <time>2018-05-22T07:30:20Z</time>
      </trkpt>
      <trkpt lat="44.98424" lon="-0.35615">
        <ele>30.9</ele>
        <time>2018-05-22T07:30:35Z</time>
      </trkpt>
      <trkpt lat="44.9841" lon="-0.35614">
        <ele>30.9</ele>
        <time>2018-05-22T07:30:46Z</time>
      </trkpt>
      <trkpt lat="44.984" lon="-0.35616">
        <ele>30.42</ele>
        <time>2018-05-22T07:31:00Z</time>
      </trkpt>
      <trkpt lat="44.98385" lon="-0.35612">
        <ele>29.94</ele>
        <time>2018-05-22T07:31:12Z</time>
      </trkpt>
      <trkpt lat="44.98357" lon="-0.35617">
        <ele>29.46</ele>
        <time>2018-05-22T07:31:28Z</time>
      </trkpt>
      <trkpt lat="44.98349" lon="-0.35621">
        <ele>28.98</ele>
        <time>2018-05-22T07:31:42Z</time>
      </trkpt>
      <trkpt lat="44.98338" lon="-0.35623">
        <ele>28.98</ele>
        <time>2018-05-22T07:31:59Z</time>
      </trkpt>
      <trkpt lat="44.98323" lon="-0.35622">
        <ele>28.98</ele>
        <time>2018-05-22T07:32:14Z</time>
      </trkpt>
      <trkpt lat="44.98308" lon="-0.35612">
        <ele>28.98</ele>
        <time>2018-05-22T07:32:30Z</time>
      </trkpt>
      <trkpt lat="44.9829" lon="-0.35606">
        <ele>28.98</ele>
        <time>2018-05-22T07:32:45Z</time>
      </trkpt>
      <trkpt lat="44.98269" lon="-0.3561">
        <ele>28.98</ele>
        <time>2018-05-22T07:33:01Z</time>
      </trkpt>
      <trkpt lat="44.98255" lon="-0.35624">
        <ele>28.98</ele>
        <time>2018-05-22T07:33:14Z</time>
      </trkpt>
      <trkpt lat="44.9824" lon="-0.3563">
        <ele>28.98</ele>
        <time>2018-05-22T07:33:30Z</time>
      </trkpt>
      <trkpt lat="44.9823" lon="-0.35631">
        <ele>28.98</ele>
        <time>2018-05-22T07:33:42Z</time>
      </trkpt>
      <trkpt lat="44.98224" lon="-0.35628">
        <ele>28.98</ele>
        <time>2018-05-22T07:33:52Z</time>
      </trkpt>
      <trkpt lat="44.98208" lon="-0.3561">
        <ele>28.98</ele>
        <time>2018-05-22T07:34:05Z</time>
      </trkpt>
      <trkpt lat="44.98197" lon="-0.35585">
        <ele>29.46</ele>
        <time>2018-05-22T07:34:18Z</time>
      </trkpt>
      <trkpt lat="44.98185" lon="-0.35568">
        <ele>28.98</ele>
        <time>2018-05-22T07:34:33Z</time>
      </trkpt>
      <trkpt lat="44.98172" lon="-0.35556">
        <ele>28.98</ele>
        <time>2018-05-22T07:34:48Z</time>
      </trkpt>
      <trkpt lat="44.98152" lon="-0.35545">
        <ele>28.98</ele>
        <time>2018-05-22T07:35:02Z</time>
      </trkpt>
      <trkpt lat="44.98149" lon="-0.3554">
        <ele>28.98</ele>
        <time>2018-05-22T07:35:18Z</time>
      </trkpt>
      <trkpt lat="44.98144" lon="-0.35541">
        <ele>28.5</ele>
        <time>2018-05-22T07:35:38Z</time>
      </trkpt>
      <trkpt lat="44.98137" lon="-0.35533">
        <ele>28.5</ele>
        <time>2018-05-22T07:35:57Z</time>
      </trkpt>
      <trkpt lat="44.98125" lon="-0.35521">
        <ele>28.5</ele>
        <time>2018-05-22T07:36:12Z</time>
      </trkpt>
      <trkpt lat="44.98108" lon="-0.35514">
        <ele>28.02</ele>
        <time>2018-05-22T07:36:28Z</time>
      </trkpt>
      <trkpt lat="44.98105" lon="-0.35512">
        <ele>28.02</ele>
        <time>2018-05-22T07:36:33Z</time>
      </trkpt>
      <trkpt lat="44.98094" lon="-0.35515">
        <ele>28.98</ele>
        <time>2018-05-22T07:36:48Z</time>
      </trkpt>
      <trkpt lat="44.98091" lon="-0.35522">
        <ele>28.98</ele>
        <time>2018-05-22T07:36:59Z</time>
      </trkpt>
      <trkpt lat="44.98089" lon="-0.3553">
        <ele>29.46</ele>
        <time>2018-05-22T07:37:04Z</time>
      </trkpt>
      <trkpt lat="44.98075" lon="-0.35539">
        <ele>30.42</ele>
        <time>2018-05-22T07:37:21Z</time>
      </trkpt>
      <trkpt lat="44.98067" lon="-0.35535">
        <ele>30.42</ele>
        <time>2018-05-22T07:37:29Z</time>
      </trkpt>
      <trkpt lat="44.98052" lon="-0.35525">
        <ele>30.42</ele>
        <time>2018-05-22T07:37:47Z</time>
      </trkpt>
      <trkpt lat="44.98041" lon="-0.35512">
        <ele>30.42</ele>
        <time>2018-05-22T07:38:03Z</time>
      </trkpt>
      <trkpt lat="44.98025" lon="-0.35513">
        <ele>30.42</ele>
        <time>2018-05-22T07:38:16Z</time>
      </trkpt>
      <trkpt lat="44.98025" lon="-0.35528">
        <ele>31.38</ele>
        <time>2018-05-22T07:38:30Z</time>
      </trkpt>
      <trkpt lat="44.98021" lon="-0.3555">
        <ele>32.82</ele>
        <time>2018-05-22T07:38:45Z</time>
      </trkpt>
      <trkpt lat="44.98021" lon="-0.35567">
        <ele>33.78</ele>
        <time>2018-05-22T07:38:56Z</time>
      </trkpt>
      <trkpt lat="44.98022" lon="-0.35594">
        <ele>34.74</ele>
        <time>2018-05-22T07:39:11Z</time>
      </trkpt>
      <trkpt lat="44.9802" lon="-0.35619">
        <ele>36.19</ele>
        <time>2018-05-22T07:39:28Z</time>
      </trkpt>
      <trkpt lat="44.98018" lon="-0.35644">
        <ele>37.63</ele>
        <time>2018-05-22T07:39:46Z</time>
      </trkpt>
      <trkpt lat="44.98017" lon="-0.35665">
        <ele>39.07</ele>
        <time>2018-05-22T07:40:02Z</time>
      </trkpt>
      <trkpt lat="44.98015" lon="-0.35693">
        <ele>40.03</ele>
        <time>2018-05-22T07:40:18Z</time>
      </trkpt>
      <trkpt lat="44.98009" lon="-0.35695">
        <ele>40.03</ele>
        <time>2018-05-22T07:40:23Z</time>
      </trkpt>
      <trkpt lat="44.97991" lon="-0.35695">
        <ele>40.03</ele>
        <time>2018-05-22T07:40:38Z</time>
      </trkpt>
      <trkpt lat="44.97972" lon="-0.35694">
        <ele>40.03</ele>
        <time>2018-05-22T07:40:55Z</time>
      </trkpt>
      <trkpt lat="44.97954" lon="-0.35693">
        <ele>40.03</ele>
        <time>2018-05-22T07:41:11Z</time>
      </trkpt>
      <trkpt lat="44.97933" lon="-0.35691">
        <ele>39.55</ele>
        <time>2018-05-22T07:41:29Z</time>
      </trkpt>
      <trkpt lat="44.97914" lon="-0.35691">
        <ele>39.55</ele>
        <time>2018-05-22T07:41:46Z</time>
      </trkpt>
      <trkpt lat="44.97901" lon="-0.35692">
        <ele>38.11</ele>
        <time>2018-05-22T07:42:01Z</time>
      </trkpt>
      <trkpt lat="44.97882" lon="-0.35694">
        <ele>37.63</ele>
        <time>2018-05-22T07:42:20Z</time>
      </trkpt>
      <trkpt lat="44.97872" lon="-0.35689">
        <ele>37.15</ele>
        <time>2018-05-22T07:42:35Z</time>
      </trkpt>
      <trkpt lat="44.97862" lon="-0.35683">
        <ele>37.15</ele>
        <time>2018-05-22T07:42:49Z</time>
      </trkpt>
      <trkpt lat="44.97847" lon="-0.3569">
        <ele>37.15</ele>
        <time>2018-05-22T07:43:05Z</time>
      </trkpt>
      <trkpt lat="44.9783" lon="-0.35691">
        <ele>37.15</ele>
        <time>2018-05-22T07:43:19Z</time>
      </trkpt>
      <trkpt lat="44.97809" lon="-0.35696">
        <ele>37.63</ele>
        <time>2018-05-22T07:43:35Z</time>
      </trkpt>
      <trkpt lat="44.97789" lon="-0.35699">
        <ele>37.63</ele>
        <time>2018-05-22T07:43:49Z</time>
      </trkpt>
      <trkpt lat="44.97765" lon="-0.35707">
        <ele>37.63</ele>
        <time>2018-05-22T07:44:07Z</time>
      </trkpt>
      <trkpt lat="44.97749" lon="-0.35712">
        <ele>38.11</ele>
        <time>2018-05-22T07:44:22Z</time>
      </trkpt>
      <trkpt lat="44.97735" lon="-0.35716">
        <ele>37.63</ele>
        <time>2018-05-22T07:44:36Z</time>
      </trkpt>
      <trkpt lat="44.97717" lon="-0.35728">
        <ele>37.63</ele>
        <time>2018-05-22T07:44:50Z</time>
      </trkpt>
      <trkpt lat="44.97702" lon="-0.35736">
        <ele>37.63</ele>
        <time>2018-05-22T07:45:05Z</time>
      </trkpt>
      <trkpt lat="44.97698" lon="-0.35738">
        <ele>37.63</ele>
        <time>2018-05-22T07:45:17Z</time>
      </trkpt>
      <trkpt lat="44.97691" lon="-0.35712">
        <ele>36.19</ele>
        <time>2018-05-22T07:45:36Z</time>
      </trkpt>
      <trkpt lat="44.97685" lon="-0.35688">
        <ele>35.23</ele>
        <time>2018-05-22T07:45:53Z</time>
      </trkpt>
      <trkpt lat="44.97679" lon="-0.35663">
        <ele>34.26</ele>
        <time>2018-05-22T07:46:10Z</time>
      </trkpt>
      <trkpt lat="44.97676" lon="-0.35652">
        <ele>33.3</ele>
        <time>2018-05-22T07:46:24Z</time>
      </trkpt>
      <trkpt lat="44.97675" lon="-0.35649">
        <ele>32.82</ele>
        <time>2018-05-22T07:46:42Z</time>
      </trkpt>
      <trkpt lat="44.97675" lon="-0.3565">
        <ele>32.82</ele>
        <time>2018-05-22T07:46:59Z</time>
      </trkpt>
      <trkpt lat="44.97677" lon="-0.35654">
        <ele>32.34</ele>
        <time>2018-05-22T07:47:18Z</time>
      </trkpt>
      <trkpt lat="44.97679" lon="-0.35657">
        <ele>32.34</ele>
        <time>2018-05-22T07:47:34Z</time>
      </trkpt>
      <trkpt lat="44.97678" lon="-0.3566">
        <ele>33.78</ele>
        <time>2018-05-22T07:47:50Z</time>
      </trkpt>
      <trkpt lat="44.97676" lon="-0.35666">
        <ele>34.26</ele>
        <time>2018-05-22T07:48:06Z</time>
      </trkpt>
      <trkpt lat="44.97679" lon="-0.3567">
        <ele>33.78</ele>
        <time>2018-05-22T07:48:23Z</time>
      </trkpt>
      <trkpt lat="44.97684" lon="-0.35689">
        <ele>34.74</ele>
        <time>2018-05-22T07:48:40Z</time>
      </trkpt>
      <trkpt lat="44.97685" lon="-0.35693">
        <ele>34.74</ele>
        <time>2018-05-22T07:48:43Z</time>
      </trkpt>
      <trkpt lat="44.97691" lon="-0.35718">
        <ele>34.74</ele>
        <time>2018-05-22T07:49:00Z</time>
      </trkpt>
      <trkpt lat="44.97696" lon="-0.35747">
        <ele>35.71</ele>
        <time>2018-05-22T07:49:20Z</time>
      </trkpt>
      <trkpt lat="44.97699" lon="-0.35767">
        <ele>35.71</ele>
        <time>2018-05-22T07:49:34Z</time>
      </trkpt>
      <trkpt lat="44.97704" lon="-0.35789">
        <ele>36.19</ele>
        <time>2018-05-22T07:49:51Z</time>
      </trkpt>
      <trkpt lat="44.9771" lon="-0.35813">
        <ele>37.15</ele>
        <time>2018-05-22T07:50:09Z</time>
      </trkpt>
      <trkpt lat="44.97715" lon="-0.35835">
        <ele>37.15</ele>
        <time>2018-05-22T07:50:25Z</time>
      </trkpt>
      <trkpt lat="44.97717" lon="-0.35857">
        <ele>37.63</ele>
        <time>2018-05-22T07:50:41Z</time>
      </trkpt>
      <trkpt lat="44.97715" lon="-0.35859">
        <ele>37.63</ele>
        <time>2018-05-22T07:50:43Z</time>
      </trkpt>
      <trkpt lat="44.977" lon="-0.3587">
        <ele>37.63</ele>
        <time>2018-05-22T07:50:59Z</time>
      </trkpt>
      <trkpt lat="44.97683" lon="-0.35878">
        <ele>37.15</ele>
        <time>2018-05-22T07:51:15Z</time>
      </trkpt>
      <trkpt lat="44.97661" lon="-0.35887">
        <ele>37.15</ele>
        <time>2018-05-22T07:51:34Z</time>
      </trkpt>
      <trkpt lat="44.97641" lon="-0.35891">
        <ele>37.15</ele>
        <time>2018-05-22T07:51:51Z</time>
      </trkpt>
      <trkpt lat="44.97632" lon="-0.35899">
        <ele>37.15</ele>
        <time>2018-05-22T07:52:06Z</time>
      </trkpt>
      <trkpt lat="44.97615" lon="-0.35905">
        <ele>36.67</ele>
        <time>2018-05-22T07:52:22Z</time>
      </trkpt>
      <trkpt lat="44.97601" lon="-0.35913">
        <ele>36.67</ele>
        <time>2018-05-22T07:52:38Z</time>
      </trkpt>
      <trkpt lat="44.97586" lon="-0.35916">
        <ele>36.67</ele>
        <time>2018-05-22T07:52:53Z</time>
      </trkpt>
      <trkpt lat="44.97562" lon="-0.35914">
        <ele>36.67</ele>
        <time>2018-05-22T07:53:10Z</time>
      </trkpt>
      <trkpt lat="44.97552" lon="-0.35914">
        <ele>36.67</ele>
        <time>2018-05-22T07:53:27Z</time>
      </trkpt>
      <trkpt lat="44.97545" lon="-0.35911">
        <ele>35.23</ele>
        <time>2018-05-22T07:53:45Z</time>
      </trkpt>
      <trkpt lat="44.9754" lon="-0.35905">
        <ele>35.23</ele>
        <time>2018-05-22T07:54:01Z</time>
      </trkpt>
      <trkpt lat="44.97537" lon="-0.35894">
        <ele>34.74</ele>
        <time>2018-05-22T07:54:15Z</time>
      </trkpt>
      <trkpt lat="44.97544" lon="-0.35876">
        <ele>34.74</ele>
        <time>2018-05-22T07:54:31Z</time>
      </trkpt>
      <trkpt lat="44.97549" lon="-0.35867">
        <ele>34.74</ele>
        <time>2018-05-22T07:54:44Z</time>
      </trkpt>
      <trkpt lat="44.9755" lon="-0.35862">
        <ele>34.26</ele>
        <time>2018-05-22T07:55:02Z</time>
      </trkpt>
      <trkpt lat="44.97546" lon="-0.35858">
        <ele>34.26</ele>
        <time>2018-05-22T07:55:16Z</time>
      </trkpt>
      <trkpt lat="44.9754" lon="-0.35855">
        <ele>33.78</ele>
        <time>2018-05-22T07:55:52Z</time>
      </trkpt>
      <trkpt lat="44.97535" lon="-0.35842">
        <ele>33.3</ele>
        <time>2018-05-22T07:56:07Z</time>
      </trkpt>
      <trkpt lat="44.97524" lon="-0.3583">
        <ele>32.82</ele>
        <time>2018-05-22T07:56:20Z</time>
      </trkpt>
      <trkpt lat="44.9751" lon="-0.3581">
        <ele>31.86</ele>
        <time>2018-05-22T07:56:36Z</time>
      </trkpt>
      <trkpt lat="44.97503" lon="-0.35786">
        <ele>30.42</ele>
        <time>2018-05-22T07:56:51Z</time>
      </trkpt>
      <trkpt lat="44.97494" lon="-0.35769">
        <ele>29.94</ele>
        <time>2018-05-22T07:57:06Z</time>
      </trkpt>
      <trkpt lat="44.9749" lon="-0.35761">
        <ele>29.46</ele>
        <time>2018-05-22T07:57:16Z</time>
      </trkpt>
      <trkpt lat="44.9748" lon="-0.3574">
        <ele>28.5</ele>
        <time>2018-05-22T07:57:32Z</time>
      </trkpt>
      <trkpt lat="44.97469" lon="-0.35714">
        <ele>27.53</ele>
        <time>2018-05-22T07:57:45Z</time>
      </trkpt>
      <trkpt lat="44.9746" lon="-0.35692">
        <ele>26.57</ele>
        <time>2018-05-22T07:57:59Z</time>
      </trkpt>
      <trkpt lat="44.97458" lon="-0.35677">
        <ele>26.09</ele>
        <time>2018-05-22T07:58:11Z</time>
      </trkpt>
      <trkpt lat="44.97454" lon="-0.35655">
        <ele>25.61</ele>
        <time>2018-05-22T07:58:25Z</time>
      </trkpt>
      <trkpt lat="44.97448" lon="-0.35636">
        <ele>24.65</ele>
        <time>2018-05-22T07:58:37Z</time>
      </trkpt>
      <trkpt lat="44.97446" lon="-0.35619">
        <ele>23.69</ele>
        <time>2018-05-22T07:58:53Z</time>
      </trkpt>
      <trkpt lat="44.97446" lon="-0.35617">
        <ele>23.69</ele>
        <time>2018-05-22T07:59:12Z</time>
      </trkpt>
      <trkpt lat="44.97447" lon="-0.35619">
        <ele>23.69</ele>
        <time>2018-05-22T07:59:31Z</time>
      </trkpt>
      <trkpt lat="44.9745" lon="-0.35619">
        <ele>23.69</ele>
        <time>2018-05-22T07:59:55Z</time>
      </trkpt>
      <trkpt lat="44.97453" lon="-0.35619">
        <ele>23.21</ele>
        <time>2018-05-22T08:00:13Z</time>
      </trkpt>
      <trkpt lat="44.97447" lon="-0.35609">
        <ele>22.73</ele>
        <time>2018-05-22T08:00:29Z</time>
      </trkpt>
      <trkpt lat="44.97437" lon="-0.35586">
        <ele>21.29</ele>
        <time>2018-05-22T08:00:47Z</time>
      </trkpt>
      <trkpt lat="44.97427" lon="-0.35557">
        <ele>20.32</ele>
        <time>2018-05-22T08:01:06Z</time>
      </trkpt>
      <trkpt lat="44.97418" lon="-0.35528">
        <ele>18.88</ele>
        <time>2018-05-22T08:01:24Z</time>
      </trkpt>
      <trkpt lat="44.97409" lon="-0.35501">
        <ele>18.4</ele>
        <time>2018-05-22T08:01:43Z</time>
      </trkpt>
      <trkpt lat="44.97402" lon="-0.35478">
        <ele>17.92</ele>
        <time>2018-05-22T08:01:59Z</time>
      </trkpt>
      <trkpt lat="44.97395" lon="-0.35459">
        <ele>17.44</ele>
        <time>2018-05-22T08:02:12Z</time>
      </trkpt>
      <trkpt lat="44.97385" lon="-0.35421">
        <ele>16.96</ele>
        <time>2018-05-22T08:02:34Z</time>
      </trkpt>
      <trkpt lat="44.97377" lon="-0.35396">
        <ele>16.48</ele>
        <time>2018-05-22T08:02:50Z</time>
      </trkpt>
      <trkpt lat="44.97363" lon="-0.35374">
        <ele>16.48</ele>
        <time>2018-05-22T08:03:09Z</time>
      </trkpt>
      <trkpt lat="44.97341" lon="-0.35364">
        <ele>16</ele>
        <time>2018-05-22T08:03:29Z</time>
      </trkpt>
      <trkpt lat="44.97325" lon="-0.35358">
        <ele>16</ele>
        <time>2018-05-22T08:03:44Z</time>
      </trkpt>
      <trkpt lat="44.9731" lon="-0.35352">
        <ele>16</ele>
        <time>2018-05-22T08:03:59Z</time>
      </trkpt>
      <trkpt lat="44.97301" lon="-0.35352">
        <ele>16</ele>
        <time>2018-05-22T08:04:10Z</time>
      </trkpt>
      <trkpt lat="44.97283" lon="-0.3535">
        <ele>15.52</ele>
        <time>2018-05-22T08:04:30Z</time>
      </trkpt>
      <trkpt lat="44.97272" lon="-0.35353">
        <ele>15.52</ele>
        <time>2018-05-22T08:04:46Z</time>
      </trkpt>
      <trkpt lat="44.97258" lon="-0.35356">
        <ele>15.52</ele>
        <time>2018-05-22T08:05:00Z</time>
      </trkpt>
      <trkpt lat="44.97235" lon="-0.35372">
        <ele>16.96</ele>
        <time>2018-05-22T08:05:17Z</time>
      </trkpt>
      <trkpt lat="44.97207" lon="-0.35387">
        <ele>18.4</ele>
        <time>2018-05-22T08:05:36Z</time>
      </trkpt>
      <trkpt lat="44.97184" lon="-0.35398">
        <ele>20.32</ele>
        <time>2018-05-22T08:05:54Z</time>
      </trkpt>
      <trkpt lat="44.97167" lon="-0.35403">
        <ele>21.77</ele>
        <time>2018-05-22T08:06:08Z</time>
      </trkpt>
      <trkpt lat="44.97147" lon="-0.354">
        <ele>23.69</ele>
        <time>2018-05-22T08:06:24Z</time>
      </trkpt>
      <trkpt lat="44.97144" lon="-0.35398">
        <ele>23.69</ele>
        <time>2018-05-22T08:06:27Z</time>
      </trkpt>
      <trkpt lat="44.97143" lon="-0.35396">
        <ele>24.17</ele>
        <time>2018-05-22T08:06:29Z</time>
      </trkpt>
      <trkpt lat="44.97129" lon="-0.35381">
        <ele>24.65</ele>
        <time>2018-05-22T08:06:44Z</time>
      </trkpt>
      <trkpt lat="44.97112" lon="-0.35361">
        <ele>26.57</ele>
        <time>2018-05-22T08:07:03Z</time>
      </trkpt>
      <trkpt lat="44.97097" lon="-0.3534">
        <ele>28.02</ele>
        <time>2018-05-22T08:07:20Z</time>
      </trkpt>
      <trkpt lat="44.97081" lon="-0.35318">
        <ele>29.46</ele>
        <time>2018-05-22T08:07:38Z</time>
      </trkpt>
      <trkpt lat="44.97068" lon="-0.35297">
        <ele>31.38</ele>
        <time>2018-05-22T08:07:55Z</time>
      </trkpt>
      <trkpt lat="44.97066" lon="-0.35286">
        <ele>31.38</ele>
        <time>2018-05-22T08:08:11Z</time>
      </trkpt>
      <trkpt lat="44.97069" lon="-0.35275">
        <ele>31.38</ele>
        <time>2018-05-22T08:08:23Z</time>
      </trkpt>
      <trkpt lat="44.97081" lon="-0.35258">
        <ele>31.38</ele>
        <time>2018-05-22T08:08:38Z</time>
      </trkpt>
      <trkpt lat="44.97088" lon="-0.35251">
        <ele>29.94</ele>
        <time>2018-05-22T08:08:46Z</time>
      </trkpt>
      <trkpt lat="44.97099" lon="-0.3524">
        <ele>28.5</ele>
        <time>2018-05-22T08:09:00Z</time>
      </trkpt>
      <trkpt lat="44.97107" lon="-0.35236">
        <ele>27.53</ele>
        <time>2018-05-22T08:09:14Z</time>
      </trkpt>
      <trkpt lat="44.97115" lon="-0.35233">
        <ele>25.13</ele>
        <time>2018-05-22T08:09:28Z</time>
      </trkpt>
      <trkpt lat="44.97123" lon="-0.35224">
        <ele>22.73</ele>
        <time>2018-05-22T08:09:43Z</time>
      </trkpt>
      <trkpt lat="44.97129" lon="-0.35212">
        <ele>21.77</ele>
        <time>2018-05-22T08:09:58Z</time>
      </trkpt>
      <trkpt lat="44.97133" lon="-0.352">
        <ele>21.29</ele>
        <time>2018-05-22T08:10:12Z</time>
      </trkpt>
      <trkpt lat="44.97144" lon="-0.35184">
        <ele>20.32</ele>
        <time>2018-05-22T08:10:27Z</time>
      </trkpt>
      <trkpt lat="44.97151" lon="-0.35175">
        <ele>20.81</ele>
        <time>2018-05-22T08:10:39Z</time>
      </trkpt>
      <trkpt lat="44.97154" lon="-0.35163">
        <ele>21.77</ele>
        <time>2018-05-22T08:10:51Z</time>
      </trkpt>
      <trkpt lat="44.97159" lon="-0.35141">
        <ele>23.21</ele>
        <time>2018-05-22T08:11:06Z</time>
      </trkpt>
      <trkpt lat="44.97172" lon="-0.35108">
        <ele>23.69</ele>
        <time>2018-05-22T08:11:22Z</time>
      </trkpt>
      <trkpt lat="44.97184" lon="-0.35085">
        <ele>24.17</ele>
        <time>2018-05-22T08:11:36Z</time>
      </trkpt>
      <trkpt lat="44.97195" lon="-0.35082">
        <ele>24.17</ele>
        <time>2018-05-22T08:12:02Z</time>
      </trkpt>
      <trkpt lat="44.97197" lon="-0.35083">
        <ele>24.65</ele>
        <time>2018-05-22T08:12:26Z</time>
      </trkpt>
      <trkpt lat="44.97191" lon="-0.35087">
        <ele>24.65</ele>
        <time>2018-05-22T08:12:40Z</time>
      </trkpt>
      <trkpt lat="44.97189" lon="-0.35086">
        <ele>25.13</ele>
        <time>2018-05-22T08:13:03Z</time>
      </trkpt>
      <trkpt lat="44.97187" lon="-0.35085">
        <ele>25.61</ele>
        <time>2018-05-22T08:13:16Z</time>
      </trkpt>
      <trkpt lat="44.97184" lon="-0.35082">
        <ele>26.09</ele>
        <time>2018-05-22T08:13:34Z</time>
      </trkpt>
      <trkpt lat="44.9718" lon="-0.35076">
        <ele>27.05</ele>
        <time>2018-05-22T08:13:48Z</time>
      </trkpt>
      <trkpt lat="44.97182" lon="-0.35065">
        <ele>27.05</ele>
        <time>2018-05-22T08:14:02Z</time>
      </trkpt>
      <trkpt lat="44.97185" lon="-0.35049">
        <ele>27.05</ele>
        <time>2018-05-22T08:14:17Z</time>
      </trkpt>
      <trkpt lat="44.97185" lon="-0.35033">
        <ele>27.05</ele>
        <time>2018-05-22T08:14:31Z</time>
      </trkpt>
      <trkpt lat="44.97187" lon="-0.35017">
        <ele>27.05</ele>
        <time>2018-05-22T08:14:46Z</time>
      </trkpt>
      <trkpt lat="44.97186" lon="-0.34992">
        <ele>27.05</ele>
        <time>2018-05-22T08:15:03Z</time>
      </trkpt>
      <trkpt lat="44.97185" lon="-0.34976">
        <ele>27.05</ele>
        <time>2018-05-22T08:15:15Z</time>
      </trkpt>
      <trkpt lat="44.97189" lon="-0.34957">
        <ele>27.05</ele>
        <time>2018-05-22T08:15:32Z</time>
      </trkpt>
      <trkpt lat="44.97191" lon="-0.3494">
        <ele>25.61</ele>
        <time>2018-05-22T08:15:44Z</time>
      </trkpt>
      <trkpt lat="44.97186" lon="-0.34919">
        <ele>25.61</ele>
        <time>2018-05-22T08:16:14Z</time>
      </trkpt>
      <trkpt lat="44.9719" lon="-0.3491">
        <ele>26.09</ele>
        <time>2018-05-22T08:16:28Z</time>
      </trkpt>
      <trkpt lat="44.97195" lon="-0.34897">
        <ele>25.61</ele>
        <time>2018-05-22T08:16:44Z</time>
      </trkpt>
      <trkpt lat="44.97199" lon="-0.34882">
        <ele>28.02</ele>
        <time>2018-05-22T08:16:59Z</time>
      </trkpt>
      <trkpt lat="44.97204" lon="-0.34862">
        <ele>28.98</ele>
        <time>2018-05-22T08:17:12Z</time>
      </trkpt>
      <trkpt lat="44.97206" lon="-0.34845">
        <ele>29.46</ele>
        <time>2018-05-22T08:17:25Z</time>
      </trkpt>
      <trkpt lat="44.97199" lon="-0.34821">
        <ele>29.46</ele>
        <time>2018-05-22T08:17:40Z</time>
      </trkpt>
      <trkpt lat="44.97189" lon="-0.34803">
        <ele>30.42</ele>
        <time>2018-05-22T08:17:58Z</time>
      </trkpt>
      <trkpt lat="44.97185" lon="-0.34794">
        <ele>30.42</ele>
        <time>2018-05-22T08:18:12Z</time>
      </trkpt>
      <trkpt lat="44.97181" lon="-0.34789">
        <ele>31.38</ele>
        <time>2018-05-22T08:18:29Z</time>
      </trkpt>
      <trkpt lat="44.97177" lon="-0.34781">
        <ele>32.82</ele>
        <time>2018-05-22T08:18:43Z</time>
      </trkpt>
      <trkpt lat="44.97169" lon="-0.34774">
        <ele>34.74</ele>
        <time>2018-05-22T08:18:59Z</time>
      </trkpt>
      <trkpt lat="44.97162" lon="-0.34761">
        <ele>36.19</ele>
        <time>2018-05-22T08:19:14Z</time>
      </trkpt>
      <trkpt lat="44.97152" lon="-0.34746">
        <ele>38.11</ele>
        <time>2018-05-22T08:19:30Z</time>
      </trkpt>
      <trkpt lat="44.97143" lon="-0.34737">
        <ele>40.03</ele>
        <time>2018-05-22T08:19:44Z</time>
      </trkpt>
      <trkpt lat="44.97127" lon="-0.34734">
        <ele>42.92</ele>
        <time>2018-05-22T08:20:01Z</time>
      </trkpt>
      <trkpt lat="44.97109" lon="-0.34746">
        <ele>45.8</ele>
        <time>2018-05-22T08:20:19Z</time>
      </trkpt>
      <trkpt lat="44.97094" lon="-0.34751">
        <ele>46.76</ele>
        <time>2018-05-22T08:20:38Z</time>
      </trkpt>
      <trkpt lat="44.97079" lon="-0.34751">
        <ele>47.72</ele>
        <time>2018-05-22T08:20:54Z</time>
      </trkpt>
      <trkpt lat="44.97071" lon="-0.34751">
        <ele>47.72</ele>
        <time>2018-05-22T08:21:09Z</time>
      </trkpt>
      <trkpt lat="44.97061" lon="-0.34746">
        <ele>48.2</ele>
        <time>2018-05-22T08:21:21Z</time>
      </trkpt>
      <trkpt lat="44.97044" lon="-0.34733">
        <ele>47.72</ele>
        <time>2018-05-22T08:21:39Z</time>
      </trkpt>
      <trkpt lat="44.97031" lon="-0.34719">
        <ele>47.72</ele>
        <time>2018-05-22T08:21:55Z</time>
      </trkpt>
      <trkpt lat="44.97017" lon="-0.34704">
        <ele>48.68</ele>
        <time>2018-05-22T08:22:11Z</time>
      </trkpt>
      <trkpt lat="44.9701" lon="-0.34693">
        <ele>48.68</ele>
        <time>2018-05-22T08:22:23Z</time>
      </trkpt>
      <trkpt lat="44.96998" lon="-0.3467">
        <ele>48.2</ele>
        <time>2018-05-22T08:22:40Z</time>
      </trkpt>
      <trkpt lat="44.96987" lon="-0.34655">
        <ele>48.2</ele>
        <time>2018-05-22T08:22:53Z</time>
      </trkpt>
      <trkpt lat="44.96975" lon="-0.34651">
        <ele>48.2</ele>
        <time>2018-05-22T08:23:06Z</time>
      </trkpt>
      <trkpt lat="44.96962" lon="-0.34655">
        <ele>48.2</ele>
        <time>2018-05-22T08:23:24Z</time>
      </trkpt>
      <trkpt lat="44.96942" lon="-0.34662">
        <ele>48.2</ele>
        <time>2018-05-22T08:23:43Z</time>
      </trkpt>
      <trkpt lat="44.96937" lon="-0.34664">
        <ele>48.2</ele>
        <time>2018-05-22T08:23:50Z</time>
      </trkpt>
      <trkpt lat="44.96925" lon="-0.34677">
        <ele>46.76</ele>
        <time>2018-05-22T08:24:08Z</time>
      </trkpt>
      <trkpt lat="44.96912" lon="-0.34691">
        <ele>46.28</ele>
        <time>2018-05-22T08:24:26Z</time>
      </trkpt>
      <trkpt lat="44.96897" lon="-0.34703">
        <ele>46.28</ele>
        <time>2018-05-22T08:24:40Z</time>
      </trkpt>
      <trkpt lat="44.96879" lon="-0.34718">
        <ele>45.32</ele>
        <time>2018-05-22T08:24:57Z</time>
      </trkpt>
      <trkpt lat="44.96859" lon="-0.34733">
        <ele>45.32</ele>
        <time>2018-05-22T08:25:13Z</time>
      </trkpt>
      <trkpt lat="44.96844" lon="-0.34747">
        <ele>45.32</ele>
        <time>2018-05-22T08:25:27Z</time>
      </trkpt>
      <trkpt lat="44.96831" lon="-0.34764">
        <ele>43.88</ele>
        <time>2018-05-22T08:25:43Z</time>
      </trkpt>
      <trkpt lat="44.9683" lon="-0.34765">
        <ele>43.88</ele>
        <time>2018-05-22T08:26:01Z</time>
      </trkpt>
      <trkpt lat="44.96828" lon="-0.34764">
        <ele>43.88</ele>
        <time>2018-05-22T08:26:22Z</time>
      </trkpt>
      <trkpt lat="44.9683" lon="-0.34765">
        <ele>43.88</ele>
        <time>2018-05-22T08:26:40Z</time>
      </trkpt>
      <trkpt lat="44.9683" lon="-0.34766">
        <ele>43.88</ele>
        <time>2018-05-22T08:26:41Z</time>
      </trkpt>
      <trkpt lat="44.96833" lon="-0.34776">
        <ele>43.88</ele>
        <time>2018-05-22T08:26:57Z</time>
      </trkpt>
      <trkpt lat="44.96829" lon="-0.34764">
        <ele>43.88</ele>
        <time>2018-05-22T08:27:11Z</time>
      </trkpt>
      <trkpt lat="44.96835" lon="-0.34751">
        <ele>43.88</ele>
        <time>2018-05-22T08:27:24Z</time>
      </trkpt>
      <trkpt lat="44.96849" lon="-0.34731">
        <ele>43.4</ele>
        <time>2018-05-22T08:27:40Z</time>
      </trkpt>
      <trkpt lat="44.96866" lon="-0.34714">
        <ele>44.84</ele>
        <time>2018-05-22T08:27:58Z</time>
      </trkpt>
      <trkpt lat="44.96884" lon="-0.34698">
        <ele>45.32</ele>
        <time>2018-05-22T08:28:17Z</time>
      </trkpt>
      <trkpt lat="44.969" lon="-0.34681">
        <ele>45.8</ele>
        <time>2018-05-22T08:28:35Z</time>
      </trkpt>
      <trkpt lat="44.96913" lon="-0.34665">
        <ele>46.28</ele>
        <time>2018-05-22T08:28:52Z</time>
      </trkpt>
      <trkpt lat="44.96912" lon="-0.34659">
        <ele>46.28</ele>
        <time>2018-05-22T08:29:07Z</time>
      </trkpt>
      <trkpt lat="44.96909" lon="-0.34652">
        <ele>46.28</ele>
        <time>2018-05-22T08:29:21Z</time>
      </trkpt>
      <trkpt lat="44.96912" lon="-0.3465">
        <ele>46.28</ele>
        <time>2018-05-22T08:29:40Z</time>
      </trkpt>
      <trkpt lat="44.96916" lon="-0.34652">
        <ele>44.84</ele>
        <time>2018-05-22T08:30:11Z</time>
      </trkpt>
      <trkpt lat="44.96914" lon="-0.34651">
        <ele>44.84</ele>
        <time>2018-05-22T08:30:51Z</time>
      </trkpt>
      <trkpt lat="44.96915" lon="-0.34645">
        <ele>44.36</ele>
        <time>2018-05-22T08:31:29Z</time>
      </trkpt>
      <trkpt lat="44.96914" lon="-0.34645">
        <ele>44.36</ele>
        <time>2018-05-22T08:31:56Z</time>
      </trkpt>
      <trkpt lat="44.96915" lon="-0.34644">
        <ele>43.88</ele>
        <time>2018-05-22T08:32:38Z</time>
      </trkpt>
      <trkpt lat="44.96915" lon="-0.34646">
        <ele>43.88</ele>
        <time>2018-05-22T08:33:16Z</time>
      </trkpt>
      <trkpt lat="44.96915" lon="-0.34649">
        <ele>43.88</ele>
        <time>2018-05-22T08:33:49Z</time>
      </trkpt>
      <trkpt lat="44.96917" lon="-0.34645">
        <ele>43.88</ele>
        <time>2018-05-22T08:34:24Z</time>
      </trkpt>
      <trkpt lat="44.96915" lon="-0.34647">
        <ele>43.4</ele>
        <time>2018-05-22T08:35:00Z</time>
      </trkpt>
      <trkpt lat="44.96916" lon="-0.34643">
        <ele>43.4</ele>
        <time>2018-05-22T08:35:17Z</time>
      </trkpt>
      <trkpt lat="44.96915" lon="-0.34642">
        <ele>44.84</ele>
        <time>2018-05-22T08:35:20Z</time>
      </trkpt>
      <trkpt lat="44.96911" lon="-0.34644">
        <ele>44.84</ele>
        <time>2018-05-22T08:35:37Z</time>
      </trkpt>
      <trkpt lat="44.9691" lon="-0.34645">
        <ele>44.84</ele>
        <time>2018-05-22T08:35:53Z</time>
      </trkpt>
      <trkpt lat="44.96909" lon="-0.34641">
        <ele>44.36</ele>
        <time>2018-05-22T08:36:18Z</time>
      </trkpt>
      <trkpt lat="44.9691" lon="-0.34646">
        <ele>44.36</ele>
        <time>2018-05-22T08:36:48Z</time>
      </trkpt>
      <trkpt lat="44.9691" lon="-0.34648">
        <ele>44.36</ele>
        <time>2018-05-22T08:37:00Z</time>
      </trkpt>
      <trkpt lat="44.9691" lon="-0.34646">
        <ele>44.36</ele>
        <time>2018-05-22T08:37:19Z</time>
      </trkpt>
      <trkpt lat="44.96908" lon="-0.34646">
        <ele>43.88</ele>
        <time>2018-05-22T08:37:53Z</time>
      </trkpt>
      <trkpt lat="44.96906" lon="-0.34643">
        <ele>43.88</ele>
        <time>2018-05-22T08:38:28Z</time>
      </trkpt>
      <trkpt lat="44.96908" lon="-0.34641">
        <ele>43.88</ele>
        <time>2018-05-22T08:38:57Z</time>
      </trkpt>
      <trkpt lat="44.96909" lon="-0.34642">
        <ele>43.4</ele>
        <time>2018-05-22T08:39:34Z</time>
      </trkpt>
      <trkpt lat="44.9691" lon="-0.34646">
        <ele>43.4</ele>
        <time>2018-05-22T08:39:53Z</time>
      </trkpt>
      <trkpt lat="44.96908" lon="-0.34645">
        <ele>42.92</ele>
        <time>2018-05-22T08:40:23Z</time>
      </trkpt>
      <trkpt lat="44.96909" lon="-0.34643">
        <ele>42.92</ele>
        <time>2018-05-22T08:40:55Z</time>
      </trkpt>
      <trkpt lat="44.96909" lon="-0.34644">
        <ele>42.92</ele>
        <time>2018-05-22T08:41:15Z</time>
      </trkpt>
      <trkpt lat="44.96914" lon="-0.34651">
        <ele>42.92</ele>
        <time>2018-05-22T08:41:28Z</time>
      </trkpt>
      <trkpt lat="44.96919" lon="-0.34652">
        <ele>42.92</ele>
        <time>2018-05-22T08:41:43Z</time>
      </trkpt>
      <trkpt lat="44.96918" lon="-0.34634">
        <ele>41.47</ele>
        <time>2018-05-22T08:42:01Z</time>
      </trkpt>
      <trkpt lat="44.96915" lon="-0.34624">
        <ele>40.99</ele>
        <time>2018-05-22T08:42:09Z</time>
      </trkpt>
      <trkpt lat="44.96909" lon="-0.34604">
        <ele>40.03</ele>
        <time>2018-05-22T08:42:25Z</time>
      </trkpt>
      <trkpt lat="44.96903" lon="-0.34583">
        <ele>39.55</ele>
        <time>2018-05-22T08:42:40Z</time>
      </trkpt>
      <trkpt lat="44.96902" lon="-0.34571">
        <ele>39.07</ele>
        <time>2018-05-22T08:42:50Z</time>
      </trkpt>
      <trkpt lat="44.96906" lon="-0.34566">
        <ele>38.11</ele>
        <time>2018-05-22T08:42:56Z</time>
      </trkpt>
      <trkpt lat="44.96923" lon="-0.34554">
        <ele>37.15</ele>
        <time>2018-05-22T08:43:14Z</time>
      </trkpt>
      <trkpt lat="44.96935" lon="-0.34547">
        <ele>36.19</ele>
        <time>2018-05-22T08:43:26Z</time>
      </trkpt>
      <trkpt lat="44.96938" lon="-0.34545">
        <ele>36.19</ele>
        <time>2018-05-22T08:43:29Z</time>
      </trkpt>
      <trkpt lat="44.96955" lon="-0.34535">
        <ele>35.23</ele>
        <time>2018-05-22T08:43:46Z</time>
      </trkpt>
      <trkpt lat="44.96969" lon="-0.34525">
        <ele>34.74</ele>
        <time>2018-05-22T08:44:01Z</time>
      </trkpt>
      <trkpt lat="44.96973" lon="-0.34508">
        <ele>33.78</ele>
        <time>2018-05-22T08:44:16Z</time>
      </trkpt>
      <trkpt lat="44.96967" lon="-0.34485">
        <ele>31.86</ele>
        <time>2018-05-22T08:44:34Z</time>
      </trkpt>
      <trkpt lat="44.96962" lon="-0.34462">
        <ele>31.38</ele>
        <time>2018-05-22T08:44:50Z</time>
      </trkpt>
      <trkpt lat="44.9696" lon="-0.34455">
        <ele>30.9</ele>
        <time>2018-05-22T08:44:55Z</time>
      </trkpt>
      <trkpt lat="44.96951" lon="-0.34425">
        <ele>29.46</ele>
        <time>2018-05-22T08:45:15Z</time>
      </trkpt>
      <trkpt lat="44.96943" lon="-0.34393">
        <ele>28.5</ele>
        <time>2018-05-22T08:45:36Z</time>
      </trkpt>
      <trkpt lat="44.96936" lon="-0.34366">
        <ele>28.02</ele>
        <time>2018-05-22T08:45:54Z</time>
      </trkpt>
      <trkpt lat="44.96931" lon="-0.34346">
        <ele>28.02</ele>
        <time>2018-05-22T08:46:10Z</time>
      </trkpt>
      <trkpt lat="44.9693" lon="-0.34343">
        <ele>28.02</ele>
        <time>2018-05-22T08:46:12Z</time>
      </trkpt>
      <trkpt lat="44.96929" lon="-0.3433">
        <ele>29.46</ele>
        <time>2018-05-22T08:46:24Z</time>
      </trkpt>
      <trkpt lat="44.96926" lon="-0.3431">
        <ele>28.98</ele>
        <time>2018-05-22T08:46:37Z</time>
      </trkpt>
      <trkpt lat="44.96923" lon="-0.34297">
        <ele>28.98</ele>
        <time>2018-05-22T08:46:46Z</time>
      </trkpt>
      <trkpt lat="44.9692" lon="-0.34269">
        <ele>28.98</ele>
        <time>2018-05-22T08:47:04Z</time>
      </trkpt>
      <trkpt lat="44.96918" lon="-0.34246">
        <ele>28.98</ele>
        <time>2018-05-22T08:47:20Z</time>
      </trkpt>
      <trkpt lat="44.9692" lon="-0.34231">
        <ele>28.98</ele>
        <time>2018-05-22T08:47:35Z</time>
      </trkpt>
      <trkpt lat="44.9692" lon="-0.3421">
        <ele>28.02</ele>
        <time>2018-05-22T08:47:50Z</time>
      </trkpt>
      <trkpt lat="44.96914" lon="-0.34182">
        <ele>27.53</ele>
        <time>2018-05-22T08:48:09Z</time>
      </trkpt>
      <trkpt lat="44.96906" lon="-0.34154">
        <ele>27.53</ele>
        <time>2018-05-22T08:48:29Z</time>
      </trkpt>
      <trkpt lat="44.96906" lon="-0.34135">
        <ele>27.53</ele>
        <time>2018-05-22T08:48:45Z</time>
      </trkpt>
      <trkpt lat="44.96907" lon="-0.34134">
        <ele>27.53</ele>
        <time>2018-05-22T08:48:46Z</time>
      </trkpt>
      <trkpt lat="44.96916" lon="-0.3411">
        <ele>28.5</ele>
        <time>2018-05-22T08:49:05Z</time>
      </trkpt>
      <trkpt lat="44.9692" lon="-0.341">
        <ele>28.5</ele>
        <time>2018-05-22T08:49:30Z</time>
      </trkpt>
      <trkpt lat="44.96925" lon="-0.34081">
        <ele>28.98</ele>
        <time>2018-05-22T08:49:46Z</time>
      </trkpt>
      <trkpt lat="44.96923" lon="-0.34067">
        <ele>29.46</ele>
        <time>2018-05-22T08:50:00Z</time>
      </trkpt>
      <trkpt lat="44.96923" lon="-0.34066">
        <ele>29.46</ele>
        <time>2018-05-22T08:50:01Z</time>
      </trkpt>
      <trkpt lat="44.9693" lon="-0.34041">
        <ele>29.94</ele>
        <time>2018-05-22T08:50:16Z</time>
      </trkpt>
      <trkpt lat="44.96938" lon="-0.34019">
        <ele>30.42</ele>
        <time>2018-05-22T08:50:30Z</time>
      </trkpt>
      <trkpt lat="44.96945" lon="-0.34007">
        <ele>30.9</ele>
        <time>2018-05-22T08:50:40Z</time>
      </trkpt>
      <trkpt lat="44.96961" lon="-0.33991">
        <ele>31.38</ele>
        <time>2018-05-22T08:50:57Z</time>
      </trkpt>
      <trkpt lat="44.96975" lon="-0.3398">
        <ele>31.86</ele>
        <time>2018-05-22T08:51:13Z</time>
      </trkpt>
      <trkpt lat="44.96978" lon="-0.33973">
        <ele>32.34</ele>
        <time>2018-05-22T08:51:19Z</time>
      </trkpt>
      <trkpt lat="44.96977" lon="-0.33942">
        <ele>32.82</ele>
        <time>2018-05-22T08:51:38Z</time>
      </trkpt>
      <trkpt lat="44.96977" lon="-0.33934">
        <ele>33.3</ele>
        <time>2018-05-22T08:51:43Z</time>
      </trkpt>
      <trkpt lat="44.96976" lon="-0.33908">
        <ele>34.74</ele>
        <time>2018-05-22T08:52:00Z</time>
      </trkpt>
      <trkpt lat="44.96975" lon="-0.33906">
        <ele>34.74</ele>
        <time>2018-05-22T08:52:02Z</time>
      </trkpt>
      <trkpt lat="44.96965" lon="-0.33891">
        <ele>36.19</ele>
        <time>2018-05-22T08:52:19Z</time>
      </trkpt>
      <trkpt lat="44.96951" lon="-0.33879">
        <ele>37.15</ele>
        <time>2018-05-22T08:52:35Z</time>
      </trkpt>
      <trkpt lat="44.96936" lon="-0.33861">
        <ele>39.55</ele>
        <time>2018-05-22T08:52:51Z</time>
      </trkpt>
      <trkpt lat="44.9693" lon="-0.33854">
        <ele>40.51</ele>
        <time>2018-05-22T08:52:59Z</time>
      </trkpt>
      <trkpt lat="44.96917" lon="-0.33837">
        <ele>42.44</ele>
        <time>2018-05-22T08:53:15Z</time>
      </trkpt>
      <trkpt lat="44.96907" lon="-0.33821">
        <ele>44.36</ele>
        <time>2018-05-22T08:53:30Z</time>
      </trkpt>
      <trkpt lat="44.96896" lon="-0.33811">
        <ele>44.84</ele>
        <time>2018-05-22T08:53:45Z</time>
      </trkpt>
      <trkpt lat="44.96882" lon="-0.338">
        <ele>46.28</ele>
        <time>2018-05-22T08:54:00Z</time>
      </trkpt>
      <trkpt lat="44.96868" lon="-0.33789">
        <ele>47.24</ele>
        <time>2018-05-22T08:54:15Z</time>
      </trkpt>
      <trkpt lat="44.96853" lon="-0.33776">
        <ele>48.68</ele>
        <time>2018-05-22T08:54:31Z</time>
      </trkpt>
      <trkpt lat="44.96838" lon="-0.33761">
        <ele>48.68</ele>
        <time>2018-05-22T08:54:48Z</time>
      </trkpt>
      <trkpt lat="44.96829" lon="-0.33751">
        <ele>48.2</ele>
        <time>2018-05-22T08:55:05Z</time>
      </trkpt>
      <trkpt lat="44.96828" lon="-0.33749">
        <ele>48.2</ele>
        <time>2018-05-22T08:55:33Z</time>
      </trkpt>
      <trkpt lat="44.96827" lon="-0.33748">
        <ele>48.2</ele>
        <time>2018-05-22T08:56:07Z</time>
      </trkpt>
      <trkpt lat="44.96827" lon="-0.33751">
        <ele>48.2</ele>
        <time>2018-05-22T08:56:34Z</time>
      </trkpt>
      <trkpt lat="44.96826" lon="-0.33749">
        <ele>48.2</ele>
        <time>2018-05-22T08:56:50Z</time>
      </trkpt>
      <trkpt lat="44.96825" lon="-0.33749">
        <ele>48.2</ele>
        <time>2018-05-22T08:57:09Z</time>
      </trkpt>
      <trkpt lat="44.96822" lon="-0.33747">
        <ele>47.72</ele>
        <time>2018-05-22T08:57:28Z</time>
      </trkpt>
      <trkpt lat="44.96811" lon="-0.33733">
        <ele>47.72</ele>
        <time>2018-05-22T08:57:44Z</time>
      </trkpt>
      <trkpt lat="44.968" lon="-0.33711">
        <ele>46.28</ele>
        <time>2018-05-22T08:58:02Z</time>
      </trkpt>
      <trkpt lat="44.96796" lon="-0.33695">
        <ele>45.8</ele>
        <time>2018-05-22T08:58:16Z</time>
      </trkpt>
      <trkpt lat="44.96795" lon="-0.33672">
        <ele>45.8</ele>
        <time>2018-05-22T08:58:34Z</time>
      </trkpt>
      <trkpt lat="44.96797" lon="-0.3365">
        <ele>46.76</ele>
        <time>2018-05-22T08:58:50Z</time>
      </trkpt>
      <trkpt lat="44.96801" lon="-0.33625">
        <ele>46.76</ele>
        <time>2018-05-22T08:59:07Z</time>
      </trkpt>
      <trkpt lat="44.96806" lon="-0.336">
        <ele>46.76</ele>
        <time>2018-05-22T08:59:25Z</time>
      </trkpt>
      <trkpt lat="44.96808" lon="-0.33582">
        <ele>45.8</ele>
        <time>2018-05-22T08:59:37Z</time>
      </trkpt>
      <trkpt lat="44.9681" lon="-0.33555">
        <ele>43.88</ele>
        <time>2018-05-22T08:59:53Z</time>
      </trkpt>
      <trkpt lat="44.96808" lon="-0.33537">
        <ele>42.92</ele>
        <time>2018-05-22T09:00:04Z</time>
      </trkpt>
      <trkpt lat="44.96799" lon="-0.33507">
        <ele>42.44</ele>
        <time>2018-05-22T09:00:21Z</time>
      </trkpt>
      <trkpt lat="44.96798" lon="-0.33504">
        <ele>42.44</ele>
        <time>2018-05-22T09:00:23Z</time>
      </trkpt>
      <trkpt lat="44.96792" lon="-0.33489">
        <ele>41.95</ele>
        <time>2018-05-22T09:00:38Z</time>
      </trkpt>
      <trkpt lat="44.96791" lon="-0.33485">
        <ele>41.95</ele>
        <time>2018-05-22T09:00:42Z</time>
      </trkpt>
      <trkpt lat="44.96784" lon="-0.3346">
        <ele>41.95</ele>
        <time>2018-05-22T09:00:59Z</time>
      </trkpt>
      <trkpt lat="44.96779" lon="-0.33446">
        <ele>42.92</ele>
        <time>2018-05-22T09:01:09Z</time>
      </trkpt>
      <trkpt lat="44.9677" lon="-0.33424">
        <ele>43.4</ele>
        <time>2018-05-22T09:01:24Z</time>
      </trkpt>
      <trkpt lat="44.96759" lon="-0.33397">
        <ele>44.36</ele>
        <time>2018-05-22T09:01:42Z</time>
      </trkpt>
      <trkpt lat="44.96748" lon="-0.33369">
        <ele>43.88</ele>
        <time>2018-05-22T09:02:00Z</time>
      </trkpt>
      <trkpt lat="44.96743" lon="-0.3334">
        <ele>43.88</ele>
        <time>2018-05-22T09:02:18Z</time>
      </trkpt>
      <trkpt lat="44.96734" lon="-0.33311">
        <ele>42.92</ele>
        <time>2018-05-22T09:02:36Z</time>
      </trkpt>
      <trkpt lat="44.96716" lon="-0.33303">
        <ele>42.44</ele>
        <time>2018-05-22T09:02:52Z</time>
      </trkpt>
      <trkpt lat="44.96697" lon="-0.33299">
        <ele>42.44</ele>
        <time>2018-05-22T09:03:08Z</time>
      </trkpt>
      <trkpt lat="44.96679" lon="-0.33292">
        <ele>42.44</ele>
        <time>2018-05-22T09:03:24Z</time>
      </trkpt>
      <trkpt lat="44.96662" lon="-0.33288">
        <ele>41.47</ele>
        <time>2018-05-22T09:03:42Z</time>
      </trkpt>
      <trkpt lat="44.96649" lon="-0.33285">
        <ele>40.99</ele>
        <time>2018-05-22T09:03:52Z</time>
      </trkpt>
      <trkpt lat="44.96633" lon="-0.33255">
        <ele>39.55</ele>
        <time>2018-05-22T09:04:11Z</time>
      </trkpt>
      <trkpt lat="44.96634" lon="-0.3323">
        <ele>39.07</ele>
        <time>2018-05-22T09:04:29Z</time>
      </trkpt>
      <trkpt lat="44.96636" lon="-0.33206">
        <ele>39.07</ele>
        <time>2018-05-22T09:04:45Z</time>
      </trkpt>
      <trkpt lat="44.96637" lon="-0.33184">
        <ele>39.07</ele>
        <time>2018-05-22T09:05:00Z</time>
      </trkpt>
      <trkpt lat="44.96635" lon="-0.33162">
        <ele>37.63</ele>
        <time>2018-05-22T09:05:16Z</time>
      </trkpt>
      <trkpt lat="44.96633" lon="-0.33142">
        <ele>35.71</ele>
        <time>2018-05-22T09:05:30Z</time>
      </trkpt>
      <trkpt lat="44.96635" lon="-0.33135">
        <ele>35.23</ele>
        <time>2018-05-22T09:05:33Z</time>
      </trkpt>
      <trkpt lat="44.96638" lon="-0.33116">
        <ele>34.26</ele>
        <time>2018-05-22T09:05:41Z</time>
      </trkpt>
      <trkpt lat="44.96645" lon="-0.33097">
        <ele>33.3</ele>
        <time>2018-05-22T09:05:51Z</time>
      </trkpt>
      <trkpt lat="44.96659" lon="-0.33083">
        <ele>32.34</ele>
        <time>2018-05-22T09:06:04Z</time>
      </trkpt>
      <trkpt lat="44.96676" lon="-0.33068">
        <ele>31.38</ele>
        <time>2018-05-22T09:06:21Z</time>
      </trkpt>
      <trkpt lat="44.96689" lon="-0.33053">
        <ele>30.42</ele>
        <time>2018-05-22T09:06:36Z</time>
      </trkpt>
      <trkpt lat="44.96693" lon="-0.33052">
        <ele>30.42</ele>
        <time>2018-05-22T09:06:50Z</time>
      </trkpt>
      <trkpt lat="44.96701" lon="-0.33042">
        <ele>29.94</ele>
        <time>2018-05-22T09:07:03Z</time>
      </trkpt>
      <trkpt lat="44.96716" lon="-0.33021">
        <ele>29.46</ele>
        <time>2018-05-22T09:07:22Z</time>
      </trkpt>
      <trkpt lat="44.96727" lon="-0.33002">
        <ele>28.02</ele>
        <time>2018-05-22T09:07:38Z</time>
      </trkpt>
      <trkpt lat="44.96737" lon="-0.32984">
        <ele>27.53</ele>
        <time>2018-05-22T09:07:52Z</time>
      </trkpt>
      <trkpt lat="44.96745" lon="-0.32967">
        <ele>27.05</ele>
        <time>2018-05-22T09:08:07Z</time>
      </trkpt>
      <trkpt lat="44.96755" lon="-0.32942">
        <ele>26.09</ele>
        <time>2018-05-22T09:08:25Z</time>
      </trkpt>
      <trkpt lat="44.96759" lon="-0.32914">
        <ele>26.09</ele>
        <time>2018-05-22T09:08:42Z</time>
      </trkpt>
      <trkpt lat="44.9677" lon="-0.32892">
        <ele>25.61</ele>
        <time>2018-05-22T09:08:58Z</time>
      </trkpt>
      <trkpt lat="44.96784" lon="-0.32884">
        <ele>26.57</ele>
        <time>2018-05-22T09:09:14Z</time>
      </trkpt>
      <trkpt lat="44.96803" lon="-0.32871">
        <ele>27.05</ele>
        <time>2018-05-22T09:09:33Z</time>
      </trkpt>
      <trkpt lat="44.96826" lon="-0.32858">
        <ele>28.02</ele>
        <time>2018-05-22T09:09:52Z</time>
      </trkpt>
      <trkpt lat="44.96845" lon="-0.3285">
        <ele>28.5</ele>
        <time>2018-05-22T09:10:08Z</time>
      </trkpt>
      <trkpt lat="44.96865" lon="-0.32841">
        <ele>28.98</ele>
        <time>2018-05-22T09:10:24Z</time>
      </trkpt>
      <trkpt lat="44.96885" lon="-0.3283">
        <ele>29.94</ele>
        <time>2018-05-22T09:10:41Z</time>
      </trkpt>
      <trkpt lat="44.96903" lon="-0.32818">
        <ele>29.94</ele>
        <time>2018-05-22T09:10:57Z</time>
      </trkpt>
      <trkpt lat="44.96922" lon="-0.3281">
        <ele>31.38</ele>
        <time>2018-05-22T09:11:14Z</time>
      </trkpt>
      <trkpt lat="44.96928" lon="-0.32808">
        <ele>31.86</ele>
        <time>2018-05-22T09:11:21Z</time>
      </trkpt>
      <trkpt lat="44.96944" lon="-0.32798">
        <ele>33.3</ele>
        <time>2018-05-22T09:11:39Z</time>
      </trkpt>
      <trkpt lat="44.96959" lon="-0.32789">
        <ele>34.74</ele>
        <time>2018-05-22T09:11:55Z</time>
      </trkpt>
      <trkpt lat="44.96976" lon="-0.32777">
        <ele>36.19</ele>
        <time>2018-05-22T09:12:13Z</time>
      </trkpt>
      <trkpt lat="44.96982" lon="-0.32773">
        <ele>36.67</ele>
        <time>2018-05-22T09:12:18Z</time>
      </trkpt>
      <trkpt lat="44.97" lon="-0.3276">
        <ele>38.11</ele>
        <time>2018-05-22T09:12:34Z</time>
      </trkpt>
      <trkpt lat="44.97019" lon="-0.32746">
        <ele>40.03</ele>
        <time>2018-05-22T09:12:51Z</time>
      </trkpt>
      <trkpt lat="44.97036" lon="-0.32735">
        <ele>41.95</ele>
        <time>2018-05-22T09:13:10Z</time>
      </trkpt>
      <trkpt lat="44.97052" lon="-0.32722">
        <ele>43.4</ele>
        <time>2018-05-22T09:13:27Z</time>
      </trkpt>
      <trkpt lat="44.97071" lon="-0.32708">
        <ele>44.84</ele>
        <time>2018-05-22T09:13:44Z</time>
      </trkpt>
      <trkpt lat="44.9709" lon="-0.32695">
        <ele>46.76</ele>
        <time>2018-05-22T09:14:03Z</time>
      </trkpt>
      <trkpt lat="44.97106" lon="-0.32683">
        <ele>48.2</ele>
        <time>2018-05-22T09:14:20Z</time>
      </trkpt>
      <trkpt lat="44.97118" lon="-0.32675">
        <ele>49.65</ele>
        <time>2018-05-22T09:14:34Z</time>
      </trkpt>
      <trkpt lat="44.97129" lon="-0.32663">
        <ele>50.61</ele>
        <time>2018-05-22T09:14:49Z</time>
      </trkpt>
      <trkpt lat="44.97136" lon="-0.32661">
        <ele>50.13</ele>
        <time>2018-05-22T09:15:05Z</time>
      </trkpt>
      <trkpt lat="44.9714" lon="-0.3266">
        <ele>50.61</ele>
        <time>2018-05-22T09:15:30Z</time>
      </trkpt>
      <trkpt lat="44.9714" lon="-0.32656">
        <ele>50.61</ele>
        <time>2018-05-22T09:15:47Z</time>
      </trkpt>
      <trkpt lat="44.97141" lon="-0.32652">
        <ele>50.61</ele>
        <time>2018-05-22T09:16:02Z</time>
      </trkpt>
      <trkpt lat="44.97141" lon="-0.32647">
        <ele>51.09</ele>
        <time>2018-05-22T09:16:19Z</time>
      </trkpt>
      <trkpt lat="44.97142" lon="-0.32647">
        <ele>51.09</ele>
        <time>2018-05-22T09:16:31Z</time>
      </trkpt>
      <trkpt lat="44.97142" lon="-0.3264">
        <ele>51.09</ele>
        <time>2018-05-22T09:16:46Z</time>
      </trkpt>
      <trkpt lat="44.9714" lon="-0.32634">
        <ele>51.09</ele>
        <time>2018-05-22T09:17:03Z</time>
      </trkpt>
      <trkpt lat="44.97139" lon="-0.32631">
        <ele>51.09</ele>
        <time>2018-05-22T09:17:19Z</time>
      </trkpt>
      <trkpt lat="44.97138" lon="-0.32617">
        <ele>51.09</ele>
        <time>2018-05-22T09:17:31Z</time>
      </trkpt>
      <trkpt lat="44.97138" lon="-0.32612">
        <ele>51.09</ele>
        <time>2018-05-22T09:17:48Z</time>
      </trkpt>
      <trkpt lat="44.97135" lon="-0.32605">
        <ele>51.09</ele>
        <time>2018-05-22T09:18:07Z</time>
      </trkpt>
      <trkpt lat="44.9713" lon="-0.3258">
        <ele>51.09</ele>
        <time>2018-05-22T09:18:26Z</time>
      </trkpt>
      <trkpt lat="44.97123" lon="-0.32554">
        <ele>49.65</ele>
        <time>2018-05-22T09:18:44Z</time>
      </trkpt>
      <trkpt lat="44.97115" lon="-0.32527">
        <ele>49.16</ele>
        <time>2018-05-22T09:19:02Z</time>
      </trkpt>
      <trkpt lat="44.97105" lon="-0.32499">
        <ele>48.68</ele>
        <time>2018-05-22T09:19:21Z</time>
      </trkpt>
      <trkpt lat="44.97097" lon="-0.32474">
        <ele>48.68</ele>
        <time>2018-05-22T09:19:38Z</time>
      </trkpt>
      <trkpt lat="44.97095" lon="-0.32466">
        <ele>48.2</ele>
        <time>2018-05-22T09:19:43Z</time>
      </trkpt>
      <trkpt lat="44.97085" lon="-0.32435">
        <ele>48.2</ele>
        <time>2018-05-22T09:20:01Z</time>
      </trkpt>
      <trkpt lat="44.97081" lon="-0.32404">
        <ele>47.72</ele>
        <time>2018-05-22T09:20:19Z</time>
      </trkpt>
      <trkpt lat="44.97079" lon="-0.32378">
        <ele>47.72</ele>
        <time>2018-05-22T09:20:35Z</time>
      </trkpt>
      <trkpt lat="44.97078" lon="-0.32358">
        <ele>47.24</ele>
        <time>2018-05-22T09:20:52Z</time>
      </trkpt>
      <trkpt lat="44.97077" lon="-0.32345">
        <ele>46.76</ele>
        <time>2018-05-22T09:21:06Z</time>
      </trkpt>
      <trkpt lat="44.97077" lon="-0.32327">
        <ele>46.28</ele>
        <time>2018-05-22T09:21:21Z</time>
      </trkpt>
      <trkpt lat="44.97079" lon="-0.32308">
        <ele>46.28</ele>
        <time>2018-05-22T09:21:34Z</time>
      </trkpt>
      <trkpt lat="44.97078" lon="-0.32303">
        <ele>47.72</ele>
        <time>2018-05-22T09:21:38Z</time>
      </trkpt>
      <trkpt lat="44.97077" lon="-0.323">
        <ele>47.72</ele>
        <time>2018-05-22T09:21:41Z</time>
      </trkpt>
      <trkpt lat="44.97074" lon="-0.32282">
        <ele>48.2</ele>
        <time>2018-05-22T09:21:53Z</time>
      </trkpt>
      <trkpt lat="44.97069" lon="-0.3226">
        <ele>48.2</ele>
        <time>2018-05-22T09:22:07Z</time>
      </trkpt>
      <trkpt lat="44.9706" lon="-0.32232">
        <ele>49.16</ele>
        <time>2018-05-22T09:22:25Z</time>
      </trkpt>
      <trkpt lat="44.97043" lon="-0.32213">
        <ele>49.16</ele>
        <time>2018-05-22T09:22:42Z</time>
      </trkpt>
      <trkpt lat="44.97027" lon="-0.32196">
        <ele>49.16</ele>
        <time>2018-05-22T09:22:58Z</time>
      </trkpt>
      <trkpt lat="44.9701" lon="-0.32178">
        <ele>49.65</ele>
        <time>2018-05-22T09:23:15Z</time>
      </trkpt>
      <trkpt lat="44.96994" lon="-0.32159">
        <ele>50.13</ele>
        <time>2018-05-22T09:23:30Z</time>
      </trkpt>
      <trkpt lat="44.9698" lon="-0.32135">
        <ele>48.68</ele>
        <time>2018-05-22T09:23:47Z</time>
      </trkpt>
      <trkpt lat="44.9697" lon="-0.32116">
        <ele>48.2</ele>
        <time>2018-05-22T09:24:03Z</time>
      </trkpt>
      <trkpt lat="44.96964" lon="-0.32096">
        <ele>49.16</ele>
        <time>2018-05-22T09:24:18Z</time>
      </trkpt>
      <trkpt lat="44.96954" lon="-0.32077">
        <ele>50.13</ele>
        <time>2018-05-22T09:24:33Z</time>
      </trkpt>
      <trkpt lat="44.96939" lon="-0.32066">
        <ele>51.09</ele>
        <time>2018-05-22T09:24:48Z</time>
      </trkpt>
      <trkpt lat="44.96927" lon="-0.32062">
        <ele>52.05</ele>
        <time>2018-05-22T09:25:00Z</time>
      </trkpt>
      <trkpt lat="44.96917" lon="-0.32053">
        <ele>52.05</ele>
        <time>2018-05-22T09:25:12Z</time>
      </trkpt>
      <trkpt lat="44.96908" lon="-0.32046">
        <ele>52.05</ele>
        <time>2018-05-22T09:25:38Z</time>
      </trkpt>
      <trkpt lat="44.96906" lon="-0.3204">
        <ele>52.05</ele>
        <time>2018-05-22T09:25:55Z</time>
      </trkpt>
      <trkpt lat="44.96902" lon="-0.32036">
        <ele>52.53</ele>
        <time>2018-05-22T09:26:21Z</time>
      </trkpt>
      <trkpt lat="44.96903" lon="-0.32038">
        <ele>52.53</ele>
        <time>2018-05-22T09:26:36Z</time>
      </trkpt>
      <trkpt lat="44.96902" lon="-0.32036">
        <ele>52.53</ele>
        <time>2018-05-22T09:26:55Z</time>
      </trkpt>
      <trkpt lat="44.96899" lon="-0.32027">
        <ele>52.53</ele>
        <time>2018-05-22T09:27:12Z</time>
      </trkpt>
      <trkpt lat="44.96897" lon="-0.32024">
        <ele>52.53</ele>
        <time>2018-05-22T09:27:36Z</time>
      </trkpt>
      <trkpt lat="44.96897" lon="-0.32022">
        <ele>52.53</ele>
        <time>2018-05-22T09:27:51Z</time>
      </trkpt>
      <trkpt lat="44.96896" lon="-0.3202">
        <ele>52.53</ele>
        <time>2018-05-22T09:28:15Z</time>
      </trkpt>
      <trkpt lat="44.96896" lon="-0.32018">
        <ele>52.05</ele>
        <time>2018-05-22T09:28:47Z</time>
      </trkpt>
      <trkpt lat="44.96896" lon="-0.32016">
        <ele>52.05</ele>
        <time>2018-05-22T09:29:11Z</time>
      </trkpt>
      <trkpt lat="44.96888" lon="-0.31998">
        <ele>52.53</ele>
        <time>2018-05-22T09:29:30Z</time>
      </trkpt>
      <trkpt lat="44.96884" lon="-0.31989">
        <ele>52.53</ele>
        <time>2018-05-22T09:29:42Z</time>
      </trkpt>
      <trkpt lat="44.96881" lon="-0.31983">
        <ele>52.53</ele>
        <time>2018-05-22T09:29:57Z</time>
      </trkpt>
      <trkpt lat="44.96877" lon="-0.31975">
        <ele>53.01</ele>
        <time>2018-05-22T09:30:11Z</time>
      </trkpt>
      <trkpt lat="44.96875" lon="-0.31972">
        <ele>53.01</ele>
        <time>2018-05-22T09:30:23Z</time>
      </trkpt>
      <trkpt lat="44.96868" lon="-0.31955">
        <ele>53.49</ele>
        <time>2018-05-22T09:30:38Z</time>
      </trkpt>
      <trkpt lat="44.96857" lon="-0.31936">
        <ele>53.49</ele>
        <time>2018-05-22T09:30:56Z</time>
      </trkpt>
      <trkpt lat="44.96847" lon="-0.31917">
        <ele>53.97</ele>
        <time>2018-05-22T09:31:11Z</time>
      </trkpt>
      <trkpt lat="44.96834" lon="-0.31898">
        <ele>54.45</ele>
        <time>2018-05-22T09:31:25Z</time>
      </trkpt>
      <trkpt lat="44.96823" lon="-0.31881">
        <ele>54.45</ele>
        <time>2018-05-22T09:31:39Z</time>
      </trkpt>
      <trkpt lat="44.9681" lon="-0.31864">
        <ele>54.93</ele>
        <time>2018-05-22T09:31:54Z</time>
      </trkpt>
      <trkpt lat="44.96809" lon="-0.31861">
        <ele>54.93</ele>
        <time>2018-05-22T09:31:56Z</time>
      </trkpt>
      <trkpt lat="44.96789" lon="-0.31843">
        <ele>54.93</ele>
        <time>2018-05-22T09:32:14Z</time>
      </trkpt>
      <trkpt lat="44.96769" lon="-0.31836">
        <ele>54.93</ele>
        <time>2018-05-22T09:32:30Z</time>
      </trkpt>
      <trkpt lat="44.96749" lon="-0.31832">
        <ele>55.41</ele>
        <time>2018-05-22T09:32:46Z</time>
      </trkpt>
      <trkpt lat="44.96732" lon="-0.31828">
        <ele>55.41</ele>
        <time>2018-05-22T09:33:02Z</time>
      </trkpt>
      <trkpt lat="44.96728" lon="-0.31826">
        <ele>55.41</ele>
        <time>2018-05-22T09:33:05Z</time>
      </trkpt>
      <trkpt lat="44.96709" lon="-0.31822">
        <ele>55.89</ele>
        <time>2018-05-22T09:33:21Z</time>
      </trkpt>
      <trkpt lat="44.96706" lon="-0.31821">
        <ele>55.89</ele>
        <time>2018-05-22T09:33:23Z</time>
      </trkpt>
      <trkpt lat="44.96692" lon="-0.31798">
        <ele>56.37</ele>
        <time>2018-05-22T09:33:42Z</time>
      </trkpt>
      <trkpt lat="44.96678" lon="-0.31769">
        <ele>56.37</ele>
        <time>2018-05-22T09:34:02Z</time>
      </trkpt>
      <trkpt lat="44.96668" lon="-0.31747">
        <ele>56.37</ele>
        <time>2018-05-22T09:34:18Z</time>
      </trkpt>
      <trkpt lat="44.96656" lon="-0.31727">
        <ele>56.86</ele>
        <time>2018-05-22T09:34:34Z</time>
      </trkpt>
      <trkpt lat="44.96646" lon="-0.31708">
        <ele>57.34</ele>
        <time>2018-05-22T09:34:51Z</time>
      </trkpt>
      <trkpt lat="44.96635" lon="-0.31701">
        <ele>57.82</ele>
        <time>2018-05-22T09:35:06Z</time>
      </trkpt>
      <trkpt lat="44.96614" lon="-0.3169">
        <ele>57.82</ele>
        <time>2018-05-22T09:35:25Z</time>
      </trkpt>
      <trkpt lat="44.96596" lon="-0.31681">
        <ele>57.82</ele>
        <time>2018-05-22T09:35:40Z</time>
      </trkpt>
      <trkpt lat="44.96584" lon="-0.31672">
        <ele>56.37</ele>
        <time>2018-05-22T09:35:51Z</time>
      </trkpt>
      <trkpt lat="44.96567" lon="-0.31659">
        <ele>56.37</ele>
        <time>2018-05-22T09:36:07Z</time>
      </trkpt>
      <trkpt lat="44.96556" lon="-0.31651">
        <ele>55.89</ele>
        <time>2018-05-22T09:36:19Z</time>
      </trkpt>
      <trkpt lat="44.96541" lon="-0.3164">
        <ele>55.89</ele>
        <time>2018-05-22T09:36:35Z</time>
      </trkpt>
      <trkpt lat="44.96535" lon="-0.31638">
        <ele>55.41</ele>
        <time>2018-05-22T09:36:50Z</time>
      </trkpt>
      <trkpt lat="44.96531" lon="-0.31634">
        <ele>55.41</ele>
        <time>2018-05-22T09:37:05Z</time>
      </trkpt>
      <trkpt lat="44.96521" lon="-0.3163">
        <ele>54.93</ele>
        <time>2018-05-22T09:37:19Z</time>
      </trkpt>
      <trkpt lat="44.96501" lon="-0.31624">
        <ele>53.97</ele>
        <time>2018-05-22T09:37:36Z</time>
      </trkpt>
      <trkpt lat="44.9648" lon="-0.31617">
        <ele>53.49</ele>
        <time>2018-05-22T09:37:53Z</time>
      </trkpt>
      <trkpt lat="44.96459" lon="-0.31612">
        <ele>52.53</ele>
        <time>2018-05-22T09:38:10Z</time>
      </trkpt>
      <trkpt lat="44.96438" lon="-0.31606">
        <ele>52.05</ele>
        <time>2018-05-22T09:38:28Z</time>
      </trkpt>
      <trkpt lat="44.9642" lon="-0.31602">
        <ele>51.57</ele>
        <time>2018-05-22T09:38:43Z</time>
      </trkpt>
      <trkpt lat="44.96402" lon="-0.31597">
        <ele>51.57</ele>
        <time>2018-05-22T09:38:59Z</time>
      </trkpt>
      <trkpt lat="44.96383" lon="-0.31592">
        <ele>51.57</ele>
        <time>2018-05-22T09:39:17Z</time>
      </trkpt>
      <trkpt lat="44.96363" lon="-0.31584">
        <ele>51.57</ele>
        <time>2018-05-22T09:39:34Z</time>
      </trkpt>
      <trkpt lat="44.96344" lon="-0.31576">
        <ele>51.57</ele>
        <time>2018-05-22T09:39:52Z</time>
      </trkpt>
      <trkpt lat="44.96323" lon="-0.31567">
        <ele>51.57</ele>
        <time>2018-05-22T09:40:10Z</time>
      </trkpt>
      <trkpt lat="44.96302" lon="-0.31557">
        <ele>51.57</ele>
        <time>2018-05-22T09:40:28Z</time>
      </trkpt>
      <trkpt lat="44.96279" lon="-0.31547">
        <ele>51.57</ele>
        <time>2018-05-22T09:40:47Z</time>
      </trkpt>
      <trkpt lat="44.96258" lon="-0.31538">
        <ele>51.57</ele>
        <time>2018-05-22T09:41:05Z</time>
      </trkpt>
      <trkpt lat="44.96244" lon="-0.31531">
        <ele>52.53</ele>
        <time>2018-05-22T09:41:18Z</time>
      </trkpt>
      <trkpt lat="44.96241" lon="-0.31552">
        <ele>53.01</ele>
        <time>2018-05-22T09:41:33Z</time>
      </trkpt>
      <trkpt lat="44.9624" lon="-0.31578">
        <ele>53.49</ele>
        <time>2018-05-22T09:41:49Z</time>
      </trkpt>
      <trkpt lat="44.96237" lon="-0.31608">
        <ele>53.97</ele>
        <time>2018-05-22T09:42:08Z</time>
      </trkpt>
      <trkpt lat="44.96233" lon="-0.31636">
        <ele>53.97</ele>
        <time>2018-05-22T09:42:26Z</time>
      </trkpt>
      <trkpt lat="44.96231" lon="-0.31662">
        <ele>54.45</ele>
        <time>2018-05-22T09:42:42Z</time>
      </trkpt>
      <trkpt lat="44.96229" lon="-0.31686">
        <ele>54.45</ele>
        <time>2018-05-22T09:42:57Z</time>
      </trkpt>
      <trkpt lat="44.96225" lon="-0.31713">
        <ele>53.97</ele>
        <time>2018-05-22T09:43:14Z</time>
      </trkpt>
      <trkpt lat="44.96223" lon="-0.31735">
        <ele>53.97</ele>
        <time>2018-05-22T09:43:28Z</time>
      </trkpt>
      <trkpt lat="44.96222" lon="-0.31741">
        <ele>53.97</ele>
        <time>2018-05-22T09:43:32Z</time>
      </trkpt>
      <trkpt lat="44.9622" lon="-0.31745">
        <ele>53.97</ele>
        <time>2018-05-22T09:43:35Z</time>
      </trkpt>
      <trkpt lat="44.96204" lon="-0.31757">
        <ele>53.97</ele>
        <time>2018-05-22T09:43:51Z</time>
      </trkpt>
      <trkpt lat="44.96186" lon="-0.31762">
        <ele>54.45</ele>
        <time>2018-05-22T09:44:08Z</time>
      </trkpt>
      <trkpt lat="44.96165" lon="-0.31767">
        <ele>54.93</ele>
        <time>2018-05-22T09:44:26Z</time>
      </trkpt>
      <trkpt lat="44.96148" lon="-0.31772">
        <ele>55.41</ele>
        <time>2018-05-22T09:44:42Z</time>
      </trkpt>
      <trkpt lat="44.9613" lon="-0.31779">
        <ele>55.89</ele>
        <time>2018-05-22T09:44:59Z</time>
      </trkpt>
      <trkpt lat="44.96116" lon="-0.31786">
        <ele>55.89</ele>
        <time>2018-05-22T09:45:15Z</time>
      </trkpt>
      <trkpt lat="44.96099" lon="-0.31795">
        <ele>56.86</ele>
        <time>2018-05-22T09:45:32Z</time>
      </trkpt>
      <trkpt lat="44.9608" lon="-0.31802">
        <ele>57.82</ele>
        <time>2018-05-22T09:45:49Z</time>
      </trkpt>
      <trkpt lat="44.96062" lon="-0.3181">
        <ele>58.78</ele>
        <time>2018-05-22T09:46:05Z</time>
      </trkpt>
      <trkpt lat="44.96044" lon="-0.31822">
        <ele>59.74</ele>
        <time>2018-05-22T09:46:23Z</time>
      </trkpt>
      <trkpt lat="44.96023" lon="-0.31831">
        <ele>60.22</ele>
        <time>2018-05-22T09:46:41Z</time>
      </trkpt>
      <trkpt lat="44.96003" lon="-0.31836">
        <ele>61.66</ele>
        <time>2018-05-22T09:46:58Z</time>
      </trkpt>
      <trkpt lat="44.96001" lon="-0.31837">
        <ele>61.66</ele>
        <time>2018-05-22T09:47:00Z</time>
      </trkpt>
      <trkpt lat="44.95982" lon="-0.31848">
        <ele>63.1</ele>
        <time>2018-05-22T09:47:16Z</time>
      </trkpt>
      <trkpt lat="44.95965" lon="-0.3186">
        <ele>63.58</ele>
        <time>2018-05-22T09:47:33Z</time>
      </trkpt>
      <trkpt lat="44.95949" lon="-0.31872">
        <ele>64.07</ele>
        <time>2018-05-22T09:47:50Z</time>
      </trkpt>
      <trkpt lat="44.95929" lon="-0.31885">
        <ele>65.03</ele>
        <time>2018-05-22T09:48:08Z</time>
      </trkpt>
      <trkpt lat="44.9591" lon="-0.31894">
        <ele>65.99</ele>
        <time>2018-05-22T09:48:25Z</time>
      </trkpt>
      <trkpt lat="44.95892" lon="-0.31907">
        <ele>65.99</ele>
        <time>2018-05-22T09:48:42Z</time>
      </trkpt>
      <trkpt lat="44.95876" lon="-0.31916">
        <ele>65.99</ele>
        <time>2018-05-22T09:48:57Z</time>
      </trkpt>
      <trkpt lat="44.9586" lon="-0.31925">
        <ele>65.99</ele>
        <time>2018-05-22T09:49:12Z</time>
      </trkpt>
      <trkpt lat="44.95839" lon="-0.31936">
        <ele>66.95</ele>
        <time>2018-05-22T09:49:31Z</time>
      </trkpt>
      <trkpt lat="44.95825" lon="-0.31939">
        <ele>67.43</ele>
        <time>2018-05-22T09:49:44Z</time>
      </trkpt>
      <trkpt lat="44.95812" lon="-0.3195">
        <ele>67.91</ele>
        <time>2018-05-22T09:50:00Z</time>
      </trkpt>
      <trkpt lat="44.95809" lon="-0.31954">
        <ele>67.91</ele>
        <time>2018-05-22T09:50:15Z</time>
      </trkpt>
      <trkpt lat="44.95806" lon="-0.31959">
        <ele>68.39</ele>
        <time>2018-05-22T09:50:29Z</time>
      </trkpt>
      <trkpt lat="44.958" lon="-0.31964">
        <ele>69.35</ele>
        <time>2018-05-22T09:50:47Z</time>
      </trkpt>
      <trkpt lat="44.9579" lon="-0.31974">
        <ele>69.83</ele>
        <time>2018-05-22T09:51:04Z</time>
      </trkpt>
      <trkpt lat="44.95786" lon="-0.31977">
        <ele>70.31</ele>
        <time>2018-05-22T09:51:29Z</time>
      </trkpt>
      <trkpt lat="44.95789" lon="-0.31979">
        <ele>70.31</ele>
        <time>2018-05-22T09:51:59Z</time>
      </trkpt>
      <trkpt lat="44.95787" lon="-0.31977">
        <ele>70.31</ele>
        <time>2018-05-22T09:52:18Z</time>
      </trkpt>
      <trkpt lat="44.95783" lon="-0.31976">
        <ele>70.31</ele>
        <time>2018-05-22T09:52:38Z</time>
      </trkpt>
      <trkpt lat="44.95781" lon="-0.31975">
        <ele>70.31</ele>
        <time>2018-05-22T09:52:53Z</time>
      </trkpt>
      <trkpt lat="44.95779" lon="-0.31973">
        <ele>70.31</ele>
        <time>2018-05-22T09:53:14Z</time>
      </trkpt>
      <trkpt lat="44.95777" lon="-0.31973">
        <ele>69.83</ele>
        <time>2018-05-22T09:53:42Z</time>
      </trkpt>
      <trkpt lat="44.95774" lon="-0.31978">
        <ele>70.31</ele>
        <time>2018-05-22T09:53:58Z</time>
      </trkpt>
      <trkpt lat="44.95765" lon="-0.31985">
        <ele>70.79</ele>
        <time>2018-05-22T09:54:16Z</time>
      </trkpt>
      <trkpt lat="44.9575" lon="-0.32001">
        <ele>71.27</ele>
        <time>2018-05-22T09:54:33Z</time>
      </trkpt>
      <trkpt lat="44.95743" lon="-0.32009">
        <ele>71.27</ele>
        <time>2018-05-22T09:54:45Z</time>
      </trkpt>
      <trkpt lat="44.95725" lon="-0.32026">
        <ele>71.76</ele>
        <time>2018-05-22T09:55:04Z</time>
      </trkpt>
      <trkpt lat="44.95708" lon="-0.32043">
        <ele>71.76</ele>
        <time>2018-05-22T09:55:22Z</time>
      </trkpt>
      <trkpt lat="44.95689" lon="-0.32057">
        <ele>71.76</ele>
        <time>2018-05-22T09:55:40Z</time>
      </trkpt>
      <trkpt lat="44.9567" lon="-0.32067">
        <ele>70.31</ele>
        <time>2018-05-22T09:55:57Z</time>
      </trkpt>
      <trkpt lat="44.9565" lon="-0.32075">
        <ele>70.31</ele>
        <time>2018-05-22T09:56:14Z</time>
      </trkpt>
      <trkpt lat="44.95631" lon="-0.32084">
        <ele>70.31</ele>
        <time>2018-05-22T09:56:31Z</time>
      </trkpt>
      <trkpt lat="44.95612" lon="-0.3209">
        <ele>69.83</ele>
        <time>2018-05-22T09:56:48Z</time>
      </trkpt>
      <trkpt lat="44.95594" lon="-0.32092">
        <ele>69.83</ele>
        <time>2018-05-22T09:57:03Z</time>
      </trkpt>
      <trkpt lat="44.95572" lon="-0.32088">
        <ele>69.83</ele>
        <time>2018-05-22T09:57:22Z</time>
      </trkpt>
      <trkpt lat="44.9557" lon="-0.32088">
        <ele>69.83</ele>
        <time>2018-05-22T09:57:24Z</time>
      </trkpt>
      <trkpt lat="44.9555" lon="-0.32091">
        <ele>69.83</ele>
        <time>2018-05-22T09:57:42Z</time>
      </trkpt>
      <trkpt lat="44.95529" lon="-0.32096">
        <ele>69.83</ele>
        <time>2018-05-22T09:58:01Z</time>
      </trkpt>
      <trkpt lat="44.9551" lon="-0.32098">
        <ele>69.83</ele>
        <time>2018-05-22T09:58:18Z</time>
      </trkpt>
      <trkpt lat="44.95493" lon="-0.32099">
        <ele>71.27</ele>
        <time>2018-05-22T09:58:34Z</time>
      </trkpt>
      <trkpt lat="44.95479" lon="-0.32103">
        <ele>71.27</ele>
        <time>2018-05-22T09:58:49Z</time>
      </trkpt>
      <trkpt lat="44.95477" lon="-0.32103">
        <ele>71.27</ele>
        <time>2018-05-22T09:59:03Z</time>
      </trkpt>
      <trkpt lat="44.95474" lon="-0.32102">
        <ele>71.27</ele>
        <time>2018-05-22T09:59:20Z</time>
      </trkpt>
      <trkpt lat="44.95469" lon="-0.321">
        <ele>71.27</ele>
        <time>2018-05-22T09:59:38Z</time>
      </trkpt>
      <trkpt lat="44.95469" lon="-0.32099">
        <ele>71.27</ele>
        <time>2018-05-22T09:59:39Z</time>
      </trkpt>
      <trkpt lat="44.95465" lon="-0.32071">
        <ele>71.27</ele>
        <time>2018-05-22T09:59:58Z</time>
      </trkpt>
      <trkpt lat="44.9546" lon="-0.32046">
        <ele>71.27</ele>
        <time>2018-05-22T10:00:14Z</time>
      </trkpt>
      <trkpt lat="44.95455" lon="-0.32021">
        <ele>71.27</ele>
        <time>2018-05-22T10:00:29Z</time>
      </trkpt>
      <trkpt lat="44.95451" lon="-0.31995">
        <ele>71.27</ele>
        <time>2018-05-22T10:00:45Z</time>
      </trkpt>
      <trkpt lat="44.95447" lon="-0.31971">
        <ele>71.27</ele>
        <time>2018-05-22T10:01:00Z</time>
      </trkpt>
      <trkpt lat="44.95441" lon="-0.31945">
        <ele>71.76</ele>
        <time>2018-05-22T10:01:17Z</time>
      </trkpt>
      <trkpt lat="44.95436" lon="-0.31922">
        <ele>71.76</ele>
        <time>2018-05-22T10:01:32Z</time>
      </trkpt>
      <trkpt lat="44.95427" lon="-0.31897">
        <ele>70.31</ele>
        <time>2018-05-22T10:01:48Z</time>
      </trkpt>
      <trkpt lat="44.95415" lon="-0.31878">
        <ele>69.83</ele>
        <time>2018-05-22T10:02:03Z</time>
      </trkpt>
      <trkpt lat="44.95402" lon="-0.31856">
        <ele>69.35</ele>
        <time>2018-05-22T10:02:21Z</time>
      </trkpt>
      <trkpt lat="44.95388" lon="-0.31833">
        <ele>68.39</ele>
        <time>2018-05-22T10:02:39Z</time>
      </trkpt>
      <trkpt lat="44.95377" lon="-0.31812">
        <ele>67.91</ele>
        <time>2018-05-22T10:02:55Z</time>
      </trkpt>
      <trkpt lat="44.95365" lon="-0.31784">
        <ele>66.95</ele>
        <time>2018-05-22T10:03:14Z</time>
      </trkpt>
      <trkpt lat="44.95356" lon="-0.31761">
        <ele>65.99</ele>
        <time>2018-05-22T10:03:31Z</time>
      </trkpt>
      <trkpt lat="44.95353" lon="-0.3175">
        <ele>65.99</ele>
        <time>2018-05-22T10:03:42Z</time>
      </trkpt>
      <trkpt lat="44.95347" lon="-0.31718">
        <ele>65.99</ele>
        <time>2018-05-22T10:04:02Z</time>
      </trkpt>
      <trkpt lat="44.95341" lon="-0.31696">
        <ele>65.99</ele>
        <time>2018-05-22T10:04:18Z</time>
      </trkpt>
      <trkpt lat="44.95342" lon="-0.31676">
        <ele>65.99</ele>
        <time>2018-05-22T10:04:35Z</time>
      </trkpt>
      <trkpt lat="44.95339" lon="-0.31658">
        <ele>64.55</ele>
        <time>2018-05-22T10:04:49Z</time>
      </trkpt>
      <trkpt lat="44.95326" lon="-0.31647">
        <ele>62.14</ele>
        <time>2018-05-22T10:05:06Z</time>
      </trkpt>
      <trkpt lat="44.95317" lon="-0.31644">
        <ele>60.22</ele>
        <time>2018-05-22T10:05:20Z</time>
      </trkpt>
      <trkpt lat="44.95307" lon="-0.31634">
        <ele>58.78</ele>
        <time>2018-05-22T10:05:38Z</time>
      </trkpt>
      <trkpt lat="44.95292" lon="-0.3162">
        <ele>56.37</ele>
        <time>2018-05-22T10:05:55Z</time>
      </trkpt>
      <trkpt lat="44.95278" lon="-0.31611">
        <ele>55.41</ele>
        <time>2018-05-22T10:06:13Z</time>
      </trkpt>
      <trkpt lat="44.95267" lon="-0.31606">
        <ele>54.93</ele>
        <time>2018-05-22T10:06:31Z</time>
      </trkpt>
      <trkpt lat="44.95255" lon="-0.31601">
        <ele>55.41</ele>
        <time>2018-05-22T10:06:57Z</time>
      </trkpt>
      <trkpt lat="44.95254" lon="-0.31593">
        <ele>54.45</ele>
        <time>2018-05-22T10:07:12Z</time>
      </trkpt>
      <trkpt lat="44.95251" lon="-0.31583">
        <ele>53.49</ele>
        <time>2018-05-22T10:07:28Z</time>
      </trkpt>
      <trkpt lat="44.95243" lon="-0.31575">
        <ele>52.53</ele>
        <time>2018-05-22T10:07:41Z</time>
      </trkpt>
      <trkpt lat="44.95235" lon="-0.31561">
        <ele>51.57</ele>
        <time>2018-05-22T10:07:59Z</time>
      </trkpt>
      <trkpt lat="44.95211" lon="-0.31547">
        <ele>50.61</ele>
        <time>2018-05-22T10:08:15Z</time>
      </trkpt>
      <trkpt lat="44.95208" lon="-0.3154">
        <ele>49.65</ele>
        <time>2018-05-22T10:08:30Z</time>
      </trkpt>
      <trkpt lat="44.952" lon="-0.31542">
        <ele>46.76</ele>
        <time>2018-05-22T10:08:44Z</time>
      </trkpt>
      <trkpt lat="44.95197" lon="-0.31543">
        <ele>45.8</ele>
        <time>2018-05-22T10:08:48Z</time>
      </trkpt>
      <trkpt lat="44.95185" lon="-0.31551">
        <ele>42.92</ele>
        <time>2018-05-22T10:09:04Z</time>
      </trkpt>
      <trkpt lat="44.95173" lon="-0.3156">
        <ele>39.55</ele>
        <time>2018-05-22T10:09:21Z</time>
      </trkpt>
      <trkpt lat="44.95163" lon="-0.31566">
        <ele>38.11</ele>
        <time>2018-05-22T10:09:33Z</time>
      </trkpt>
      <trkpt lat="44.95147" lon="-0.31573">
        <ele>35.23</ele>
        <time>2018-05-22T10:09:50Z</time>
      </trkpt>
      <trkpt lat="44.95132" lon="-0.31583">
        <ele>32.34</ele>
        <time>2018-05-22T10:10:07Z</time>
      </trkpt>
      <trkpt lat="44.95117" lon="-0.31594">
        <ele>30.9</ele>
        <time>2018-05-22T10:10:23Z</time>
      </trkpt>
      <trkpt lat="44.95109" lon="-0.31598">
        <ele>29.94</ele>
        <time>2018-05-22T10:10:33Z</time>
      </trkpt>
      <trkpt lat="44.95103" lon="-0.31597">
        <ele>29.94</ele>
        <time>2018-05-22T10:10:39Z</time>
      </trkpt>
      <trkpt lat="44.95083" lon="-0.31593">
        <ele>29.46</ele>
        <time>2018-05-22T10:10:59Z</time>
      </trkpt>
      <trkpt lat="44.95069" lon="-0.31603">
        <ele>28.5</ele>
        <time>2018-05-22T10:11:16Z</time>
      </trkpt>
      <trkpt lat="44.95059" lon="-0.31614">
        <ele>27.53</ele>
        <time>2018-05-22T10:11:33Z</time>
      </trkpt>
      <trkpt lat="44.95053" lon="-0.31628">
        <ele>27.53</ele>
        <time>2018-05-22T10:11:50Z</time>
      </trkpt>
      <trkpt lat="44.95047" lon="-0.31639">
        <ele>27.53</ele>
        <time>2018-05-22T10:12:04Z</time>
      </trkpt>
      <trkpt lat="44.9504" lon="-0.31663">
        <ele>26.57</ele>
        <time>2018-05-22T10:12:20Z</time>
      </trkpt>
      <trkpt lat="44.95028" lon="-0.3168">
        <ele>26.09</ele>
        <time>2018-05-22T10:12:36Z</time>
      </trkpt>
      <trkpt lat="44.95021" lon="-0.31696">
        <ele>26.09</ele>
        <time>2018-05-22T10:12:48Z</time>
      </trkpt>
      <trkpt lat="44.95011" lon="-0.31712">
        <ele>26.09</ele>
        <time>2018-05-22T10:13:04Z</time>
      </trkpt>
      <trkpt lat="44.95003" lon="-0.31737">
        <ele>28.5</ele>
        <time>2018-05-22T10:13:23Z</time>
      </trkpt>
      <trkpt lat="44.95002" lon="-0.31729">
        <ele>30.9</ele>
        <time>2018-05-22T10:13:36Z</time>
      </trkpt>
      <trkpt lat="44.94997" lon="-0.31713">
        <ele>33.3</ele>
        <time>2018-05-22T10:13:52Z</time>
      </trkpt>
      <trkpt lat="44.94987" lon="-0.31697">
        <ele>36.19</ele>
        <time>2018-05-22T10:14:07Z</time>
      </trkpt>
      <trkpt lat="44.94973" lon="-0.31679">
        <ele>38.59</ele>
        <time>2018-05-22T10:14:21Z</time>
      </trkpt>
      <trkpt lat="44.9497" lon="-0.31662">
        <ele>40.99</ele>
        <time>2018-05-22T10:14:34Z</time>
      </trkpt>
      <trkpt lat="44.94971" lon="-0.31639">
        <ele>42.92</ele>
        <time>2018-05-22T10:14:49Z</time>
      </trkpt>
      <trkpt lat="44.94972" lon="-0.31629">
        <ele>43.88</ele>
        <time>2018-05-22T10:14:54Z</time>
      </trkpt>
      <trkpt lat="44.94972" lon="-0.31613">
        <ele>44.84</ele>
        <time>2018-05-22T10:15:02Z</time>
      </trkpt>
      <trkpt lat="44.94987" lon="-0.31586">
        <ele>46.28</ele>
        <time>2018-05-22T10:15:16Z</time>
      </trkpt>
      <trkpt lat="44.9499" lon="-0.3156">
        <ele>46.28</ele>
        <time>2018-05-22T10:15:29Z</time>
      </trkpt>
      <trkpt lat="44.94991" lon="-0.31541">
        <ele>46.76</ele>
        <time>2018-05-22T10:15:45Z</time>
      </trkpt>
      <trkpt lat="44.94985" lon="-0.31519">
        <ele>47.24</ele>
        <time>2018-05-22T10:16:05Z</time>
      </trkpt>
      <trkpt lat="44.94975" lon="-0.315">
        <ele>47.24</ele>
        <time>2018-05-22T10:16:20Z</time>
      </trkpt>
      <trkpt lat="44.94967" lon="-0.3149">
        <ele>47.72</ele>
        <time>2018-05-22T10:16:40Z</time>
      </trkpt>
      <trkpt lat="44.94968" lon="-0.3147">
        <ele>47.72</ele>
        <time>2018-05-22T10:16:56Z</time>
      </trkpt>
      <trkpt lat="44.9497" lon="-0.31445">
        <ele>49.16</ele>
        <time>2018-05-22T10:17:12Z</time>
      </trkpt>
      <trkpt lat="44.94974" lon="-0.31422">
        <ele>50.61</ele>
        <time>2018-05-22T10:17:28Z</time>
      </trkpt>
      <trkpt lat="44.94972" lon="-0.31404">
        <ele>53.01</ele>
        <time>2018-05-22T10:17:43Z</time>
      </trkpt>
      <trkpt lat="44.9497" lon="-0.31385">
        <ele>54.93</ele>
        <time>2018-05-22T10:17:58Z</time>
      </trkpt>
      <trkpt lat="44.9497" lon="-0.31364">
        <ele>57.82</ele>
        <time>2018-05-22T10:18:11Z</time>
      </trkpt>
      <trkpt lat="44.94972" lon="-0.3135">
        <ele>60.7</ele>
        <time>2018-05-22T10:18:25Z</time>
      </trkpt>
      <trkpt lat="44.94977" lon="-0.31338">
        <ele>63.1</ele>
        <time>2018-05-22T10:18:39Z</time>
      </trkpt>
      <trkpt lat="44.94988" lon="-0.31324">
        <ele>65.51</ele>
        <time>2018-05-22T10:18:53Z</time>
      </trkpt>
      <trkpt lat="44.95003" lon="-0.31305">
        <ele>67.91</ele>
        <time>2018-05-22T10:19:10Z</time>
      </trkpt>
      <trkpt lat="44.95013" lon="-0.31288">
        <ele>70.31</ele>
        <time>2018-05-22T10:19:25Z</time>
      </trkpt>
      <trkpt lat="44.95025" lon="-0.31276">
        <ele>72.24</ele>
        <time>2018-05-22T10:19:41Z</time>
      </trkpt>
      <trkpt lat="44.95035" lon="-0.31272">
        <ele>73.2</ele>
        <time>2018-05-22T10:19:55Z</time>
      </trkpt>
      <trkpt lat="44.95043" lon="-0.31259">
        <ele>74.16</ele>
        <time>2018-05-22T10:20:03Z</time>
      </trkpt>
      <trkpt lat="44.95057" lon="-0.31232">
        <ele>75.6</ele>
        <time>2018-05-22T10:20:18Z</time>
      </trkpt>
      <trkpt lat="44.95064" lon="-0.31208">
        <ele>76.08</ele>
        <time>2018-05-22T10:20:34Z</time>
      </trkpt>
      <trkpt lat="44.95071" lon="-0.31188">
        <ele>77.04</ele>
        <time>2018-05-22T10:20:50Z</time>
      </trkpt>
      <trkpt lat="44.95074" lon="-0.3118">
        <ele>76.56</ele>
        <time>2018-05-22T10:21:17Z</time>
      </trkpt>
      <trkpt lat="44.95074" lon="-0.31158">
        <ele>77.52</ele>
        <time>2018-05-22T10:21:35Z</time>
      </trkpt>
      <trkpt lat="44.95074" lon="-0.31131">
        <ele>78</ele>
        <time>2018-05-22T10:21:52Z</time>
      </trkpt>
      <trkpt lat="44.95077" lon="-0.3111">
        <ele>78</ele>
        <time>2018-05-22T10:22:06Z</time>
      </trkpt>
      <trkpt lat="44.95076" lon="-0.31107">
        <ele>78</ele>
        <time>2018-05-22T10:22:21Z</time>
      </trkpt>
      <trkpt lat="44.95079" lon="-0.31102">
        <ele>78</ele>
        <time>2018-05-22T10:22:49Z</time>
      </trkpt>
      <trkpt lat="44.95078" lon="-0.31103">
        <ele>77.52</ele>
        <time>2018-05-22T10:23:23Z</time>
      </trkpt>
      <trkpt lat="44.95075" lon="-0.31107">
        <ele>77.52</ele>
        <time>2018-05-22T10:24:00Z</time>
      </trkpt>
      <trkpt lat="44.95077" lon="-0.31096">
        <ele>77.52</ele>
        <time>2018-05-22T10:24:16Z</time>
      </trkpt>
      <trkpt lat="44.95079" lon="-0.31094">
        <ele>77.52</ele>
        <time>2018-05-22T10:24:19Z</time>
      </trkpt>
      <trkpt lat="44.95095" lon="-0.31091">
        <ele>78</ele>
        <time>2018-05-22T10:24:35Z</time>
      </trkpt>
      <trkpt lat="44.95114" lon="-0.31088">
        <ele>78</ele>
        <time>2018-05-22T10:24:51Z</time>
      </trkpt>
      <trkpt lat="44.95135" lon="-0.31085">
        <ele>78.97</ele>
        <time>2018-05-22T10:25:08Z</time>
      </trkpt>
      <trkpt lat="44.95141" lon="-0.31083">
        <ele>78.97</ele>
        <time>2018-05-22T10:25:13Z</time>
      </trkpt>
      <trkpt lat="44.95145" lon="-0.31084">
        <ele>78.97</ele>
        <time>2018-05-22T10:25:16Z</time>
      </trkpt>
      <trkpt lat="44.95159" lon="-0.31084">
        <ele>78.97</ele>
        <time>2018-05-22T10:25:29Z</time>
      </trkpt>
      <trkpt lat="44.95176" lon="-0.31085">
        <ele>78.97</ele>
        <time>2018-05-22T10:25:45Z</time>
      </trkpt>
      <trkpt lat="44.95194" lon="-0.31089">
        <ele>78.97</ele>
        <time>2018-05-22T10:26:01Z</time>
      </trkpt>
      <trkpt lat="44.95219" lon="-0.3109">
        <ele>78</ele>
        <time>2018-05-22T10:26:21Z</time>
      </trkpt>
      <trkpt lat="44.9524" lon="-0.31086">
        <ele>78</ele>
        <time>2018-05-22T10:26:39Z</time>
      </trkpt>
      <trkpt lat="44.9526" lon="-0.31073">
        <ele>78</ele>
        <time>2018-05-22T10:26:57Z</time>
      </trkpt>
      <trkpt lat="44.9527" lon="-0.31052">
        <ele>78.48</ele>
        <time>2018-05-22T10:27:13Z</time>
      </trkpt>
      <trkpt lat="44.95275" lon="-0.31041">
        <ele>79.45</ele>
        <time>2018-05-22T10:27:21Z</time>
      </trkpt>
      <trkpt lat="44.95288" lon="-0.3102">
        <ele>79.93</ele>
        <time>2018-05-22T10:27:36Z</time>
      </trkpt>
      <trkpt lat="44.95305" lon="-0.30997">
        <ele>80.89</ele>
        <time>2018-05-22T10:27:54Z</time>
      </trkpt>
      <trkpt lat="44.9532" lon="-0.30975">
        <ele>81.37</ele>
        <time>2018-05-22T10:28:11Z</time>
      </trkpt>
      <trkpt lat="44.95334" lon="-0.30955">
        <ele>81.85</ele>
        <time>2018-05-22T10:28:27Z</time>
      </trkpt>
      <trkpt lat="44.95348" lon="-0.30935">
        <ele>81.85</ele>
        <time>2018-05-22T10:28:44Z</time>
      </trkpt>
      <trkpt lat="44.95359" lon="-0.3091">
        <ele>82.33</ele>
        <time>2018-05-22T10:29:01Z</time>
      </trkpt>
      <trkpt lat="44.95375" lon="-0.30895">
        <ele>82.33</ele>
        <time>2018-05-22T10:29:18Z</time>
      </trkpt>
      <trkpt lat="44.95394" lon="-0.30898">
        <ele>82.33</ele>
        <time>2018-05-22T10:29:36Z</time>
      </trkpt>
      <trkpt lat="44.9541" lon="-0.30904">
        <ele>82.33</ele>
        <time>2018-05-22T10:29:53Z</time>
      </trkpt>
      <trkpt lat="44.95425" lon="-0.30911">
        <ele>82.33</ele>
        <time>2018-05-22T10:30:08Z</time>
      </trkpt>
      <trkpt lat="44.95439" lon="-0.3092">
        <ele>82.33</ele>
        <time>2018-05-22T10:30:23Z</time>
      </trkpt>
      <trkpt lat="44.95457" lon="-0.30926">
        <ele>81.37</ele>
        <time>2018-05-22T10:30:37Z</time>
      </trkpt>
      <trkpt lat="44.95473" lon="-0.3093">
        <ele>80.89</ele>
        <time>2018-05-22T10:30:52Z</time>
      </trkpt>
      <trkpt lat="44.95493" lon="-0.30938">
        <ele>80.89</ele>
        <time>2018-05-22T10:31:09Z</time>
      </trkpt>
      <trkpt lat="44.95507" lon="-0.30946">
        <ele>80.41</ele>
        <time>2018-05-22T10:31:24Z</time>
      </trkpt>
      <trkpt lat="44.95521" lon="-0.30955">
        <ele>79.93</ele>
        <time>2018-05-22T10:31:38Z</time>
      </trkpt>
      <trkpt lat="44.95539" lon="-0.30968">
        <ele>79.93</ele>
        <time>2018-05-22T10:31:54Z</time>
      </trkpt>
      <trkpt lat="44.95555" lon="-0.30982">
        <ele>79.45</ele>
        <time>2018-05-22T10:32:09Z</time>
      </trkpt>
      <trkpt lat="44.95569" lon="-0.30993">
        <ele>79.45</ele>
        <time>2018-05-22T10:32:23Z</time>
      </trkpt>
      <trkpt lat="44.95586" lon="-0.31009">
        <ele>78.97</ele>
        <time>2018-05-22T10:32:40Z</time>
      </trkpt>
      <trkpt lat="44.956" lon="-0.3103">
        <ele>78.48</ele>
        <time>2018-05-22T10:32:57Z</time>
      </trkpt>
      <trkpt lat="44.95611" lon="-0.31051">
        <ele>77.52</ele>
        <time>2018-05-22T10:33:14Z</time>
      </trkpt>
      <trkpt lat="44.9562" lon="-0.31068">
        <ele>76.56</ele>
        <time>2018-05-22T10:33:29Z</time>
      </trkpt>
      <trkpt lat="44.95634" lon="-0.31086">
        <ele>75.6</ele>
        <time>2018-05-22T10:33:45Z</time>
      </trkpt>
      <trkpt lat="44.95651" lon="-0.31099">
        <ele>75.12</ele>
        <time>2018-05-22T10:34:01Z</time>
      </trkpt>
      <trkpt lat="44.95672" lon="-0.31112">
        <ele>73.68</ele>
        <time>2018-05-22T10:34:19Z</time>
      </trkpt>
      <trkpt lat="44.9569" lon="-0.31119">
        <ele>71.76</ele>
        <time>2018-05-22T10:34:35Z</time>
      </trkpt>
      <trkpt lat="44.957" lon="-0.31123">
        <ele>71.27</ele>
        <time>2018-05-22T10:34:49Z</time>
      </trkpt>
      <trkpt lat="44.95704" lon="-0.31122">
        <ele>71.27</ele>
        <time>2018-05-22T10:35:08Z</time>
      </trkpt>
      <trkpt lat="44.95706" lon="-0.31126">
        <ele>71.27</ele>
        <time>2018-05-22T10:35:21Z</time>
      </trkpt>
      <trkpt lat="44.95707" lon="-0.31128">
        <ele>71.27</ele>
        <time>2018-05-22T10:35:55Z</time>
      </trkpt>
      <trkpt lat="44.95707" lon="-0.31126">
        <ele>71.27</ele>
        <time>2018-05-22T10:36:39Z</time>
      </trkpt>
      <trkpt lat="44.95708" lon="-0.31126">
        <ele>70.79</ele>
        <time>2018-05-22T10:37:23Z</time>
      </trkpt>
      <trkpt lat="44.95706" lon="-0.3113">
        <ele>70.79</ele>
        <time>2018-05-22T10:38:08Z</time>
      </trkpt>
      <trkpt lat="44.95706" lon="-0.31129">
        <ele>70.31</ele>
        <time>2018-05-22T10:38:44Z</time>
      </trkpt>
      <trkpt lat="44.95704" lon="-0.31127">
        <ele>69.83</ele>
        <time>2018-05-22T10:39:22Z</time>
      </trkpt>
      <trkpt lat="44.95706" lon="-0.31128">
        <ele>69.83</ele>
        <time>2018-05-22T10:40:09Z</time>
      </trkpt>
      <trkpt lat="44.95707" lon="-0.31128">
        <ele>69.35</ele>
        <time>2018-05-22T10:41:00Z</time>
      </trkpt>
      <trkpt lat="44.95705" lon="-0.31129">
        <ele>69.35</ele>
        <time>2018-05-22T10:41:44Z</time>
      </trkpt>
      <trkpt lat="44.95705" lon="-0.31128">
        <ele>69.35</ele>
        <time>2018-05-22T10:42:04Z</time>
      </trkpt>
      <trkpt lat="44.95705" lon="-0.31126">
        <ele>68.87</ele>
        <time>2018-05-22T10:42:47Z</time>
      </trkpt>
      <trkpt lat="44.95704" lon="-0.31128">
        <ele>68.87</ele>
        <time>2018-05-22T10:43:23Z</time>
      </trkpt>
      <trkpt lat="44.95704" lon="-0.31129">
        <ele>68.87</ele>
        <time>2018-05-22T10:44:03Z</time>
      </trkpt>
      <trkpt lat="44.95705" lon="-0.3113">
        <ele>68.87</ele>
        <time>2018-05-22T10:44:43Z</time>
      </trkpt>
      <trkpt lat="44.95705" lon="-0.31128">
        <ele>68.39</ele>
        <time>2018-05-22T10:45:19Z</time>
      </trkpt>
      <trkpt lat="44.95703" lon="-0.31128">
        <ele>68.39</ele>
        <time>2018-05-22T10:45:54Z</time>
      </trkpt>
      <trkpt lat="44.95706" lon="-0.31128">
        <ele>68.39</ele>
        <time>2018-05-22T10:46:34Z</time>
      </trkpt>
      <trkpt lat="44.95706" lon="-0.31128">
        <ele>68.39</ele>
        <time>2018-05-22T10:47:19Z</time>
      </trkpt>
      <trkpt lat="44.95705" lon="-0.31128">
        <ele>68.39</ele>
        <time>2018-05-22T10:47:56Z</time>
      </trkpt>
      <trkpt lat="44.95705" lon="-0.31126">
        <ele>67.91</ele>
        <time>2018-05-22T10:48:37Z</time>
      </trkpt>
      <trkpt lat="44.95706" lon="-0.31127">
        <ele>67.91</ele>
        <time>2018-05-22T10:49:21Z</time>
      </trkpt>
      <trkpt lat="44.95705" lon="-0.31127">
        <ele>67.91</ele>
        <time>2018-05-22T10:50:03Z</time>
      </trkpt>
      <trkpt lat="44.95707" lon="-0.31125">
        <ele>67.91</ele>
        <time>2018-05-22T10:50:45Z</time>
      </trkpt>
      <trkpt lat="44.95708" lon="-0.31126">
        <ele>67.43</ele>
        <time>2018-05-22T10:51:33Z</time>
      </trkpt>
      <trkpt lat="44.95708" lon="-0.31128">
        <ele>67.43</ele>
        <time>2018-05-22T10:52:12Z</time>
      </trkpt>
      <trkpt lat="44.95707" lon="-0.31128">
        <ele>67.43</ele>
        <time>2018-05-22T10:52:45Z</time>
      </trkpt>
      <trkpt lat="44.95709" lon="-0.31128">
        <ele>67.43</ele>
        <time>2018-05-22T10:53:27Z</time>
      </trkpt>
      <trkpt lat="44.9571" lon="-0.31127">
        <ele>67.43</ele>
        <time>2018-05-22T10:54:00Z</time>
      </trkpt>
      <trkpt lat="44.9571" lon="-0.31127">
        <ele>67.43</ele>
        <time>2018-05-22T10:54:46Z</time>
      </trkpt>
      <trkpt lat="44.95709" lon="-0.31128">
        <ele>67.43</ele>
        <time>2018-05-22T10:55:21Z</time>
      </trkpt>
      <trkpt lat="44.95708" lon="-0.31125">
        <ele>67.43</ele>
        <time>2018-05-22T10:55:52Z</time>
      </trkpt>
      <trkpt lat="44.95707" lon="-0.31125">
        <ele>66.95</ele>
        <time>2018-05-22T10:56:36Z</time>
      </trkpt>
      <trkpt lat="44.95707" lon="-0.31127">
        <ele>66.95</ele>
        <time>2018-05-22T10:57:10Z</time>
      </trkpt>
      <trkpt lat="44.9571" lon="-0.31129">
        <ele>66.95</ele>
        <time>2018-05-22T10:57:38Z</time>
      </trkpt>
      <trkpt lat="44.95706" lon="-0.31128">
        <ele>66.95</ele>
        <time>2018-05-22T10:58:12Z</time>
      </trkpt>
      <trkpt lat="44.95708" lon="-0.31129">
        <ele>66.95</ele>
        <time>2018-05-22T10:58:40Z</time>
      </trkpt>
      <trkpt lat="44.95707" lon="-0.31128">
        <ele>66.95</ele>
        <time>2018-05-22T10:59:21Z</time>
      </trkpt>
      <trkpt lat="44.95708" lon="-0.31128">
        <ele>67.43</ele>
        <time>2018-05-22T11:00:02Z</time>
      </trkpt>
      <trkpt lat="44.9571" lon="-0.31128">
        <ele>67.43</ele>
        <time>2018-05-22T11:00:40Z</time>
      </trkpt>
      <trkpt lat="44.95707" lon="-0.31128">
        <ele>67.43</ele>
        <time>2018-05-22T11:01:13Z</time>
      </trkpt>
      <trkpt lat="44.95708" lon="-0.31128">
        <ele>67.43</ele>
        <time>2018-05-22T11:01:55Z</time>
      </trkpt>
      <trkpt lat="44.95707" lon="-0.31127">
        <ele>66.95</ele>
        <time>2018-05-22T11:02:35Z</time>
      </trkpt>
      <trkpt lat="44.95707" lon="-0.31129">
        <ele>66.95</ele>
        <time>2018-05-22T11:03:08Z</time>
      </trkpt>
      <trkpt lat="44.95708" lon="-0.31128">
        <ele>66.95</ele>
        <time>2018-05-22T11:03:51Z</time>
      </trkpt>
      <trkpt lat="44.95708" lon="-0.3113">
        <ele>66.95</ele>
        <time>2018-05-22T11:04:35Z</time>
      </trkpt>
      <trkpt lat="44.9571" lon="-0.31127">
        <ele>66.95</ele>
        <time>2018-05-22T11:05:13Z</time>
      </trkpt>
      <trkpt lat="44.95709" lon="-0.31127">
        <ele>66.95</ele>
        <time>2018-05-22T11:05:51Z</time>
      </trkpt>
      <trkpt lat="44.95709" lon="-0.31128">
        <ele>66.95</ele>
        <time>2018-05-22T11:06:27Z</time>
      </trkpt>
      <trkpt lat="44.9571" lon="-0.31129">
        <ele>66.95</ele>
        <time>2018-05-22T11:07:04Z</time>
      </trkpt>
      <trkpt lat="44.9571" lon="-0.31129">
        <ele>66.95</ele>
        <time>2018-05-22T11:07:47Z</time>
      </trkpt>
      <trkpt lat="44.9571" lon="-0.31129">
        <ele>66.95</ele>
        <time>2018-05-22T11:08:26Z</time>
      </trkpt>
      <trkpt lat="44.95709" lon="-0.31128">
        <ele>67.43</ele>
        <time>2018-05-22T11:09:03Z</time>
      </trkpt>
      <trkpt lat="44.95709" lon="-0.31128">
        <ele>67.43</ele>
        <time>2018-05-22T11:09:46Z</time>
      </trkpt>
      <trkpt lat="44.9571" lon="-0.31129">
        <ele>67.43</ele>
        <time>2018-05-22T11:10:19Z</time>
      </trkpt>
      <trkpt lat="44.95711" lon="-0.31129">
        <ele>67.43</ele>
        <time>2018-05-22T11:10:56Z</time>
      </trkpt>
      <trkpt lat="44.95708" lon="-0.31128">
        <ele>67.43</ele>
        <time>2018-05-22T11:11:28Z</time>
      </trkpt>
      <trkpt lat="44.95708" lon="-0.31129">
        <ele>67.43</ele>
        <time>2018-05-22T11:12:05Z</time>
      </trkpt>
      <trkpt lat="44.95707" lon="-0.31128">
        <ele>67.43</ele>
        <time>2018-05-22T11:12:47Z</time>
      </trkpt>
      <trkpt lat="44.95706" lon="-0.31128">
        <ele>67.43</ele>
        <time>2018-05-22T11:13:23Z</time>
      </trkpt>
      <trkpt lat="44.95705" lon="-0.31127">
        <ele>67.43</ele>
        <time>2018-05-22T11:13:58Z</time>
      </trkpt>
      <trkpt lat="44.95706" lon="-0.31126">
        <ele>67.91</ele>
        <time>2018-05-22T11:14:31Z</time>
      </trkpt>
      <trkpt lat="44.95708" lon="-0.31124">
        <ele>67.43</ele>
        <time>2018-05-22T11:15:10Z</time>
      </trkpt>
      <trkpt lat="44.95708" lon="-0.31124">
        <ele>67.43</ele>
        <time>2018-05-22T11:15:40Z</time>
      </trkpt>
      <trkpt lat="44.95708" lon="-0.31127">
        <ele>67.43</ele>
        <time>2018-05-22T11:16:23Z</time>
      </trkpt>
      <trkpt lat="44.95706" lon="-0.31127">
        <ele>67.43</ele>
        <time>2018-05-22T11:16:41Z</time>
      </trkpt>
      <trkpt lat="44.95706" lon="-0.31126">
        <ele>67.43</ele>
        <time>2018-05-22T11:17:03Z</time>
      </trkpt>
      <trkpt lat="44.95705" lon="-0.31128">
        <ele>66.95</ele>
        <time>2018-05-22T11:17:43Z</time>
      </trkpt>
      <trkpt lat="44.95705" lon="-0.31128">
        <ele>66.95</ele>
        <time>2018-05-22T11:18:15Z</time>
      </trkpt>
      <trkpt lat="44.95706" lon="-0.31127">
        <ele>66.95</ele>
        <time>2018-05-22T11:18:40Z</time>
      </trkpt>
      <trkpt lat="44.95705" lon="-0.31127">
        <ele>66.95</ele>
        <time>2018-05-22T11:19:13Z</time>
      </trkpt>
      <trkpt lat="44.95705" lon="-0.31127">
        <ele>66.95</ele>
        <time>2018-05-22T11:19:45Z</time>
      </trkpt>
      <trkpt lat="44.95706" lon="-0.31128">
        <ele>66.47</ele>
        <time>2018-05-22T11:20:16Z</time>
      </trkpt>
      <trkpt lat="44.95707" lon="-0.31129">
        <ele>66.47</ele>
        <time>2018-05-22T11:20:48Z</time>
      </trkpt>
      <trkpt lat="44.95707" lon="-0.31126">
        <ele>66.47</ele>
        <time>2018-05-22T11:21:11Z</time>
      </trkpt>
      <trkpt lat="44.95707" lon="-0.31125">
        <ele>66.47</ele>
        <time>2018-05-22T11:21:30Z</time>
      </trkpt>
      <trkpt lat="44.95708" lon="-0.31126">
        <ele>66.47</ele>
        <time>2018-05-22T11:21:45Z</time>
      </trkpt>
      <trkpt lat="44.95708" lon="-0.31124">
        <ele>66.47</ele>
        <time>2018-05-22T11:22:11Z</time>
      </trkpt>
      <trkpt lat="44.9571" lon="-0.31123">
        <ele>66.47</ele>
        <time>2018-05-22T11:22:34Z</time>
      </trkpt>
      <trkpt lat="44.95713" lon="-0.31122">
        <ele>66.47</ele>
        <time>2018-05-22T11:22:54Z</time>
      </trkpt>
      <trkpt lat="44.95719" lon="-0.31125">
        <ele>65.03</ele>
        <time>2018-05-22T11:23:07Z</time>
      </trkpt>
      <trkpt lat="44.95727" lon="-0.31127">
        <ele>64.55</ele>
        <time>2018-05-22T11:23:22Z</time>
      </trkpt>
      <trkpt lat="44.95731" lon="-0.31129">
        <ele>64.07</ele>
        <time>2018-05-22T11:23:38Z</time>
      </trkpt>
      <trkpt lat="44.95733" lon="-0.3113">
        <ele>64.07</ele>
        <time>2018-05-22T11:23:55Z</time>
      </trkpt>
      <trkpt lat="44.95736" lon="-0.31128">
        <ele>64.07</ele>
        <time>2018-05-22T11:24:14Z</time>
      </trkpt>
      <trkpt lat="44.95736" lon="-0.31129">
        <ele>64.07</ele>
        <time>2018-05-22T11:24:35Z</time>
      </trkpt>
      <trkpt lat="44.95739" lon="-0.3113">
        <ele>64.07</ele>
        <time>2018-05-22T11:24:58Z</time>
      </trkpt>
      <trkpt lat="44.95748" lon="-0.31133">
        <ele>63.58</ele>
        <time>2018-05-22T11:25:13Z</time>
      </trkpt>
      <trkpt lat="44.9576" lon="-0.31138">
        <ele>62.62</ele>
        <time>2018-05-22T11:25:30Z</time>
      </trkpt>
      <trkpt lat="44.95771" lon="-0.31143">
        <ele>62.14</ele>
        <time>2018-05-22T11:25:45Z</time>
      </trkpt>
      <trkpt lat="44.95782" lon="-0.31152">
        <ele>61.66</ele>
        <time>2018-05-22T11:26:01Z</time>
      </trkpt>
      <trkpt lat="44.95791" lon="-0.31159">
        <ele>60.7</ele>
        <time>2018-05-22T11:26:16Z</time>
      </trkpt>
      <trkpt lat="44.95803" lon="-0.31164">
        <ele>59.74</ele>
        <time>2018-05-22T11:26:33Z</time>
      </trkpt>
      <trkpt lat="44.95817" lon="-0.31164">
        <ele>59.74</ele>
        <time>2018-05-22T11:26:51Z</time>
      </trkpt>
      <trkpt lat="44.9583" lon="-0.31161">
        <ele>59.74</ele>
        <time>2018-05-22T11:27:07Z</time>
      </trkpt>
      <trkpt lat="44.95845" lon="-0.31157">
        <ele>59.74</ele>
        <time>2018-05-22T11:27:23Z</time>
      </trkpt>
      <trkpt lat="44.95862" lon="-0.31154">
        <ele>59.74</ele>
        <time>2018-05-22T11:27:41Z</time>
      </trkpt>
      <trkpt lat="44.95876" lon="-0.31154">
        <ele>61.18</ele>
        <time>2018-05-22T11:27:55Z</time>
      </trkpt>
      <trkpt lat="44.95876" lon="-0.31154">
        <ele>61.18</ele>
        <time>2018-05-22T11:27:56Z</time>
      </trkpt>
      <trkpt lat="44.95889" lon="-0.31153">
        <ele>61.66</ele>
        <time>2018-05-22T11:28:10Z</time>
      </trkpt>
      <trkpt lat="44.95905" lon="-0.31158">
        <ele>62.62</ele>
        <time>2018-05-22T11:28:27Z</time>
      </trkpt>
      <trkpt lat="44.9592" lon="-0.31164">
        <ele>64.55</ele>
        <time>2018-05-22T11:28:41Z</time>
      </trkpt>
      <trkpt lat="44.95939" lon="-0.31167">
        <ele>65.51</ele>
        <time>2018-05-22T11:28:56Z</time>
      </trkpt>
      <trkpt lat="44.95954" lon="-0.31171">
        <ele>66.47</ele>
        <time>2018-05-22T11:29:12Z</time>
      </trkpt>
      <trkpt lat="44.95971" lon="-0.31177">
        <ele>66.47</ele>
        <time>2018-05-22T11:29:30Z</time>
      </trkpt>
      <trkpt lat="44.95984" lon="-0.31177">
        <ele>66.47</ele>
        <time>2018-05-22T11:29:45Z</time>
      </trkpt>
      <trkpt lat="44.95985" lon="-0.31174">
        <ele>66.47</ele>
        <time>2018-05-22T11:29:47Z</time>
      </trkpt>
      <trkpt lat="44.95988" lon="-0.31165">
        <ele>65.03</ele>
        <time>2018-05-22T11:29:53Z</time>
      </trkpt>
      <trkpt lat="44.95987" lon="-0.31142">
        <ele>64.55</ele>
        <time>2018-05-22T11:30:08Z</time>
      </trkpt>
      <trkpt lat="44.95987" lon="-0.31138">
        <ele>64.55</ele>
        <time>2018-05-22T11:30:11Z</time>
      </trkpt>
      <trkpt lat="44.95986" lon="-0.31133">
        <ele>64.55</ele>
        <time>2018-05-22T11:30:15Z</time>
      </trkpt>
      <trkpt lat="44.95984" lon="-0.31109">
        <ele>63.1</ele>
        <time>2018-05-22T11:30:32Z</time>
      </trkpt>
      <trkpt lat="44.95984" lon="-0.31092">
        <ele>62.62</ele>
        <time>2018-05-22T11:30:45Z</time>
      </trkpt>
      <trkpt lat="44.95984" lon="-0.31072">
        <ele>61.66</ele>
        <time>2018-05-22T11:31:00Z</time>
      </trkpt>
      <trkpt lat="44.95986" lon="-0.31067">
        <ele>61.66</ele>
        <time>2018-05-22T11:31:05Z</time>
      </trkpt>
      <trkpt lat="44.96001" lon="-0.31056">
        <ele>61.18</ele>
        <time>2018-05-22T11:31:23Z</time>
      </trkpt>
      <trkpt lat="44.96017" lon="-0.31047">
        <ele>61.18</ele>
        <time>2018-05-22T11:31:38Z</time>
      </trkpt>
      <trkpt lat="44.96031" lon="-0.31042">
        <ele>61.18</ele>
        <time>2018-05-22T11:31:53Z</time>
      </trkpt>
      <trkpt lat="44.96042" lon="-0.31032">
        <ele>60.22</ele>
        <time>2018-05-22T11:32:09Z</time>
      </trkpt>
      <trkpt lat="44.96036" lon="-0.31015">
        <ele>58.3</ele>
        <time>2018-05-22T11:32:23Z</time>
      </trkpt>
      <trkpt lat="44.96032" lon="-0.30999">
        <ele>56.37</ele>
        <time>2018-05-22T11:32:35Z</time>
      </trkpt>
      <trkpt lat="44.96029" lon="-0.3098">
        <ele>54.93</ele>
        <time>2018-05-22T11:32:49Z</time>
      </trkpt>
      <trkpt lat="44.96027" lon="-0.30961">
        <ele>53.97</ele>
        <time>2018-05-22T11:33:03Z</time>
      </trkpt>
      <trkpt lat="44.96024" lon="-0.30941">
        <ele>53.49</ele>
        <time>2018-05-22T11:33:18Z</time>
      </trkpt>
      <trkpt lat="44.96021" lon="-0.3092">
        <ele>53.49</ele>
        <time>2018-05-22T11:33:34Z</time>
      </trkpt>
      <trkpt lat="44.96019" lon="-0.30896">
        <ele>53.49</ele>
        <time>2018-05-22T11:33:51Z</time>
      </trkpt>
      <trkpt lat="44.96016" lon="-0.30875">
        <ele>53.49</ele>
        <time>2018-05-22T11:34:04Z</time>
      </trkpt>
      <trkpt lat="44.96016" lon="-0.30866">
        <ele>54.93</ele>
        <time>2018-05-22T11:34:09Z</time>
      </trkpt>
      <trkpt lat="44.96002" lon="-0.30841">
        <ele>55.41</ele>
        <time>2018-05-22T11:34:25Z</time>
      </trkpt>
      <trkpt lat="44.95983" lon="-0.30829">
        <ele>56.86</ele>
        <time>2018-05-22T11:34:41Z</time>
      </trkpt>
      <trkpt lat="44.95966" lon="-0.30829">
        <ele>58.3</ele>
        <time>2018-05-22T11:34:56Z</time>
      </trkpt>
      <trkpt lat="44.95949" lon="-0.30828">
        <ele>59.74</ele>
        <time>2018-05-22T11:35:11Z</time>
      </trkpt>
      <trkpt lat="44.9593" lon="-0.30826">
        <ele>61.18</ele>
        <time>2018-05-22T11:35:26Z</time>
      </trkpt>
      <trkpt lat="44.95914" lon="-0.30824">
        <ele>62.62</ele>
        <time>2018-05-22T11:35:40Z</time>
      </trkpt>
      <trkpt lat="44.95897" lon="-0.30819">
        <ele>64.07</ele>
        <time>2018-05-22T11:35:55Z</time>
      </trkpt>
      <trkpt lat="44.95885" lon="-0.30807">
        <ele>65.51</ele>
        <time>2018-05-22T11:36:09Z</time>
      </trkpt>
      <trkpt lat="44.95879" lon="-0.30799">
        <ele>65.51</ele>
        <time>2018-05-22T11:36:23Z</time>
      </trkpt>
      <trkpt lat="44.95865" lon="-0.30783">
        <ele>65.99</ele>
        <time>2018-05-22T11:36:40Z</time>
      </trkpt>
      <trkpt lat="44.95846" lon="-0.30781">
        <ele>66.95</ele>
        <time>2018-05-22T11:36:56Z</time>
      </trkpt>
      <trkpt lat="44.95827" lon="-0.30782">
        <ele>66.95</ele>
        <time>2018-05-22T11:37:12Z</time>
      </trkpt>
      <trkpt lat="44.95813" lon="-0.30776">
        <ele>68.39</ele>
        <time>2018-05-22T11:37:26Z</time>
      </trkpt>
      <trkpt lat="44.95803" lon="-0.30753">
        <ele>68.87</ele>
        <time>2018-05-22T11:37:43Z</time>
      </trkpt>
      <trkpt lat="44.95798" lon="-0.30729">
        <ele>68.39</ele>
        <time>2018-05-22T11:37:59Z</time>
      </trkpt>
      <trkpt lat="44.95796" lon="-0.30707">
        <ele>68.39</ele>
        <time>2018-05-22T11:38:13Z</time>
      </trkpt>
      <trkpt lat="44.95794" lon="-0.30686">
        <ele>68.39</ele>
        <time>2018-05-22T11:38:27Z</time>
      </trkpt>
      <trkpt lat="44.95793" lon="-0.30677">
        <ele>67.43</ele>
        <time>2018-05-22T11:38:33Z</time>
      </trkpt>
      <trkpt lat="44.95792" lon="-0.30673">
        <ele>67.43</ele>
        <time>2018-05-22T11:38:48Z</time>
      </trkpt>
      <trkpt lat="44.95792" lon="-0.30672">
        <ele>67.43</ele>
        <time>2018-05-22T11:38:50Z</time>
      </trkpt>
      <trkpt lat="44.95793" lon="-0.3066">
        <ele>67.43</ele>
        <time>2018-05-22T11:39:01Z</time>
      </trkpt>
      <trkpt lat="44.95811" lon="-0.30654">
        <ele>66.95</ele>
        <time>2018-05-22T11:39:18Z</time>
      </trkpt>
      <trkpt lat="44.95821" lon="-0.30652">
        <ele>66.47</ele>
        <time>2018-05-22T11:39:27Z</time>
      </trkpt>
      <trkpt lat="44.95823" lon="-0.30651">
        <ele>66.47</ele>
        <time>2018-05-22T11:39:29Z</time>
      </trkpt>
      <trkpt lat="44.95841" lon="-0.30649">
        <ele>65.99</ele>
        <time>2018-05-22T11:39:45Z</time>
      </trkpt>
      <trkpt lat="44.95857" lon="-0.30645">
        <ele>65.99</ele>
        <time>2018-05-22T11:40:00Z</time>
      </trkpt>
      <trkpt lat="44.9587" lon="-0.30642">
        <ele>65.51</ele>
        <time>2018-05-22T11:40:11Z</time>
      </trkpt>
      <trkpt lat="44.95888" lon="-0.30637">
        <ele>65.51</ele>
        <time>2018-05-22T11:40:27Z</time>
      </trkpt>
      <trkpt lat="44.95904" lon="-0.30634">
        <ele>65.03</ele>
        <time>2018-05-22T11:40:41Z</time>
      </trkpt>
      <trkpt lat="44.95919" lon="-0.30619">
        <ele>64.55</ele>
        <time>2018-05-22T11:40:58Z</time>
      </trkpt>
      <trkpt lat="44.95929" lon="-0.30608">
        <ele>64.55</ele>
        <time>2018-05-22T11:41:10Z</time>
      </trkpt>
      <trkpt lat="44.95943" lon="-0.30591">
        <ele>64.07</ele>
        <time>2018-05-22T11:41:25Z</time>
      </trkpt>
      <trkpt lat="44.95958" lon="-0.30573">
        <ele>63.58</ele>
        <time>2018-05-22T11:41:42Z</time>
      </trkpt>
      <trkpt lat="44.95965" lon="-0.30564">
        <ele>63.58</ele>
        <time>2018-05-22T11:41:50Z</time>
      </trkpt>
      <trkpt lat="44.95982" lon="-0.30546">
        <ele>62.14</ele>
        <time>2018-05-22T11:42:08Z</time>
      </trkpt>
      <trkpt lat="44.95993" lon="-0.30534">
        <ele>60.7</ele>
        <time>2018-05-22T11:42:20Z</time>
      </trkpt>
      <trkpt lat="44.96004" lon="-0.30514">
        <ele>60.22</ele>
        <time>2018-05-22T11:42:37Z</time>
      </trkpt>
      <trkpt lat="44.96011" lon="-0.30489">
        <ele>59.74</ele>
        <time>2018-05-22T11:42:54Z</time>
      </trkpt>
      <trkpt lat="44.96015" lon="-0.3046">
        <ele>58.78</ele>
        <time>2018-05-22T11:43:12Z</time>
      </trkpt>
      <trkpt lat="44.96019" lon="-0.30436">
        <ele>58.3</ele>
        <time>2018-05-22T11:43:27Z</time>
      </trkpt>
      <trkpt lat="44.9602" lon="-0.30415">
        <ele>58.3</ele>
        <time>2018-05-22T11:43:41Z</time>
      </trkpt>
      <trkpt lat="44.9602" lon="-0.30414">
        <ele>58.3</ele>
        <time>2018-05-22T11:43:42Z</time>
      </trkpt>
      <trkpt lat="44.96024" lon="-0.30395">
        <ele>58.3</ele>
        <time>2018-05-22T11:43:54Z</time>
      </trkpt>
      <trkpt lat="44.96032" lon="-0.30385">
        <ele>58.3</ele>
        <time>2018-05-22T11:44:04Z</time>
      </trkpt>
      <trkpt lat="44.96049" lon="-0.30388">
        <ele>57.34</ele>
        <time>2018-05-22T11:44:20Z</time>
      </trkpt>
      <trkpt lat="44.96067" lon="-0.30395">
        <ele>57.34</ele>
        <time>2018-05-22T11:44:37Z</time>
      </trkpt>
      <trkpt lat="44.96082" lon="-0.30401">
        <ele>56.37</ele>
        <time>2018-05-22T11:44:53Z</time>
      </trkpt>
      <trkpt lat="44.96096" lon="-0.30409">
        <ele>56.86</ele>
        <time>2018-05-22T11:45:08Z</time>
      </trkpt>
      <trkpt lat="44.96105" lon="-0.30416">
        <ele>56.37</ele>
        <time>2018-05-22T11:45:20Z</time>
      </trkpt>
      <trkpt lat="44.96116" lon="-0.30423">
        <ele>55.89</ele>
        <time>2018-05-22T11:45:34Z</time>
      </trkpt>
      <trkpt lat="44.96126" lon="-0.30428">
        <ele>55.89</ele>
        <time>2018-05-22T11:45:49Z</time>
      </trkpt>
      <trkpt lat="44.96137" lon="-0.30436">
        <ele>55.89</ele>
        <time>2018-05-22T11:46:04Z</time>
      </trkpt>
      <trkpt lat="44.96142" lon="-0.30438">
        <ele>55.41</ele>
        <time>2018-05-22T11:46:16Z</time>
      </trkpt>
      <trkpt lat="44.96143" lon="-0.30438">
        <ele>55.41</ele>
        <time>2018-05-22T11:46:31Z</time>
      </trkpt>
      <trkpt lat="44.96142" lon="-0.3044">
        <ele>55.41</ele>
        <time>2018-05-22T11:46:45Z</time>
      </trkpt>
      <trkpt lat="44.96144" lon="-0.30442">
        <ele>55.41</ele>
        <time>2018-05-22T11:47:07Z</time>
      </trkpt>
      <trkpt lat="44.96148" lon="-0.30445">
        <ele>55.41</ele>
        <time>2018-05-22T11:47:19Z</time>
      </trkpt>
      <trkpt lat="44.96168" lon="-0.30453">
        <ele>54.45</ele>
        <time>2018-05-22T11:47:37Z</time>
      </trkpt>
      <trkpt lat="44.96187" lon="-0.30462">
        <ele>53.97</ele>
        <time>2018-05-22T11:47:53Z</time>
      </trkpt>
      <trkpt lat="44.96206" lon="-0.30468">
        <ele>53.49</ele>
        <time>2018-05-22T11:48:08Z</time>
      </trkpt>
      <trkpt lat="44.96226" lon="-0.30474">
        <ele>52.05</ele>
        <time>2018-05-22T11:48:25Z</time>
      </trkpt>
      <trkpt lat="44.96244" lon="-0.30478">
        <ele>51.57</ele>
        <time>2018-05-22T11:48:41Z</time>
      </trkpt>
      <trkpt lat="44.96262" lon="-0.30482">
        <ele>51.57</ele>
        <time>2018-05-22T11:48:57Z</time>
      </trkpt>
      <trkpt lat="44.96285" lon="-0.30488">
        <ele>51.09</ele>
        <time>2018-05-22T11:49:14Z</time>
      </trkpt>
      <trkpt lat="44.96304" lon="-0.3049">
        <ele>50.13</ele>
        <time>2018-05-22T11:49:29Z</time>
      </trkpt>
      <trkpt lat="44.9632" lon="-0.30492">
        <ele>50.13</ele>
        <time>2018-05-22T11:49:42Z</time>
      </trkpt>
      <trkpt lat="44.96336" lon="-0.30496">
        <ele>50.13</ele>
        <time>2018-05-22T11:49:57Z</time>
      </trkpt>
      <trkpt lat="44.96359" lon="-0.30502">
        <ele>51.09</ele>
        <time>2018-05-22T11:50:14Z</time>
      </trkpt>
      <trkpt lat="44.96379" lon="-0.30504">
        <ele>49.65</ele>
        <time>2018-05-22T11:50:30Z</time>
      </trkpt>
      <trkpt lat="44.96398" lon="-0.30507">
        <ele>48.68</ele>
        <time>2018-05-22T11:50:45Z</time>
      </trkpt>
      <trkpt lat="44.96419" lon="-0.30506">
        <ele>48.2</ele>
        <time>2018-05-22T11:51:02Z</time>
      </trkpt>
      <trkpt lat="44.96439" lon="-0.30504">
        <ele>45.8</ele>
        <time>2018-05-22T11:51:18Z</time>
      </trkpt>
      <trkpt lat="44.96456" lon="-0.30502">
        <ele>42.92</ele>
        <time>2018-05-22T11:51:34Z</time>
      </trkpt>
      <trkpt lat="44.96465" lon="-0.305">
        <ele>41.95</ele>
        <time>2018-05-22T11:51:42Z</time>
      </trkpt>
      <trkpt lat="44.96472" lon="-0.305">
        <ele>41.47</ele>
        <time>2018-05-22T11:51:48Z</time>
      </trkpt>
      <trkpt lat="44.96489" lon="-0.305">
        <ele>40.03</ele>
        <time>2018-05-22T11:52:03Z</time>
      </trkpt>
      <trkpt lat="44.96502" lon="-0.30501">
        <ele>39.55</ele>
        <time>2018-05-22T11:52:15Z</time>
      </trkpt>
      <trkpt lat="44.96518" lon="-0.30514">
        <ele>39.55</ele>
        <time>2018-05-22T11:52:32Z</time>
      </trkpt>
      <trkpt lat="44.96535" lon="-0.30536">
        <ele>40.51</ele>
        <time>2018-05-22T11:52:52Z</time>
      </trkpt>
      <trkpt lat="44.96549" lon="-0.30557">
        <ele>42.44</ele>
        <time>2018-05-22T11:53:10Z</time>
      </trkpt>
      <trkpt lat="44.96566" lon="-0.30577">
        <ele>45.32</ele>
        <time>2018-05-22T11:53:27Z</time>
      </trkpt>
      <trkpt lat="44.9658" lon="-0.30594">
        <ele>47.72</ele>
        <time>2018-05-22T11:53:43Z</time>
      </trkpt>
      <trkpt lat="44.96594" lon="-0.30607">
        <ele>49.65</ele>
        <time>2018-05-22T11:53:58Z</time>
      </trkpt>
      <trkpt lat="44.96612" lon="-0.30618">
        <ele>52.05</ele>
        <time>2018-05-22T11:54:15Z</time>
      </trkpt>
      <trkpt lat="44.96622" lon="-0.30621">
        <ele>52.05</ele>
        <time>2018-05-22T11:54:28Z</time>
      </trkpt>
      <trkpt lat="44.96643" lon="-0.30623">
        <ele>53.01</ele>
        <time>2018-05-22T11:54:46Z</time>
      </trkpt>
      <trkpt lat="44.96661" lon="-0.30622">
        <ele>53.97</ele>
        <time>2018-05-22T11:55:02Z</time>
      </trkpt>
      <trkpt lat="44.9668" lon="-0.30621">
        <ele>54.93</ele>
        <time>2018-05-22T11:55:19Z</time>
      </trkpt>
      <trkpt lat="44.9669" lon="-0.30623">
        <ele>55.41</ele>
        <time>2018-05-22T11:55:35Z</time>
      </trkpt>
      <trkpt lat="44.96695" lon="-0.30625">
        <ele>55.89</ele>
        <time>2018-05-22T11:55:42Z</time>
      </trkpt>
      <trkpt lat="44.96703" lon="-0.30642">
        <ele>56.86</ele>
        <time>2018-05-22T11:55:57Z</time>
      </trkpt>
      <trkpt lat="44.96712" lon="-0.30657">
        <ele>56.86</ele>
        <time>2018-05-22T11:56:11Z</time>
      </trkpt>
      <trkpt lat="44.96717" lon="-0.30654">
        <ele>56.86</ele>
        <time>2018-05-22T11:56:24Z</time>
      </trkpt>
      <trkpt lat="44.96719" lon="-0.30644">
        <ele>56.86</ele>
        <time>2018-05-22T11:56:41Z</time>
      </trkpt>
      <trkpt lat="44.96723" lon="-0.30641">
        <ele>57.34</ele>
        <time>2018-05-22T11:56:56Z</time>
      </trkpt>
      <trkpt lat="44.96721" lon="-0.30639">
        <ele>57.34</ele>
        <time>2018-05-22T11:57:20Z</time>
      </trkpt>
      <trkpt lat="44.96718" lon="-0.30646">
        <ele>57.34</ele>
        <time>2018-05-22T11:57:30Z</time>
      </trkpt>
      <trkpt lat="44.96723" lon="-0.30649">
        <ele>57.34</ele>
        <time>2018-05-22T11:57:45Z</time>
      </trkpt>
      <trkpt lat="44.96728" lon="-0.30662">
        <ele>57.34</ele>
        <time>2018-05-22T11:58:10Z</time>
      </trkpt>
      <trkpt lat="44.96731" lon="-0.30668">
        <ele>57.34</ele>
        <time>2018-05-22T11:58:38Z</time>
      </trkpt>
      <trkpt lat="44.96732" lon="-0.30666">
        <ele>57.34</ele>
        <time>2018-05-22T11:59:02Z</time>
      </trkpt>
      <trkpt lat="44.96733" lon="-0.30667">
        <ele>57.34</ele>
        <time>2018-05-22T11:59:15Z</time>
      </trkpt>
      <trkpt lat="44.96733" lon="-0.30672">
        <ele>57.34</ele>
        <time>2018-05-22T11:59:41Z</time>
      </trkpt>
      <trkpt lat="44.96734" lon="-0.3067">
        <ele>57.34</ele>
        <time>2018-05-22T12:00:02Z</time>
      </trkpt>
      <trkpt lat="44.96734" lon="-0.30666">
        <ele>57.34</ele>
        <time>2018-05-22T12:00:27Z</time>
      </trkpt>
      <trkpt lat="44.96734" lon="-0.30668">
        <ele>57.34</ele>
        <time>2018-05-22T12:00:45Z</time>
      </trkpt>
      <trkpt lat="44.96734" lon="-0.30667">
        <ele>57.34</ele>
        <time>2018-05-22T12:00:59Z</time>
      </trkpt>
      <trkpt lat="44.96734" lon="-0.30675">
        <ele>57.34</ele>
        <time>2018-05-22T12:01:12Z</time>
      </trkpt>
      <trkpt lat="44.96737" lon="-0.3069">
        <ele>56.37</ele>
        <time>2018-05-22T12:01:25Z</time>
      </trkpt>
      <trkpt lat="44.96739" lon="-0.30713">
        <ele>56.37</ele>
        <time>2018-05-22T12:01:39Z</time>
      </trkpt>
      <trkpt lat="44.96738" lon="-0.30737">
        <ele>56.37</ele>
        <time>2018-05-22T12:01:56Z</time>
      </trkpt>
      <trkpt lat="44.96742" lon="-0.30746">
        <ele>56.37</ele>
        <time>2018-05-22T12:02:03Z</time>
      </trkpt>
      <trkpt lat="44.9676" lon="-0.30763">
        <ele>56.37</ele>
        <time>2018-05-22T12:02:21Z</time>
      </trkpt>
      <trkpt lat="44.96761" lon="-0.30764">
        <ele>56.37</ele>
        <time>2018-05-22T12:02:22Z</time>
      </trkpt>
      <trkpt lat="44.96764" lon="-0.30767">
        <ele>56.37</ele>
        <time>2018-05-22T12:02:25Z</time>
      </trkpt>
      <trkpt lat="44.96769" lon="-0.30781">
        <ele>56.37</ele>
        <time>2018-05-22T12:02:40Z</time>
      </trkpt>
      <trkpt lat="44.96774" lon="-0.30787">
        <ele>56.37</ele>
        <time>2018-05-22T12:02:46Z</time>
      </trkpt>
      <trkpt lat="44.9679" lon="-0.30795">
        <ele>55.89</ele>
        <time>2018-05-22T12:03:00Z</time>
      </trkpt>
      <trkpt lat="44.96809" lon="-0.30805">
        <ele>56.37</ele>
        <time>2018-05-22T12:03:17Z</time>
      </trkpt>
      <trkpt lat="44.96831" lon="-0.30809">
        <ele>55.89</ele>
        <time>2018-05-22T12:03:35Z</time>
      </trkpt>
      <trkpt lat="44.96848" lon="-0.30807">
        <ele>55.89</ele>
        <time>2018-05-22T12:03:49Z</time>
      </trkpt>
      <trkpt lat="44.96863" lon="-0.30812">
        <ele>55.41</ele>
        <time>2018-05-22T12:04:04Z</time>
      </trkpt>
      <trkpt lat="44.96881" lon="-0.30818">
        <ele>55.41</ele>
        <time>2018-05-22T12:04:20Z</time>
      </trkpt>
      <trkpt lat="44.96899" lon="-0.30823">
        <ele>54.93</ele>
        <time>2018-05-22T12:04:37Z</time>
      </trkpt>
      <trkpt lat="44.96922" lon="-0.30828">
        <ele>54.93</ele>
        <time>2018-05-22T12:04:58Z</time>
      </trkpt>
      <trkpt lat="44.96939" lon="-0.30829">
        <ele>53.97</ele>
        <time>2018-05-22T12:05:14Z</time>
      </trkpt>
      <trkpt lat="44.96958" lon="-0.3083">
        <ele>53.01</ele>
        <time>2018-05-22T12:05:31Z</time>
      </trkpt>
      <trkpt lat="44.96978" lon="-0.3083">
        <ele>53.01</ele>
        <time>2018-05-22T12:05:48Z</time>
      </trkpt>
      <trkpt lat="44.96994" lon="-0.3082">
        <ele>51.57</ele>
        <time>2018-05-22T12:06:05Z</time>
      </trkpt>
      <trkpt lat="44.9701" lon="-0.3081">
        <ele>51.09</ele>
        <time>2018-05-22T12:06:21Z</time>
      </trkpt>
      <trkpt lat="44.97025" lon="-0.30805">
        <ele>50.13</ele>
        <time>2018-05-22T12:06:34Z</time>
      </trkpt>
      <trkpt lat="44.9704" lon="-0.30803">
        <ele>49.16</ele>
        <time>2018-05-22T12:06:47Z</time>
      </trkpt>
      <trkpt lat="44.97055" lon="-0.30799">
        <ele>48.68</ele>
        <time>2018-05-22T12:07:00Z</time>
      </trkpt>
      <trkpt lat="44.97072" lon="-0.30794">
        <ele>48.2</ele>
        <time>2018-05-22T12:07:16Z</time>
      </trkpt>
      <trkpt lat="44.97087" lon="-0.3079">
        <ele>47.24</ele>
        <time>2018-05-22T12:07:31Z</time>
      </trkpt>
      <trkpt lat="44.97096" lon="-0.30787">
        <ele>47.24</ele>
        <time>2018-05-22T12:07:41Z</time>
      </trkpt>
      <trkpt lat="44.9711" lon="-0.30784">
        <ele>46.28</ele>
        <time>2018-05-22T12:07:54Z</time>
      </trkpt>
      <trkpt lat="44.97114" lon="-0.30784">
        <ele>46.28</ele>
        <time>2018-05-22T12:07:57Z</time>
      </trkpt>
      <trkpt lat="44.97122" lon="-0.30786">
        <ele>45.8</ele>
        <time>2018-05-22T12:08:04Z</time>
      </trkpt>
      <trkpt lat="44.97124" lon="-0.30786">
        <ele>45.8</ele>
        <time>2018-05-22T12:08:06Z</time>
      </trkpt>
      <trkpt lat="44.97139" lon="-0.30793">
        <ele>44.84</ele>
        <time>2018-05-22T12:08:21Z</time>
      </trkpt>
      <trkpt lat="44.97141" lon="-0.30795">
        <ele>44.84</ele>
        <time>2018-05-22T12:08:24Z</time>
      </trkpt>
      <trkpt lat="44.97149" lon="-0.30802">
        <ele>44.36</ele>
        <time>2018-05-22T12:08:34Z</time>
      </trkpt>
      <trkpt lat="44.97151" lon="-0.30803">
        <ele>44.36</ele>
        <time>2018-05-22T12:08:36Z</time>
      </trkpt>
      <trkpt lat="44.97166" lon="-0.30817">
        <ele>43.4</ele>
        <time>2018-05-22T12:08:52Z</time>
      </trkpt>
      <trkpt lat="44.97175" lon="-0.30822">
        <ele>43.4</ele>
        <time>2018-05-22T12:09:01Z</time>
      </trkpt>
      <trkpt lat="44.97176" lon="-0.30824">
        <ele>43.4</ele>
        <time>2018-05-22T12:09:03Z</time>
      </trkpt>
      <trkpt lat="44.97193" lon="-0.30836">
        <ele>41.95</ele>
        <time>2018-05-22T12:09:20Z</time>
      </trkpt>
      <trkpt lat="44.9721" lon="-0.30848">
        <ele>41.47</ele>
        <time>2018-05-22T12:09:35Z</time>
      </trkpt>
      <trkpt lat="44.97227" lon="-0.3086">
        <ele>41.47</ele>
        <time>2018-05-22T12:09:51Z</time>
      </trkpt>
      <trkpt lat="44.97243" lon="-0.30871">
        <ele>40.51</ele>
        <time>2018-05-22T12:10:07Z</time>
      </trkpt>
      <trkpt lat="44.97256" lon="-0.30881">
        <ele>40.51</ele>
        <time>2018-05-22T12:10:20Z</time>
      </trkpt>
      <trkpt lat="44.97271" lon="-0.30894">
        <ele>40.03</ele>
        <time>2018-05-22T12:10:34Z</time>
      </trkpt>
      <trkpt lat="44.97286" lon="-0.30908">
        <ele>40.03</ele>
        <time>2018-05-22T12:10:50Z</time>
      </trkpt>
      <trkpt lat="44.97294" lon="-0.30914">
        <ele>40.03</ele>
        <time>2018-05-22T12:11:00Z</time>
      </trkpt>
      <trkpt lat="44.97306" lon="-0.30917">
        <ele>40.03</ele>
        <time>2018-05-22T12:11:14Z</time>
      </trkpt>
      <trkpt lat="44.97318" lon="-0.30913">
        <ele>39.55</ele>
        <time>2018-05-22T12:11:29Z</time>
      </trkpt>
      <trkpt lat="44.9734" lon="-0.30911">
        <ele>39.55</ele>
        <time>2018-05-22T12:11:45Z</time>
      </trkpt>
      <trkpt lat="44.9736" lon="-0.30906">
        <ele>40.51</ele>
        <time>2018-05-22T12:12:01Z</time>
      </trkpt>
      <trkpt lat="44.97377" lon="-0.30892">
        <ele>40.99</ele>
        <time>2018-05-22T12:12:17Z</time>
      </trkpt>
      <trkpt lat="44.97393" lon="-0.30874">
        <ele>42.44</ele>
        <time>2018-05-22T12:12:34Z</time>
      </trkpt>
      <trkpt lat="44.97409" lon="-0.30854">
        <ele>42.92</ele>
        <time>2018-05-22T12:12:52Z</time>
      </trkpt>
      <trkpt lat="44.97423" lon="-0.30837">
        <ele>44.36</ele>
        <time>2018-05-22T12:13:08Z</time>
      </trkpt>
      <trkpt lat="44.97437" lon="-0.30822">
        <ele>44.84</ele>
        <time>2018-05-22T12:13:27Z</time>
      </trkpt>
      <trkpt lat="44.97446" lon="-0.30813">
        <ele>44.36</ele>
        <time>2018-05-22T12:13:43Z</time>
      </trkpt>
      <trkpt lat="44.97457" lon="-0.30802">
        <ele>44.36</ele>
        <time>2018-05-22T12:13:57Z</time>
      </trkpt>
      <trkpt lat="44.9747" lon="-0.30807">
        <ele>44.36</ele>
        <time>2018-05-22T12:14:14Z</time>
      </trkpt>
      <trkpt lat="44.97478" lon="-0.3082">
        <ele>44.84</ele>
        <time>2018-05-22T12:14:26Z</time>
      </trkpt>
      <trkpt lat="44.97482" lon="-0.3083">
        <ele>44.84</ele>
        <time>2018-05-22T12:14:35Z</time>
      </trkpt>
      <trkpt lat="44.97491" lon="-0.30847">
        <ele>43.4</ele>
        <time>2018-05-22T12:14:47Z</time>
      </trkpt>
      <trkpt lat="44.97504" lon="-0.30856">
        <ele>42.92</ele>
        <time>2018-05-22T12:14:59Z</time>
      </trkpt>
      <trkpt lat="44.9752" lon="-0.30846">
        <ele>41.47</ele>
        <time>2018-05-22T12:15:14Z</time>
      </trkpt>
      <trkpt lat="44.97535" lon="-0.30831">
        <ele>40.03</ele>
        <time>2018-05-22T12:15:30Z</time>
      </trkpt>
      <trkpt lat="44.97548" lon="-0.30818">
        <ele>39.07</ele>
        <time>2018-05-22T12:15:45Z</time>
      </trkpt>
      <trkpt lat="44.97563" lon="-0.30804">
        <ele>39.07</ele>
        <time>2018-05-22T12:16:01Z</time>
      </trkpt>
      <trkpt lat="44.97577" lon="-0.30785">
        <ele>39.07</ele>
        <time>2018-05-22T12:16:17Z</time>
      </trkpt>
      <trkpt lat="44.97577" lon="-0.30784">
        <ele>39.07</ele>
        <time>2018-05-22T12:16:18Z</time>
      </trkpt>
      <trkpt lat="44.97579" lon="-0.30779">
        <ele>39.07</ele>
        <time>2018-05-22T12:16:21Z</time>
      </trkpt>
      <trkpt lat="44.97579" lon="-0.30745">
        <ele>39.07</ele>
        <time>2018-05-22T12:16:39Z</time>
      </trkpt>
      <trkpt lat="44.97575" lon="-0.30717">
        <ele>40.51</ele>
        <time>2018-05-22T12:16:56Z</time>
      </trkpt>
      <trkpt lat="44.97572" lon="-0.30696">
        <ele>40.51</ele>
        <time>2018-05-22T12:17:10Z</time>
      </trkpt>
      <trkpt lat="44.97569" lon="-0.30668">
        <ele>40.51</ele>
        <time>2018-05-22T12:17:27Z</time>
      </trkpt>
      <trkpt lat="44.97566" lon="-0.30646">
        <ele>40.51</ele>
        <time>2018-05-22T12:17:42Z</time>
      </trkpt>
      <trkpt lat="44.97563" lon="-0.30627">
        <ele>40.51</ele>
        <time>2018-05-22T12:17:57Z</time>
      </trkpt>
      <trkpt lat="44.97562" lon="-0.30613">
        <ele>40.51</ele>
        <time>2018-05-22T12:18:09Z</time>
      </trkpt>
      <trkpt lat="44.97562" lon="-0.3061">
        <ele>40.51</ele>
        <time>2018-05-22T12:18:20Z</time>
      </trkpt>
      <trkpt lat="44.97567" lon="-0.30604">
        <ele>40.51</ele>
        <time>2018-05-22T12:18:31Z</time>
      </trkpt>
      <trkpt lat="44.97585" lon="-0.30602">
        <ele>40.99</ele>
        <time>2018-05-22T12:18:48Z</time>
      </trkpt>
      <trkpt lat="44.97601" lon="-0.30602">
        <ele>41.95</ele>
        <time>2018-05-22T12:19:04Z</time>
      </trkpt>
      <trkpt lat="44.97619" lon="-0.30603">
        <ele>42.92</ele>
        <time>2018-05-22T12:19:21Z</time>
      </trkpt>
      <trkpt lat="44.97636" lon="-0.30601">
        <ele>43.88</ele>
        <time>2018-05-22T12:19:35Z</time>
      </trkpt>
      <trkpt lat="44.97656" lon="-0.30596">
        <ele>45.32</ele>
        <time>2018-05-22T12:19:51Z</time>
      </trkpt>
      <trkpt lat="44.97677" lon="-0.30592">
        <ele>46.28</ele>
        <time>2018-05-22T12:20:08Z</time>
      </trkpt>
      <trkpt lat="44.97696" lon="-0.30591">
        <ele>47.24</ele>
        <time>2018-05-22T12:20:24Z</time>
      </trkpt>
      <trkpt lat="44.97714" lon="-0.30589">
        <ele>48.2</ele>
        <time>2018-05-22T12:20:39Z</time>
      </trkpt>
      <trkpt lat="44.97734" lon="-0.30588">
        <ele>49.16</ele>
        <time>2018-05-22T12:20:55Z</time>
      </trkpt>
      <trkpt lat="44.97755" lon="-0.30587">
        <ele>50.13</ele>
        <time>2018-05-22T12:21:12Z</time>
      </trkpt>
      <trkpt lat="44.97773" lon="-0.30588">
        <ele>50.13</ele>
        <time>2018-05-22T12:21:28Z</time>
      </trkpt>
      <trkpt lat="44.97787" lon="-0.30593">
        <ele>50.61</ele>
        <time>2018-05-22T12:21:42Z</time>
      </trkpt>
      <trkpt lat="44.97787" lon="-0.30615">
        <ele>50.61</ele>
        <time>2018-05-22T12:21:56Z</time>
      </trkpt>
      <trkpt lat="44.97787" lon="-0.3064">
        <ele>50.61</ele>
        <time>2018-05-22T12:22:11Z</time>
      </trkpt>
      <trkpt lat="44.97788" lon="-0.30645">
        <ele>51.09</ele>
        <time>2018-05-22T12:22:14Z</time>
      </trkpt>
      <trkpt lat="44.97788" lon="-0.30652">
        <ele>51.09</ele>
        <time>2018-05-22T12:22:18Z</time>
      </trkpt>
      <trkpt lat="44.97788" lon="-0.30675">
        <ele>51.09</ele>
        <time>2018-05-22T12:22:32Z</time>
      </trkpt>
      <trkpt lat="44.97787" lon="-0.30703">
        <ele>51.57</ele>
        <time>2018-05-22T12:22:47Z</time>
      </trkpt>
      <trkpt lat="44.97787" lon="-0.3071">
        <ele>52.05</ele>
        <time>2018-05-22T12:22:53Z</time>
      </trkpt>
      <trkpt lat="44.97787" lon="-0.30712">
        <ele>52.05</ele>
        <time>2018-05-22T12:22:55Z</time>
      </trkpt>
      <trkpt lat="44.97787" lon="-0.30732">
        <ele>52.05</ele>
        <time>2018-05-22T12:23:08Z</time>
      </trkpt>
      <trkpt lat="44.97788" lon="-0.30761">
        <ele>52.53</ele>
        <time>2018-05-22T12:23:25Z</time>
      </trkpt>
      <trkpt lat="44.97788" lon="-0.30785">
        <ele>52.53</ele>
        <time>2018-05-22T12:23:40Z</time>
      </trkpt>
      <trkpt lat="44.97789" lon="-0.30811">
        <ele>53.01</ele>
        <time>2018-05-22T12:23:56Z</time>
      </trkpt>
      <trkpt lat="44.97788" lon="-0.30831">
        <ele>53.01</ele>
        <time>2018-05-22T12:24:08Z</time>
      </trkpt>
      <trkpt lat="44.97786" lon="-0.30851">
        <ele>53.49</ele>
        <time>2018-05-22T12:24:22Z</time>
      </trkpt>
      <trkpt lat="44.97783" lon="-0.30871">
        <ele>53.01</ele>
        <time>2018-05-22T12:24:36Z</time>
      </trkpt>
      <trkpt lat="44.97781" lon="-0.30896">
        <ele>53.01</ele>
        <time>2018-05-22T12:24:53Z</time>
      </trkpt>
      <trkpt lat="44.97782" lon="-0.3092">
        <ele>53.49</ele>
        <time>2018-05-22T12:25:08Z</time>
      </trkpt>
      <trkpt lat="44.97784" lon="-0.30942">
        <ele>53.97</ele>
        <time>2018-05-22T12:25:23Z</time>
      </trkpt>
      <trkpt lat="44.97784" lon="-0.3095">
        <ele>53.97</ele>
        <time>2018-05-22T12:25:28Z</time>
      </trkpt>
      <trkpt lat="44.97784" lon="-0.30953">
        <ele>53.97</ele>
        <time>2018-05-22T12:25:30Z</time>
      </trkpt>
      <trkpt lat="44.97784" lon="-0.30959">
        <ele>53.97</ele>
        <time>2018-05-22T12:25:35Z</time>
      </trkpt>
      <trkpt lat="44.97784" lon="-0.30974">
        <ele>53.97</ele>
        <time>2018-05-22T12:25:45Z</time>
      </trkpt>
      <trkpt lat="44.97783" lon="-0.30999">
        <ele>54.45</ele>
        <time>2018-05-22T12:26:02Z</time>
      </trkpt>
      <trkpt lat="44.97781" lon="-0.31015">
        <ele>54.45</ele>
        <time>2018-05-22T12:26:13Z</time>
      </trkpt>
      <trkpt lat="44.97781" lon="-0.3102">
        <ele>54.45</ele>
        <time>2018-05-22T12:26:17Z</time>
      </trkpt>
      <trkpt lat="44.97783" lon="-0.31022">
        <ele>54.93</ele>
        <time>2018-05-22T12:26:19Z</time>
      </trkpt>
      <trkpt lat="44.97789" lon="-0.31023">
        <ele>54.93</ele>
        <time>2018-05-22T12:26:31Z</time>
      </trkpt>
      <trkpt lat="44.97795" lon="-0.31023">
        <ele>54.93</ele>
        <time>2018-05-22T12:26:38Z</time>
      </trkpt>
      <trkpt lat="44.97811" lon="-0.31023">
        <ele>55.89</ele>
        <time>2018-05-22T12:26:52Z</time>
      </trkpt>
      <trkpt lat="44.97826" lon="-0.31022">
        <ele>55.89</ele>
        <time>2018-05-22T12:27:07Z</time>
      </trkpt>
      <trkpt lat="44.97848" lon="-0.31032">
        <ele>55.89</ele>
        <time>2018-05-22T12:27:22Z</time>
      </trkpt>
      <trkpt lat="44.97849" lon="-0.31036">
        <ele>55.89</ele>
        <time>2018-05-22T12:27:25Z</time>
      </trkpt>
      <trkpt lat="44.97855" lon="-0.31045">
        <ele>56.37</ele>
        <time>2018-05-22T12:27:33Z</time>
      </trkpt>
      <trkpt lat="44.97863" lon="-0.31062">
        <ele>56.37</ele>
        <time>2018-05-22T12:27:48Z</time>
      </trkpt>
      <trkpt lat="44.9786" lon="-0.31082">
        <ele>57.34</ele>
        <time>2018-05-22T12:28:05Z</time>
      </trkpt>
      <trkpt lat="44.97861" lon="-0.31107">
        <ele>57.34</ele>
        <time>2018-05-22T12:28:22Z</time>
      </trkpt>
      <trkpt lat="44.97869" lon="-0.31133">
        <ele>57.82</ele>
        <time>2018-05-22T12:28:38Z</time>
      </trkpt>
      <trkpt lat="44.97875" lon="-0.31145">
        <ele>57.82</ele>
        <time>2018-05-22T12:28:44Z</time>
      </trkpt>
      <trkpt lat="44.97891" lon="-0.31165">
        <ele>58.3</ele>
        <time>2018-05-22T12:29:01Z</time>
      </trkpt>
      <trkpt lat="44.97895" lon="-0.31172">
        <ele>58.3</ele>
        <time>2018-05-22T12:29:07Z</time>
      </trkpt>
      <trkpt lat="44.97905" lon="-0.31197">
        <ele>58.78</ele>
        <time>2018-05-22T12:29:23Z</time>
      </trkpt>
      <trkpt lat="44.97917" lon="-0.31223">
        <ele>58.78</ele>
        <time>2018-05-22T12:29:40Z</time>
      </trkpt>
      <trkpt lat="44.97927" lon="-0.31247">
        <ele>58.78</ele>
        <time>2018-05-22T12:29:56Z</time>
      </trkpt>
      <trkpt lat="44.97928" lon="-0.31258">
        <ele>58.78</ele>
        <time>2018-05-22T12:30:02Z</time>
      </trkpt>
      <trkpt lat="44.97933" lon="-0.31282">
        <ele>58.78</ele>
        <time>2018-05-22T12:30:17Z</time>
      </trkpt>
      <trkpt lat="44.97935" lon="-0.31302">
        <ele>58.78</ele>
        <time>2018-05-22T12:30:29Z</time>
      </trkpt>
      <trkpt lat="44.97937" lon="-0.31325">
        <ele>59.26</ele>
        <time>2018-05-22T12:30:43Z</time>
      </trkpt>
      <trkpt lat="44.97937" lon="-0.31326">
        <ele>59.26</ele>
        <time>2018-05-22T12:30:44Z</time>
      </trkpt>
      <trkpt lat="44.97939" lon="-0.31346">
        <ele>59.26</ele>
        <time>2018-05-22T12:30:55Z</time>
      </trkpt>
      <trkpt lat="44.97942" lon="-0.31375">
        <ele>59.74</ele>
        <time>2018-05-22T12:31:12Z</time>
      </trkpt>
      <trkpt lat="44.97945" lon="-0.31396">
        <ele>60.22</ele>
        <time>2018-05-22T12:31:26Z</time>
      </trkpt>
      <trkpt lat="44.97947" lon="-0.31423">
        <ele>60.22</ele>
        <time>2018-05-22T12:31:43Z</time>
      </trkpt>
      <trkpt lat="44.97949" lon="-0.31445">
        <ele>60.7</ele>
        <time>2018-05-22T12:31:56Z</time>
      </trkpt>
      <trkpt lat="44.97951" lon="-0.31475">
        <ele>60.7</ele>
        <time>2018-05-22T12:32:15Z</time>
      </trkpt>
      <trkpt lat="44.97953" lon="-0.31488">
        <ele>61.18</ele>
        <time>2018-05-22T12:32:28Z</time>
      </trkpt>
      <trkpt lat="44.97953" lon="-0.31493">
        <ele>61.18</ele>
        <time>2018-05-22T12:32:41Z</time>
      </trkpt>
      <trkpt lat="44.97953" lon="-0.31494">
        <ele>61.18</ele>
        <time>2018-05-22T12:33:07Z</time>
      </trkpt>
      <trkpt lat="44.97953" lon="-0.31492">
        <ele>61.18</ele>
        <time>2018-05-22T12:33:27Z</time>
      </trkpt>
      <trkpt lat="44.97952" lon="-0.31495">
        <ele>61.18</ele>
        <time>2018-05-22T12:33:42Z</time>
      </trkpt>
      <trkpt lat="44.97952" lon="-0.31497">
        <ele>60.7</ele>
        <time>2018-05-22T12:34:03Z</time>
      </trkpt>
      <trkpt lat="44.97952" lon="-0.31499">
        <ele>60.7</ele>
        <time>2018-05-22T12:34:30Z</time>
      </trkpt>
      <trkpt lat="44.97954" lon="-0.31522">
        <ele>60.7</ele>
        <time>2018-05-22T12:34:47Z</time>
      </trkpt>
      <trkpt lat="44.97956" lon="-0.31542">
        <ele>60.7</ele>
        <time>2018-05-22T12:35:01Z</time>
      </trkpt>
      <trkpt lat="44.97958" lon="-0.31565">
        <ele>61.18</ele>
        <time>2018-05-22T12:35:16Z</time>
      </trkpt>
      <trkpt lat="44.9796" lon="-0.31594">
        <ele>61.66</ele>
        <time>2018-05-22T12:35:33Z</time>
      </trkpt>
      <trkpt lat="44.97961" lon="-0.31618">
        <ele>62.14</ele>
        <time>2018-05-22T12:35:48Z</time>
      </trkpt>
      <trkpt lat="44.97963" lon="-0.3164">
        <ele>61.66</ele>
        <time>2018-05-22T12:36:02Z</time>
      </trkpt>
      <trkpt lat="44.97965" lon="-0.31661">
        <ele>62.14</ele>
        <time>2018-05-22T12:36:15Z</time>
      </trkpt>
      <trkpt lat="44.97968" lon="-0.31691">
        <ele>63.1</ele>
        <time>2018-05-22T12:36:33Z</time>
      </trkpt>
      <trkpt lat="44.97969" lon="-0.31698">
        <ele>63.1</ele>
        <time>2018-05-22T12:36:44Z</time>
      </trkpt>
      <trkpt lat="44.97974" lon="-0.31715">
        <ele>63.1</ele>
        <time>2018-05-22T12:36:56Z</time>
      </trkpt>
      <trkpt lat="44.97983" lon="-0.31737">
        <ele>63.58</ele>
        <time>2018-05-22T12:37:12Z</time>
      </trkpt>
      <trkpt lat="44.9799" lon="-0.31756">
        <ele>64.07</ele>
        <time>2018-05-22T12:37:25Z</time>
      </trkpt>
      <trkpt lat="44.97993" lon="-0.31764">
        <ele>64.07</ele>
        <time>2018-05-22T12:37:31Z</time>
      </trkpt>
      <trkpt lat="44.97996" lon="-0.31773">
        <ele>64.55</ele>
        <time>2018-05-22T12:37:37Z</time>
      </trkpt>
      <trkpt lat="44.98006" lon="-0.31798">
        <ele>64.55</ele>
        <time>2018-05-22T12:37:54Z</time>
      </trkpt>
      <trkpt lat="44.98021" lon="-0.31823">
        <ele>64.55</ele>
        <time>2018-05-22T12:38:13Z</time>
      </trkpt>
      <trkpt lat="44.98036" lon="-0.3184">
        <ele>65.03</ele>
        <time>2018-05-22T12:38:29Z</time>
      </trkpt>
      <trkpt lat="44.98051" lon="-0.31859">
        <ele>65.51</ele>
        <time>2018-05-22T12:38:46Z</time>
      </trkpt>
      <trkpt lat="44.98068" lon="-0.3188">
        <ele>65.99</ele>
        <time>2018-05-22T12:39:04Z</time>
      </trkpt>
      <trkpt lat="44.98082" lon="-0.31897">
        <ele>66.47</ele>
        <time>2018-05-22T12:39:20Z</time>
      </trkpt>
      <trkpt lat="44.981" lon="-0.31918">
        <ele>66.47</ele>
        <time>2018-05-22T12:39:38Z</time>
      </trkpt>
      <trkpt lat="44.98115" lon="-0.31936">
        <ele>66.47</ele>
        <time>2018-05-22T12:39:56Z</time>
      </trkpt>
      <trkpt lat="44.98128" lon="-0.31957">
        <ele>66.47</ele>
        <time>2018-05-22T12:40:13Z</time>
      </trkpt>
      <trkpt lat="44.98136" lon="-0.31975">
        <ele>66.47</ele>
        <time>2018-05-22T12:40:26Z</time>
      </trkpt>
      <trkpt lat="44.98145" lon="-0.31998">
        <ele>66.47</ele>
        <time>2018-05-22T12:40:41Z</time>
      </trkpt>
      <trkpt lat="44.98154" lon="-0.32019">
        <ele>66.47</ele>
        <time>2018-05-22T12:40:55Z</time>
      </trkpt>
      <trkpt lat="44.98165" lon="-0.3204">
        <ele>65.03</ele>
        <time>2018-05-22T12:41:10Z</time>
      </trkpt>
      <trkpt lat="44.98174" lon="-0.32063">
        <ele>65.03</ele>
        <time>2018-05-22T12:41:25Z</time>
      </trkpt>
      <trkpt lat="44.98184" lon="-0.32091">
        <ele>65.03</ele>
        <time>2018-05-22T12:41:43Z</time>
      </trkpt>
      <trkpt lat="44.98194" lon="-0.32112">
        <ele>65.03</ele>
        <time>2018-05-22T12:41:58Z</time>
      </trkpt>
      <trkpt lat="44.98206" lon="-0.32131">
        <ele>65.03</ele>
        <time>2018-05-22T12:42:14Z</time>
      </trkpt>
      <trkpt lat="44.98222" lon="-0.32132">
        <ele>66.47</ele>
        <time>2018-05-22T12:42:29Z</time>
      </trkpt>
      <trkpt lat="44.9824" lon="-0.32126">
        <ele>66.47</ele>
        <time>2018-05-22T12:42:44Z</time>
      </trkpt>
      <trkpt lat="44.98258" lon="-0.32119">
        <ele>66.47</ele>
        <time>2018-05-22T12:43:00Z</time>
      </trkpt>
      <trkpt lat="44.98275" lon="-0.32112">
        <ele>66.47</ele>
        <time>2018-05-22T12:43:15Z</time>
      </trkpt>
      <trkpt lat="44.98291" lon="-0.32104">
        <ele>66.47</ele>
        <time>2018-05-22T12:43:31Z</time>
      </trkpt>
      <trkpt lat="44.98293" lon="-0.32104">
        <ele>66.47</ele>
        <time>2018-05-22T12:43:47Z</time>
      </trkpt>
      <trkpt lat="44.98298" lon="-0.32108">
        <ele>66.47</ele>
        <time>2018-05-22T12:43:59Z</time>
      </trkpt>
      <trkpt lat="44.9831" lon="-0.32112">
        <ele>65.03</ele>
        <time>2018-05-22T12:44:11Z</time>
      </trkpt>
      <trkpt lat="44.98328" lon="-0.32112">
        <ele>64.07</ele>
        <time>2018-05-22T12:44:27Z</time>
      </trkpt>
      <trkpt lat="44.98346" lon="-0.3211">
        <ele>63.58</ele>
        <time>2018-05-22T12:44:43Z</time>
      </trkpt>
      <trkpt lat="44.98366" lon="-0.32103">
        <ele>62.62</ele>
        <time>2018-05-22T12:45:01Z</time>
      </trkpt>
      <trkpt lat="44.98383" lon="-0.32092">
        <ele>62.14</ele>
        <time>2018-05-22T12:45:17Z</time>
      </trkpt>
      <trkpt lat="44.98401" lon="-0.32079">
        <ele>61.66</ele>
        <time>2018-05-22T12:45:34Z</time>
      </trkpt>
      <trkpt lat="44.98417" lon="-0.32068">
        <ele>60.7</ele>
        <time>2018-05-22T12:45:49Z</time>
      </trkpt>
      <trkpt lat="44.98435" lon="-0.32059">
        <ele>59.26</ele>
        <time>2018-05-22T12:46:05Z</time>
      </trkpt>
      <trkpt lat="44.98451" lon="-0.32053">
        <ele>57.82</ele>
        <time>2018-05-22T12:46:20Z</time>
      </trkpt>
      <trkpt lat="44.98467" lon="-0.32048">
        <ele>56.86</ele>
        <time>2018-05-22T12:46:36Z</time>
      </trkpt>
      <trkpt lat="44.98485" lon="-0.32042">
        <ele>55.41</ele>
        <time>2018-05-22T12:46:53Z</time>
      </trkpt>
      <trkpt lat="44.98503" lon="-0.32033">
        <ele>54.45</ele>
        <time>2018-05-22T12:47:09Z</time>
      </trkpt>
      <trkpt lat="44.9852" lon="-0.32021">
        <ele>53.49</ele>
        <time>2018-05-22T12:47:25Z</time>
      </trkpt>
      <trkpt lat="44.98533" lon="-0.32011">
        <ele>53.01</ele>
        <time>2018-05-22T12:47:40Z</time>
      </trkpt>
      <trkpt lat="44.98545" lon="-0.32002">
        <ele>53.01</ele>
        <time>2018-05-22T12:47:53Z</time>
      </trkpt>
      <trkpt lat="44.98549" lon="-0.31995">
        <ele>52.53</ele>
        <time>2018-05-22T12:47:57Z</time>
      </trkpt>
      <trkpt lat="44.98565" lon="-0.31986">
        <ele>52.53</ele>
        <time>2018-05-22T12:48:11Z</time>
      </trkpt>
      <trkpt lat="44.98576" lon="-0.31981">
        <ele>53.01</ele>
        <time>2018-05-22T12:48:24Z</time>
      </trkpt>
      <trkpt lat="44.98582" lon="-0.31979">
        <ele>53.01</ele>
        <time>2018-05-22T12:48:28Z</time>
      </trkpt>
      <trkpt lat="44.98598" lon="-0.31984">
        <ele>53.01</ele>
        <time>2018-05-22T12:48:42Z</time>
      </trkpt>
      <trkpt lat="44.98606" lon="-0.31986">
        <ele>53.01</ele>
        <time>2018-05-22T12:48:51Z</time>
      </trkpt>
      <trkpt lat="44.9861" lon="-0.31988">
        <ele>53.49</ele>
        <time>2018-05-22T12:48:55Z</time>
      </trkpt>
      <trkpt lat="44.98621" lon="-0.31998">
        <ele>54.45</ele>
        <time>2018-05-22T12:49:05Z</time>
      </trkpt>
      <trkpt lat="44.98643" lon="-0.32011">
        <ele>54.93</ele>
        <time>2018-05-22T12:49:20Z</time>
      </trkpt>
      <trkpt lat="44.98657" lon="-0.32024">
        <ele>54.93</ele>
        <time>2018-05-22T12:49:33Z</time>
      </trkpt>
      <trkpt lat="44.98673" lon="-0.3204">
        <ele>54.93</ele>
        <time>2018-05-22T12:49:48Z</time>
      </trkpt>
      <trkpt lat="44.98689" lon="-0.32059">
        <ele>54.93</ele>
        <time>2018-05-22T12:50:04Z</time>
      </trkpt>
      <trkpt lat="44.98691" lon="-0.32061">
        <ele>53.97</ele>
        <time>2018-05-22T12:50:06Z</time>
      </trkpt>
      <trkpt lat="44.98707" lon="-0.3208">
        <ele>53.49</ele>
        <time>2018-05-22T12:50:24Z</time>
      </trkpt>
      <trkpt lat="44.98709" lon="-0.32082">
        <ele>53.49</ele>
        <time>2018-05-22T12:50:26Z</time>
      </trkpt>
      <trkpt lat="44.98718" lon="-0.32097">
        <ele>53.01</ele>
        <time>2018-05-22T12:50:39Z</time>
      </trkpt>
      <trkpt lat="44.98717" lon="-0.32105">
        <ele>51.57</ele>
        <time>2018-05-22T12:50:45Z</time>
      </trkpt>
      <trkpt lat="44.98717" lon="-0.32108">
        <ele>51.57</ele>
        <time>2018-05-22T12:50:47Z</time>
      </trkpt>
      <trkpt lat="44.98715" lon="-0.32113">
        <ele>51.57</ele>
        <time>2018-05-22T12:50:52Z</time>
      </trkpt>
      <trkpt lat="44.98711" lon="-0.32135">
        <ele>50.13</ele>
        <time>2018-05-22T12:51:07Z</time>
      </trkpt>
      <trkpt lat="44.9871" lon="-0.32154">
        <ele>48.2</ele>
        <time>2018-05-22T12:51:21Z</time>
      </trkpt>
      <trkpt lat="44.9871" lon="-0.32155">
        <ele>48.2</ele>
        <time>2018-05-22T12:51:22Z</time>
      </trkpt>
      <trkpt lat="44.98711" lon="-0.32165">
        <ele>48.2</ele>
        <time>2018-05-22T12:51:34Z</time>
      </trkpt>
      <trkpt lat="44.98712" lon="-0.32166">
        <ele>48.2</ele>
        <time>2018-05-22T12:51:50Z</time>
      </trkpt>
      <trkpt lat="44.98713" lon="-0.32167">
        <ele>48.2</ele>
        <time>2018-05-22T12:52:06Z</time>
      </trkpt>
      <trkpt lat="44.98714" lon="-0.3217">
        <ele>48.2</ele>
        <time>2018-05-22T12:52:19Z</time>
      </trkpt>
      <trkpt lat="44.98717" lon="-0.3217">
        <ele>47.72</ele>
        <time>2018-05-22T12:52:33Z</time>
      </trkpt>
      <trkpt lat="44.98717" lon="-0.32168">
        <ele>47.24</ele>
        <time>2018-05-22T12:52:48Z</time>
      </trkpt>
      <trkpt lat="44.98716" lon="-0.32169">
        <ele>47.24</ele>
        <time>2018-05-22T12:53:10Z</time>
      </trkpt>
      <trkpt lat="44.98716" lon="-0.32168">
        <ele>47.24</ele>
        <time>2018-05-22T12:53:14Z</time>
      </trkpt>
      <trkpt lat="44.98716" lon="-0.32169">
        <ele>47.24</ele>
        <time>2018-05-22T12:53:26Z</time>
      </trkpt>
      <trkpt lat="44.98717" lon="-0.32172">
        <ele>47.24</ele>
        <time>2018-05-22T12:53:34Z</time>
      </trkpt>
      <trkpt lat="44.98728" lon="-0.32189">
        <ele>46.28</ele>
        <time>2018-05-22T12:53:50Z</time>
      </trkpt>
      <trkpt lat="44.98738" lon="-0.32202">
        <ele>45.8</ele>
        <time>2018-05-22T12:54:04Z</time>
      </trkpt>
      <trkpt lat="44.98745" lon="-0.32206">
        <ele>44.84</ele>
        <time>2018-05-22T12:54:17Z</time>
      </trkpt>
      <trkpt lat="44.98755" lon="-0.32221">
        <ele>43.88</ele>
        <time>2018-05-22T12:54:32Z</time>
      </trkpt>
      <trkpt lat="44.98756" lon="-0.32224">
        <ele>43.88</ele>
        <time>2018-05-22T12:54:34Z</time>
      </trkpt>
      <trkpt lat="44.98759" lon="-0.32231">
        <ele>42.44</ele>
        <time>2018-05-22T12:54:40Z</time>
      </trkpt>
      <trkpt lat="44.98759" lon="-0.32239">
        <ele>42.44</ele>
        <time>2018-05-22T12:54:46Z</time>
      </trkpt>
      <trkpt lat="44.98757" lon="-0.32254">
        <ele>42.44</ele>
        <time>2018-05-22T12:54:57Z</time>
      </trkpt>
      <trkpt lat="44.98757" lon="-0.32275">
        <ele>41.95</ele>
        <time>2018-05-22T12:55:12Z</time>
      </trkpt>
      <trkpt lat="44.9876" lon="-0.32289">
        <ele>41.95</ele>
        <time>2018-05-22T12:55:21Z</time>
      </trkpt>
      <trkpt lat="44.98768" lon="-0.32317">
        <ele>41.95</ele>
        <time>2018-05-22T12:55:38Z</time>
      </trkpt>
      <trkpt lat="44.98768" lon="-0.32319">
        <ele>41.95</ele>
        <time>2018-05-22T12:55:39Z</time>
      </trkpt>
      <trkpt lat="44.98771" lon="-0.32325">
        <ele>41.95</ele>
        <time>2018-05-22T12:55:43Z</time>
      </trkpt>
      <trkpt lat="44.98778" lon="-0.32354">
        <ele>42.92</ele>
        <time>2018-05-22T12:56:00Z</time>
      </trkpt>
      <trkpt lat="44.98781" lon="-0.32378">
        <ele>42.92</ele>
        <time>2018-05-22T12:56:15Z</time>
      </trkpt>
      <trkpt lat="44.98783" lon="-0.32397">
        <ele>42.92</ele>
        <time>2018-05-22T12:56:26Z</time>
      </trkpt>
      <trkpt lat="44.98785" lon="-0.32424">
        <ele>43.4</ele>
        <time>2018-05-22T12:56:42Z</time>
      </trkpt>
      <trkpt lat="44.98786" lon="-0.32442">
        <ele>43.4</ele>
        <time>2018-05-22T12:56:54Z</time>
      </trkpt>
      <trkpt lat="44.98785" lon="-0.32466">
        <ele>43.88</ele>
        <time>2018-05-22T12:57:10Z</time>
      </trkpt>
      <trkpt lat="44.98784" lon="-0.32494">
        <ele>44.36</ele>
        <time>2018-05-22T12:57:27Z</time>
      </trkpt>
      <trkpt lat="44.98791" lon="-0.32519">
        <ele>44.36</ele>
        <time>2018-05-22T12:57:42Z</time>
      </trkpt>
      <trkpt lat="44.98803" lon="-0.32545">
        <ele>44.84</ele>
        <time>2018-05-22T12:57:58Z</time>
      </trkpt>
      <trkpt lat="44.98815" lon="-0.32571">
        <ele>45.32</ele>
        <time>2018-05-22T12:58:15Z</time>
      </trkpt>
      <trkpt lat="44.98828" lon="-0.32599">
        <ele>46.28</ele>
        <time>2018-05-22T12:58:34Z</time>
      </trkpt>
      <trkpt lat="44.98839" lon="-0.32622">
        <ele>47.24</ele>
        <time>2018-05-22T12:58:51Z</time>
      </trkpt>
      <trkpt lat="44.9885" lon="-0.32644">
        <ele>47.72</ele>
        <time>2018-05-22T12:59:07Z</time>
      </trkpt>
      <trkpt lat="44.9886" lon="-0.32657">
        <ele>47.72</ele>
        <time>2018-05-22T12:59:18Z</time>
      </trkpt>
      <trkpt lat="44.98866" lon="-0.32672">
        <ele>47.24</ele>
        <time>2018-05-22T12:59:32Z</time>
      </trkpt>
      <trkpt lat="44.98878" lon="-0.32676">
        <ele>46.28</ele>
        <time>2018-05-22T12:59:45Z</time>
      </trkpt>
      <trkpt lat="44.9889" lon="-0.32673">
        <ele>45.8</ele>
        <time>2018-05-22T13:00:00Z</time>
      </trkpt>
      <trkpt lat="44.98906" lon="-0.32675">
        <ele>45.8</ele>
        <time>2018-05-22T13:00:14Z</time>
      </trkpt>
      <trkpt lat="44.98916" lon="-0.32672">
        <ele>45.32</ele>
        <time>2018-05-22T13:00:30Z</time>
      </trkpt>
      <trkpt lat="44.98915" lon="-0.32679">
        <ele>45.32</ele>
        <time>2018-05-22T13:00:44Z</time>
      </trkpt>
      <trkpt lat="44.98914" lon="-0.32683">
        <ele>45.32</ele>
        <time>2018-05-22T13:00:49Z</time>
      </trkpt>
      <trkpt lat="44.9891" lon="-0.32702">
        <ele>45.32</ele>
        <time>2018-05-22T13:01:04Z</time>
      </trkpt>
      <trkpt lat="44.98907" lon="-0.32719">
        <ele>46.76</ele>
        <time>2018-05-22T13:01:18Z</time>
      </trkpt>
      <trkpt lat="44.98905" lon="-0.32739">
        <ele>47.24</ele>
        <time>2018-05-22T13:01:33Z</time>
      </trkpt>
      <trkpt lat="44.98906" lon="-0.32764">
        <ele>48.68</ele>
        <time>2018-05-22T13:01:47Z</time>
      </trkpt>
      <trkpt lat="44.98912" lon="-0.32787">
        <ele>49.65</ele>
        <time>2018-05-22T13:02:00Z</time>
      </trkpt>
      <trkpt lat="44.9892" lon="-0.32808">
        <ele>50.61</ele>
        <time>2018-05-22T13:02:15Z</time>
      </trkpt>
      <trkpt lat="44.98929" lon="-0.32835">
        <ele>52.05</ele>
        <time>2018-05-22T13:02:33Z</time>
      </trkpt>
      <trkpt lat="44.98935" lon="-0.32859">
        <ele>52.53</ele>
        <time>2018-05-22T13:02:51Z</time>
      </trkpt>
      <trkpt lat="44.98939" lon="-0.32875">
        <ele>53.01</ele>
        <time>2018-05-22T13:03:04Z</time>
      </trkpt>
      <trkpt lat="44.9894" lon="-0.32894">
        <ele>54.45</ele>
        <time>2018-05-22T13:03:19Z</time>
      </trkpt>
      <trkpt lat="44.98944" lon="-0.32918">
        <ele>55.89</ele>
        <time>2018-05-22T13:03:34Z</time>
      </trkpt>
      <trkpt lat="44.98949" lon="-0.32941">
        <ele>57.82</ele>
        <time>2018-05-22T13:03:51Z</time>
      </trkpt>
      <trkpt lat="44.98951" lon="-0.32957">
        <ele>57.82</ele>
        <time>2018-05-22T13:04:03Z</time>
      </trkpt>
      <trkpt lat="44.98956" lon="-0.32984">
        <ele>58.3</ele>
        <time>2018-05-22T13:04:18Z</time>
      </trkpt>
      <trkpt lat="44.98962" lon="-0.3301">
        <ele>58.78</ele>
        <time>2018-05-22T13:04:32Z</time>
      </trkpt>
      <trkpt lat="44.98968" lon="-0.33042">
        <ele>58.78</ele>
        <time>2018-05-22T13:04:47Z</time>
      </trkpt>
      <trkpt lat="44.98975" lon="-0.33072">
        <ele>59.26</ele>
        <time>2018-05-22T13:05:04Z</time>
      </trkpt>
      <trkpt lat="44.98981" lon="-0.33098">
        <ele>59.26</ele>
        <time>2018-05-22T13:05:20Z</time>
      </trkpt>
      <trkpt lat="44.98991" lon="-0.33123">
        <ele>59.26</ele>
        <time>2018-05-22T13:05:37Z</time>
      </trkpt>
      <trkpt lat="44.99" lon="-0.33145">
        <ele>58.3</ele>
        <time>2018-05-22T13:05:53Z</time>
      </trkpt>
      <trkpt lat="44.99002" lon="-0.33153">
        <ele>57.82</ele>
        <time>2018-05-22T13:05:58Z</time>
      </trkpt>
      <trkpt lat="44.99011" lon="-0.33184">
        <ele>57.34</ele>
        <time>2018-05-22T13:06:17Z</time>
      </trkpt>
      <trkpt lat="44.99017" lon="-0.3321">
        <ele>57.34</ele>
        <time>2018-05-22T13:06:33Z</time>
      </trkpt>
      <trkpt lat="44.99026" lon="-0.33238">
        <ele>56.86</ele>
        <time>2018-05-22T13:06:50Z</time>
      </trkpt>
      <trkpt lat="44.99034" lon="-0.33262">
        <ele>56.37</ele>
        <time>2018-05-22T13:07:06Z</time>
      </trkpt>
      <trkpt lat="44.99042" lon="-0.33289">
        <ele>55.89</ele>
        <time>2018-05-22T13:07:23Z</time>
      </trkpt>
      <trkpt lat="44.99049" lon="-0.33317">
        <ele>55.89</ele>
        <time>2018-05-22T13:07:41Z</time>
      </trkpt>
      <trkpt lat="44.99051" lon="-0.33324">
        <ele>55.89</ele>
        <time>2018-05-22T13:07:45Z</time>
      </trkpt>
      <trkpt lat="44.99052" lon="-0.33332">
        <ele>55.89</ele>
        <time>2018-05-22T13:07:50Z</time>
      </trkpt>
      <trkpt lat="44.99059" lon="-0.3336">
        <ele>55.89</ele>
        <time>2018-05-22T13:08:08Z</time>
      </trkpt>
      <trkpt lat="44.99063" lon="-0.33385">
        <ele>56.37</ele>
        <time>2018-05-22T13:08:23Z</time>
      </trkpt>
      <trkpt lat="44.99069" lon="-0.33414">
        <ele>57.34</ele>
        <time>2018-05-22T13:08:41Z</time>
      </trkpt>
      <trkpt lat="44.99075" lon="-0.3344">
        <ele>58.3</ele>
        <time>2018-05-22T13:08:57Z</time>
      </trkpt>
      <trkpt lat="44.99085" lon="-0.33465">
        <ele>58.78</ele>
        <time>2018-05-22T13:09:12Z</time>
      </trkpt>
      <trkpt lat="44.99088" lon="-0.33473">
        <ele>58.78</ele>
        <time>2018-05-22T13:09:17Z</time>
      </trkpt>
      <trkpt lat="44.99096" lon="-0.33499">
        <ele>59.74</ele>
        <time>2018-05-22T13:09:33Z</time>
      </trkpt>
      <trkpt lat="44.99105" lon="-0.33519">
        <ele>60.7</ele>
        <time>2018-05-22T13:09:48Z</time>
      </trkpt>
      <trkpt lat="44.99113" lon="-0.33537">
        <ele>62.62</ele>
        <time>2018-05-22T13:10:02Z</time>
      </trkpt>
      <trkpt lat="44.99117" lon="-0.33553">
        <ele>64.55</ele>
        <time>2018-05-22T13:10:16Z</time>
      </trkpt>
      <trkpt lat="44.99128" lon="-0.33564">
        <ele>65.51</ele>
        <time>2018-05-22T13:10:31Z</time>
      </trkpt>
      <trkpt lat="44.99132" lon="-0.3357">
        <ele>66.47</ele>
        <time>2018-05-22T13:10:37Z</time>
      </trkpt>
      <trkpt lat="44.99141" lon="-0.33583">
        <ele>67.43</ele>
        <time>2018-05-22T13:10:50Z</time>
      </trkpt>
      <trkpt lat="44.99153" lon="-0.33596">
        <ele>65.03</ele>
        <time>2018-05-22T13:11:05Z</time>
      </trkpt>
      <trkpt lat="44.99164" lon="-0.33618">
        <ele>65.03</ele>
        <time>2018-05-22T13:11:22Z</time>
      </trkpt>
      <trkpt lat="44.99175" lon="-0.33642">
        <ele>64.55</ele>
        <time>2018-05-22T13:11:40Z</time>
      </trkpt>
      <trkpt lat="44.99184" lon="-0.33665">
        <ele>64.55</ele>
        <time>2018-05-22T13:11:54Z</time>
      </trkpt>
      <trkpt lat="44.9919" lon="-0.33673">
        <ele>64.07</ele>
        <time>2018-05-22T13:12:07Z</time>
      </trkpt>
      <trkpt lat="44.99194" lon="-0.3368">
        <ele>64.07</ele>
        <time>2018-05-22T13:12:31Z</time>
      </trkpt>
      <trkpt lat="44.99193" lon="-0.33684">
        <ele>65.51</ele>
        <time>2018-05-22T13:12:38Z</time>
      </trkpt>
      <trkpt lat="44.9919" lon="-0.33686">
        <ele>67.91</ele>
        <time>2018-05-22T13:12:49Z</time>
      </trkpt>
      <trkpt lat="44.99187" lon="-0.33701">
        <ele>68.87</ele>
        <time>2018-05-22T13:13:03Z</time>
      </trkpt>
      <trkpt lat="44.99184" lon="-0.33714">
        <ele>70.79</ele>
        <time>2018-05-22T13:13:16Z</time>
      </trkpt>
      <trkpt lat="44.99185" lon="-0.3373">
        <ele>71.27</ele>
        <time>2018-05-22T13:13:29Z</time>
      </trkpt>
      <trkpt lat="44.99181" lon="-0.33746">
        <ele>73.68</ele>
        <time>2018-05-22T13:13:43Z</time>
      </trkpt>
      <trkpt lat="44.9918" lon="-0.33748">
        <ele>73.68</ele>
        <time>2018-05-22T13:13:45Z</time>
      </trkpt>
      <trkpt lat="44.99189" lon="-0.33785">
        <ele>73.68</ele>
        <time>2018-05-22T13:14:03Z</time>
      </trkpt>
      <trkpt lat="44.99198" lon="-0.33813">
        <ele>73.68</ele>
        <time>2018-05-22T13:14:20Z</time>
      </trkpt>
      <trkpt lat="44.99207" lon="-0.33841">
        <ele>73.68</ele>
        <time>2018-05-22T13:14:37Z</time>
      </trkpt>
      <trkpt lat="44.99215" lon="-0.33866">
        <ele>74.16</ele>
        <time>2018-05-22T13:14:52Z</time>
      </trkpt>
      <trkpt lat="44.99219" lon="-0.33887">
        <ele>74.16</ele>
        <time>2018-05-22T13:15:06Z</time>
      </trkpt>
      <trkpt lat="44.99221" lon="-0.339">
        <ele>74.16</ele>
        <time>2018-05-22T13:15:14Z</time>
      </trkpt>
      <trkpt lat="44.99221" lon="-0.33906">
        <ele>74.16</ele>
        <time>2018-05-22T13:15:18Z</time>
      </trkpt>
      <trkpt lat="44.99221" lon="-0.33915">
        <ele>74.16</ele>
        <time>2018-05-22T13:15:23Z</time>
      </trkpt>
      <trkpt lat="44.99221" lon="-0.33938">
        <ele>74.16</ele>
        <time>2018-05-22T13:15:38Z</time>
      </trkpt>
      <trkpt lat="44.9922" lon="-0.3394">
        <ele>74.16</ele>
        <time>2018-05-22T13:15:39Z</time>
      </trkpt>
      <trkpt lat="44.99219" lon="-0.33946">
        <ele>74.16</ele>
        <time>2018-05-22T13:15:44Z</time>
      </trkpt>
      <trkpt lat="44.9922" lon="-0.33961">
        <ele>74.16</ele>
        <time>2018-05-22T13:15:58Z</time>
      </trkpt>
      <trkpt lat="44.99222" lon="-0.33962">
        <ele>75.12</ele>
        <time>2018-05-22T13:16:12Z</time>
      </trkpt>
      <trkpt lat="44.99221" lon="-0.33962">
        <ele>75.12</ele>
        <time>2018-05-22T13:16:48Z</time>
      </trkpt>
      <trkpt lat="44.99221" lon="-0.3396">
        <ele>75.12</ele>
        <time>2018-05-22T13:17:23Z</time>
      </trkpt>
      <trkpt lat="44.99222" lon="-0.33966">
        <ele>74.64</ele>
        <time>2018-05-22T13:17:57Z</time>
      </trkpt>
      <trkpt lat="44.99224" lon="-0.33966">
        <ele>74.64</ele>
        <time>2018-05-22T13:18:31Z</time>
      </trkpt>
      <trkpt lat="44.9922" lon="-0.33965">
        <ele>74.16</ele>
        <time>2018-05-22T13:19:12Z</time>
      </trkpt>
      <trkpt lat="44.99221" lon="-0.33962">
        <ele>74.16</ele>
        <time>2018-05-22T13:19:51Z</time>
      </trkpt>
      <trkpt lat="44.99223" lon="-0.33964">
        <ele>73.2</ele>
        <time>2018-05-22T13:20:13Z</time>
      </trkpt>
      <trkpt lat="44.99223" lon="-0.33964">
        <ele>73.2</ele>
        <time>2018-05-22T13:20:18Z</time>
      </trkpt>
    </trkseg>
  </trk>
</gpx>